AA207 / N388AA 7700 Squawk Report (6th of December, 2018)

Aircraft B763 Reg No. N388AA Age 24 years old
Model 767 Jet engines 2 First flight 10-12-94
Registered 13-01-95 Rollout N/A Delivered 13-01-95
Construction No. 27448 Line No. 0563 Series 323(ER)
ADSHEX A47903 Airline name American Airlines Owner N/A
Airfield based Dallas-Fort Worth~TX~N First tracked N/A
Time Lat Lon Altitude Heading Speed Vertical Rate
2018-12-06 21:37:10 GMT 51.468384 -0.461574 0 0
2018-12-06 21:37:00 GMT 51.468410 -0.461521 0 1
2018-12-06 21:36:51 GMT 51.468441 -0.461444 0 1
2018-12-06 21:36:41 GMT 51.468464 -0.461389 0 0
2018-12-06 21:36:31 GMT 51.468479 -0.461349 0 3
2018-12-06 21:36:19 GMT 51.468597 -0.461082 0 5
2018-12-06 21:35:42 GMT 51.468533 -0.460127 0 6
2018-12-06 21:35:34 GMT 51.468338 -0.459941 0 7
2018-12-06 21:35:29 GMT 51.468201 -0.459843 0 7
2018-12-06 21:35:19 GMT 51.467899 -0.459824 0 7
2018-12-06 21:35:11 GMT 51.467712 -0.459881 0 6
2018-12-06 21:35:08 GMT 51.467617 -0.459941 0 7
2018-12-06 21:34:59 GMT 51.467491 -0.460331 0 7
2018-12-06 21:34:52 GMT 51.467480 -0.460702 0 7
2018-12-06 21:34:45 GMT 51.467480 -0.461055 0 7
2018-12-06 21:34:40 GMT 51.467480 -0.461240 0 7
2018-12-06 21:34:31 GMT 51.467468 -0.461712 0 7
2018-12-06 21:34:24 GMT 51.467468 -0.462036 0 7
2018-12-06 21:34:21 GMT 51.467468 -0.462189 0 7
2018-12-06 21:34:17 GMT 51.467480 -0.462360 0 7
2018-12-06 21:34:08 GMT 51.467468 -0.462836 0 7
2018-12-06 21:34:00 GMT 51.467468 -0.463207 0 7
2018-12-06 21:33:57 GMT 51.467468 -0.463356 0 7
2018-12-06 21:33:50 GMT 51.467491 -0.463734 0 7
2018-12-06 21:33:40 GMT 51.467663 -0.464135 0 7
2018-12-06 21:33:37 GMT 51.467735 -0.464211 0 7
2018-12-06 21:33:26 GMT 51.468006 -0.464506 0 7
2018-12-06 21:33:11 GMT 51.468407 -0.464952 0 7
We lost coverage of the aircraft here for a total of 470 minutes
2018-12-06 13:43:39 GMT 51.477585 -0.455487 200 270 156 -704
2018-12-06 13:43:28 GMT 51.477631 -0.444575 75 270 158 -128
2018-12-06 13:43:17 GMT 51.477722 -0.431881 125 270 156 -640
2018-12-06 13:43:13 GMT 51.477745 -0.427628 175 270 155 -640
2018-12-06 13:43:08 GMT 51.477745 -0.421295 225 270 155 -704
2018-12-06 13:43:01 GMT 51.477768 -0.409389 375 270 149 -1024
2018-12-06 13:42:57 GMT 51.477768 -0.409389 400 270 151 -896
2018-12-06 13:42:52 GMT 51.477837 -0.403137 475 270 149 -1024
2018-12-06 13:42:47 GMT 51.477837 -0.397873 575 271 145 -768
2018-12-06 13:42:43 GMT 51.477814 -0.393578 600 271 143 -896
2018-12-06 13:42:39 GMT 51.477768 -0.388827 650 270 140 -640
2018-12-06 13:42:36 GMT 51.477745 -0.385513 700 270 140 -640
2018-12-06 13:42:32 GMT 51.477814 -0.381255 750 269 140 -704
2018-12-06 13:42:29 GMT 51.477882 -0.375137 800 270 144 -832
2018-12-06 13:42:22 GMT 51.477882 -0.371857 850 271 145 -768
2018-12-06 13:42:19 GMT 51.477882 -0.367584 900 271 146 -768
2018-12-06 13:42:15 GMT 51.477882 -0.364532 950 270 147 -768
2018-12-06 13:42:12 GMT 51.477859 -0.361138 975 269 147 -768
2018-12-06 13:42:09 GMT 51.477928 -0.356827 1,025 270 147 -704
2018-12-06 13:42:06 GMT 51.477928 -0.354004 1,075 270 147 -768
2018-12-06 13:42:02 GMT 51.477978 -0.350037 1,200 270 148 -832
2018-12-06 13:41:58 GMT 51.477997 -0.345624 1,150 270 148 -832
2018-12-06 13:41:55 GMT 51.477997 -0.342432 1,200 271 148 -768
2018-12-06 13:41:52 GMT 51.477978 -0.338669 1,250 271 147 -768
2018-12-06 13:41:47 GMT 51.477951 -0.333079 1,325 270 147 -832
2018-12-06 13:41:43 GMT 51.477997 -0.328328 1,375 270 147 -768
2018-12-06 13:41:40 GMT 51.477997 -0.326175 1,425 270 148 -832
2018-12-06 13:41:37 GMT 51.477978 -0.323257 1,425 270 148 -896
2018-12-06 13:41:34 GMT 51.477997 -0.320088 1,475 270 149 -896
2018-12-06 13:41:31 GMT 51.477978 -0.316010 1,525 269 150 -832
2018-12-06 13:41:27 GMT 51.478024 -0.312042 1,575 269 150 -832
2018-12-06 13:41:24 GMT 51.478069 -0.308685 1,600 269 150 -896
2018-12-06 13:41:21 GMT 51.478088 -0.305242 1,725 270 146 -768
2018-12-06 13:41:17 GMT 51.478088 -0.300565 1,750 270 141 -640
2018-12-06 13:41:14 GMT 51.478088 -0.297299 1,750 271 140 -640
2018-12-06 13:41:11 GMT 51.478069 -0.290833 1,850 270 141 -832
2018-12-06 13:41:08 GMT 51.478069 -0.290833 1,850 270 141 -832
2018-12-06 13:41:05 GMT 51.478088 -0.288168 1,900 270 141 -704
2018-12-06 13:41:02 GMT 51.478088 -0.283418 1,925 270 141 -768
2018-12-06 13:40:59 GMT 51.478069 -0.281448 1,950 270 141 -768
2018-12-06 13:40:56 GMT 51.478115 -0.277710 2,025 270 140 -832
2018-12-06 13:40:52 GMT 51.478115 -0.273743 2,050 270 140 -768
2018-12-06 13:40:49 GMT 51.478115 -0.271530 2,075 270 140 -768
2018-12-06 13:40:46 GMT 51.478115 -0.268326 2,100 270 140 -704
2018-12-06 13:40:43 GMT 51.478115 -0.265274 2,150 270 138 -704
2018-12-06 13:40:39 GMT 51.478115 -0.261230 2,175 271 138 -704
2018-12-06 13:40:35 GMT 51.478134 -0.253651 2,250 270 137 -832
2018-12-06 13:40:32 GMT 51.478134 -0.253651 2,300 270 137 -768
2018-12-06 13:40:29 GMT 51.478134 -0.251572 2,325 270 137 -768
2018-12-06 13:40:26 GMT 51.478134 -0.246895 2,375 270 133 -576
2018-12-06 13:40:22 GMT 51.478134 -0.244297 2,400 270 133 -640
2018-12-06 13:40:19 GMT 51.478134 -0.237913 2,450 270 133 -576
2018-12-06 13:40:16 GMT 51.478134 -0.237913 2,550 269 134 -896
2018-12-06 13:40:12 GMT 51.478180 -0.233385 2,550 269 135 -896
2018-12-06 13:40:08 GMT 51.478226 -0.230045 2,575 269 136 -768
2018-12-06 13:40:04 GMT 51.478302 -0.225983 2,625 269 137 -768
2018-12-06 13:40:01 GMT 51.478348 -0.223465 2,675 270 138 -704
2018-12-06 13:39:58 GMT 51.478363 -0.219801 2,725 271 139 -768
2018-12-06 13:39:55 GMT 51.478348 -0.217209 2,750 272 136 -768
2018-12-06 13:39:52 GMT 51.478256 -0.210114 2,825 271 133 -704
2018-12-06 13:39:46 GMT 51.478210 -0.207825 2,900 270 130 -832
2018-12-06 13:39:43 GMT 51.478210 -0.204239 2,950 270 129 -768
2018-12-06 13:39:40 GMT 51.478226 -0.199090 2,975 270 130 -384
2018-12-06 13:39:34 GMT 51.478256 -0.196228 2,975 270 130 -128
2018-12-06 13:39:31 GMT 51.478256 -0.193253 2,975 271 130 64
2018-12-06 13:39:27 GMT 51.478226 -0.189811 2,975 271 130 64
2018-12-06 13:39:24 GMT 51.478226 -0.186174 2,975 270 130 0
2018-12-06 13:39:21 GMT 51.478210 -0.183945 2,975 270 129 0
2018-12-06 13:39:18 GMT 51.478226 -0.181052 2,975 270 131 0
2018-12-06 13:39:15 GMT 51.478256 -0.178070 2,975 270 131 0
2018-12-06 13:39:12 GMT 51.478226 -0.175039 2,975 270 130 64
2018-12-06 13:39:09 GMT 51.478226 -0.171476 2,975 270 132 -64
2018-12-06 13:39:06 GMT 51.478256 -0.168915 2,975 270 132 -64
2018-12-06 13:39:02 GMT 51.478256 -0.164948 2,975 270 133 0
2018-12-06 13:38:56 GMT 51.478271 -0.159821 2,975 269 133 0
2018-12-06 13:38:53 GMT 51.478348 -0.156250 2,975 269 134 -64
2018-12-06 13:38:50 GMT 51.478363 -0.153957 2,975 270 135 -64
2018-12-06 13:38:47 GMT 51.478443 -0.150833 2,975 270 135 -64
2018-12-06 13:38:44 GMT 51.478455 -0.146979 3,000 273 134 192
2018-12-06 13:38:41 GMT 51.478443 -0.143967 3,000 273 134 0
2018-12-06 13:38:38 GMT 51.478348 -0.140915 3,000 273 134 128
2018-12-06 13:38:35 GMT 51.478256 -0.138016 2,975 273 133 192
2018-12-06 13:38:32 GMT 51.478210 -0.135956 2,975 274 132 192
2018-12-06 13:38:29 GMT 51.478134 -0.133172 2,975 274 130 64
2018-12-06 13:38:26 GMT 51.477978 -0.129852 3,000 274 129 -384
2018-12-06 13:38:23 GMT 51.477882 -0.127487 3,000 274 131 -960
2018-12-06 13:38:20 GMT 51.477722 -0.123967 3,075 274 133 -1088
2018-12-06 13:38:17 GMT 51.477650 -0.120544 3,175 273 133 -1088
2018-12-06 13:38:14 GMT 51.477585 -0.117955 3,225 274 134 -1088
2018-12-06 13:38:11 GMT 51.477356 -0.112536 3,250 276 135 -1088
2018-12-06 13:38:08 GMT 51.477356 -0.112536 3,425 278 136 -1152
2018-12-06 13:38:05 GMT 51.477139 -0.109482 3,375 283 137 -1280
2018-12-06 13:38:02 GMT 51.476719 -0.105591 3,425 290 139 -1280
2018-12-06 13:37:58 GMT 51.476120 -0.102292 3,625 299 142 -1152
2018-12-06 13:37:52 GMT 51.474392 -0.096512 3,850 300 144 -1088
2018-12-06 13:37:48 GMT 51.472870 -0.092196 3,750 300 145 -1088
2018-12-06 13:37:45 GMT 51.472157 -0.090179 3,775 300 146 -960
2018-12-06 13:37:42 GMT 51.471180 -0.087357 3,800 300 146 -960
2018-12-06 13:37:39 GMT 51.470261 -0.084624 3,825 300 147 -960
2018-12-06 13:37:36 GMT 51.469070 -0.081284 3,900 299 149 -768
2018-12-06 13:37:33 GMT 51.468060 -0.078278 3,925 299 155 -64
2018-12-06 13:37:30 GMT 51.467037 -0.075455 3,950 299 153 -256
2018-12-06 13:37:27 GMT 51.466049 -0.072450 3,950 299 156 -64
2018-12-06 13:37:24 GMT 51.464848 -0.069046 3,950 299 158 -128
2018-12-06 13:37:20 GMT 51.463806 -0.065918 3,975 299 160 -64
2018-12-06 13:37:17 GMT 51.462612 -0.062408 3,975 299 160 0
2018-12-06 13:37:14 GMT 51.461243 -0.058421 3,975 299 160 0
2018-12-06 13:37:11 GMT 51.460522 -0.056229 3,975 299 160 0
2018-12-06 13:37:07 GMT 51.459263 -0.052567 3,975 299 160 0
2018-12-06 13:37:04 GMT 51.458145 -0.049286 3,975 299 160 0
2018-12-06 13:37:01 GMT 51.457031 -0.045950 3,975 299 161 0
2018-12-06 13:36:58 GMT 51.456070 -0.043129 3,975 299 161 0
2018-12-06 13:36:55 GMT 51.453873 -0.036596 3,975 298 161 0
2018-12-06 13:36:49 GMT 51.451721 -0.030064 3,975 298 161 64
2018-12-06 13:36:46 GMT 51.451721 -0.030064 3,975 298 161 64
2018-12-06 13:36:43 GMT 51.450649 -0.027008 3,975 299 161 0
2018-12-06 13:36:40 GMT 51.449814 -0.024338 3,950 299 161 0
2018-12-06 13:36:36 GMT 51.448231 -0.019608 3,950 298 160 0
2018-12-06 13:36:33 GMT 51.447205 -0.016556 3,950 298 159 0
2018-12-06 13:36:30 GMT 51.445995 -0.012817 3,950 298 159 0
2018-12-06 13:36:27 GMT 51.445129 -0.010170 3,975 298 159 0
2018-12-06 13:36:24 GMT 51.443760 -0.006027 3,975 297 159 -64
2018-12-06 13:36:21 GMT 51.443115 -0.004009 3,975 297 159 -64
2018-12-06 13:36:18 GMT 51.442131 -0.000916 3,975 297 158 -128
2018-12-06 13:36:15 GMT 51.441154 0.002289 3,975 297 158 -128
2018-12-06 13:36:12 GMT 51.440128 0.005493 3,975 298 158 -64
2018-12-06 13:36:09 GMT 51.438812 0.009650 4,000 299 157 0
2018-12-06 13:36:06 GMT 51.438034 0.011877 3,975 300 158 0
2018-12-06 13:36:03 GMT 51.436825 0.015411 3,975 304 160 64
2018-12-06 13:36:00 GMT 51.436020 0.017370 3,975 308 162 64
2018-12-06 13:35:57 GMT 51.434601 0.020265 3,975 319 165 64
2018-12-06 13:35:54 GMT 51.430801 0.025090 3,950 334 167 256
2018-12-06 13:35:51 GMT 51.430801 0.025090 3,950 340 170 192
2018-12-06 13:35:47 GMT 51.428211 0.027008 3,950 348 175 -128
2018-12-06 13:35:44 GMT 51.425465 0.028152 3,950 351 177 -256
2018-12-06 13:35:41 GMT 51.422516 0.028654 4,025 3 192 -896
2018-12-06 13:35:38 GMT 51.420135 0.028579 4,025 6 196 -1088
2018-12-06 13:35:35 GMT 51.416855 0.028000 4,075 7 198 -1152
2018-12-06 13:35:32 GMT 51.414761 0.027542 4,150 7 201 -1024
2018-12-06 13:35:29 GMT 51.411987 0.026946 4,200 7 203 -1152
2018-12-06 13:35:26 GMT 51.409607 0.026501 4,225 7 203 -1216
2018-12-06 13:35:23 GMT 51.406704 0.025940 4,350 6 208 -1088
2018-12-06 13:35:20 GMT 51.400223 0.024719 4,425 6 212 -1024
2018-12-06 13:35:17 GMT 51.400223 0.024719 4,400 6 212 -1024
2018-12-06 13:35:14 GMT 51.398071 0.024422 4,450 6 215 -1152
2018-12-06 13:35:10 GMT 51.392670 0.023457 4,575 7 221 -1088
2018-12-06 13:35:07 GMT 51.391251 0.023160 4,575 8 222 -1088
2018-12-06 13:35:04 GMT 51.387852 0.022354 4,775 19 233 -1088
2018-12-06 13:35:00 GMT 51.383709 0.020981 4,750 17 231 -1088
2018-12-06 13:34:57 GMT 51.380917 0.019684 4,800 29 242 -1152
2018-12-06 13:34:54 GMT 51.377335 0.017148 4,875 31 244 -1152
2018-12-06 13:34:51 GMT 51.370743 0.010244 4,950 39 250 -1216
2018-12-06 13:34:48 GMT 51.370743 0.010244 5,100 48 256 -1344
2018-12-06 13:34:45 GMT 51.368999 0.007706 5,050 48 256 -1344
2018-12-06 13:34:42 GMT 51.365936 0.002301 5,150 56 260 -1408
2018-12-06 13:34:39 GMT 51.364517 -0.000742 5,175 58 260 -1408
2018-12-06 13:34:35 GMT 51.362106 -0.007172 5,225 63 263 -1408
2018-12-06 13:34:32 GMT 51.360580 -0.012545 5,375 73 266 -1408
2018-12-06 13:34:29 GMT 51.359436 -0.017890 5,450 75 266 -1408
2018-12-06 13:34:26 GMT 51.358337 -0.024571 5,475 77 267 -1408
2018-12-06 13:34:23 GMT 51.357239 -0.033479 5,550 79 267 -1344
2018-12-06 13:34:20 GMT 51.356964 -0.035409 5,775 78 269 -1408
2018-12-06 13:34:17 GMT 51.356380 -0.040207 5,675 78 269 -1472
2018-12-06 13:34:14 GMT 51.355312 -0.048981 5,925 78 269 -1408
2018-12-06 13:34:11 GMT 51.354721 -0.053744 6,125 78 270 -1408
2018-12-06 13:34:08 GMT 51.353897 -0.060351 5,975 78 271 -1408
2018-12-06 13:34:05 GMT 51.353355 -0.064545 5,950 78 271 -1408
2018-12-06 13:34:02 GMT 51.352612 -0.070648 6,125 78 276 -1024
2018-12-06 13:33:59 GMT 51.351791 -0.077275 6,125 78 278 -1088
2018-12-06 13:33:56 GMT 51.351105 -0.082472 6,125 78 278 -1088
2018-12-06 13:33:53 GMT 51.350189 -0.089672 6,175 78 281 -1216
2018-12-06 13:33:50 GMT 51.349632 -0.094070 6,325 78 282 -1536
2018-12-06 13:33:47 GMT 51.348541 -0.102366 6,375 78 283 -1408
2018-12-06 13:33:44 GMT 51.347816 -0.108185 6,475 78 283 -1472
2018-12-06 13:33:41 GMT 51.346893 -0.115060 6,500 78 283 -1472
2018-12-06 13:33:38 GMT 51.346375 -0.119324 6,625 78 283 -1472
2018-12-06 13:33:35 GMT 51.345520 -0.125526 6,625 78 283 -1408
2018-12-06 13:33:32 GMT 51.344742 -0.131687 6,675 78 283 -1408
2018-12-06 13:33:28 GMT 51.343765 -0.139389 6,850 78 284 -1280
2018-12-06 13:33:25 GMT 51.342976 -0.145569 6,825 78 284 -1280
2018-12-06 13:33:22 GMT 51.342091 -0.152588 6,875 78 284 -1280
2018-12-06 13:33:19 GMT 51.341309 -0.158634 7,000 78 284 -1216
2018-12-06 13:33:16 GMT 51.340229 -0.167160 7,075 78 284 -1216
2018-12-06 13:33:13 GMT 51.339706 -0.171179 7,100 78 285 -1152
2018-12-06 13:33:10 GMT 51.338928 -0.177192 7,175 78 285 -1088
2018-12-06 13:33:07 GMT 51.338181 -0.183258 7,200 78 286 -1088
2018-12-06 13:33:04 GMT 51.337341 -0.189667 7,500 78 286 -1088
2018-12-06 13:33:01 GMT 51.336597 -0.195694 7,325 78 286 -1088
2018-12-06 13:32:58 GMT 51.335571 -0.203552 7,400 78 286 -1088
2018-12-06 13:32:55 GMT 51.334808 -0.209928 7,550 79 286 -832
2018-12-06 13:32:52 GMT 51.334270 -0.213928 7,525 78 285 -1088
2018-12-06 13:32:49 GMT 51.333431 -0.220566 7,525 78 284 -1024
2018-12-06 13:32:46 GMT 51.332779 -0.225677 7,550 78 284 -960
2018-12-06 13:32:43 GMT 51.331757 -0.233536 7,650 78 285 -832
2018-12-06 13:32:40 GMT 51.331100 -0.238804 7,675 78 285 -832
2018-12-06 13:32:37 GMT 51.330032 -0.247345 7,775 78 287 -768
2018-12-06 13:32:34 GMT 51.329361 -0.253057 7,750 78 286 -768
2018-12-06 13:32:28 GMT 51.328079 -0.263290 7,825 78 287 -832
2018-12-06 13:32:25 GMT 51.327072 -0.271540 7,875 78 286 -832
2018-12-06 13:32:21 GMT 51.326077 -0.279922 7,950 79 286 -640
2018-12-06 13:32:18 GMT 51.325333 -0.286016 7,975 79 286 -448
2018-12-06 13:32:15 GMT 51.324680 -0.291367 8,000 79 287 0
2018-12-06 13:32:12 GMT 51.324051 -0.296631 8,000 79 286 -192
2018-12-06 13:32:09 GMT 51.323227 -0.303683 8,000 79 286 -128
2018-12-06 13:32:06 GMT 51.321854 -0.315115 8,000 79 287 0
2018-12-06 13:32:00 GMT 51.320847 -0.323206 8,000 79 287 0
2018-12-06 13:31:57 GMT 51.319839 -0.331965 8,000 79 286 0
2018-12-06 13:31:54 GMT 51.319427 -0.335083 8,000 79 286 0
2018-12-06 13:31:51 GMT 51.318859 -0.340118 8,000 79 286 0
2018-12-06 13:31:48 GMT 51.318115 -0.346375 8,000 79 286 0
2018-12-06 13:31:45 GMT 51.317371 -0.352783 8,000 79 285 0
2018-12-06 13:31:42 GMT 51.316441 -0.361099 8,000 79 285 0
2018-12-06 13:31:38 GMT 51.315510 -0.369568 8,000 80 284 0
2018-12-06 13:31:35 GMT 51.314953 -0.374603 8,000 80 284 0
2018-12-06 13:31:32 GMT 51.314159 -0.381775 8,025 80 283 -64
2018-12-06 13:31:29 GMT 51.313740 -0.385895 8,025 80 282 -64
2018-12-06 13:31:26 GMT 51.313087 -0.392075 8,050 80 281 -128
2018-12-06 13:31:23 GMT 51.312149 -0.400481 8,050 79 278 -384
2018-12-06 13:31:20 GMT 51.311646 -0.404787 8,075 78 276 -576
2018-12-06 13:31:17 GMT 51.311039 -0.409927 8,075 76 276 -768
2018-12-06 13:31:14 GMT 51.310043 -0.416515 8,175 70 274 -1280
2018-12-06 13:31:11 GMT 51.308762 -0.423419 8,250 67 273 -1280
2018-12-06 13:31:08 GMT 51.307735 -0.427399 8,300 61 271 -1216
2018-12-06 13:31:05 GMT 51.306107 -0.432772 8,325 57 271 -1216
2018-12-06 13:31:02 GMT 51.301254 -0.443907 8,525 33 263 -1152
2018-12-06 13:30:59 GMT 51.301254 -0.443907 8,500 43 266 -1152
2018-12-06 13:30:56 GMT 51.299423 -0.447099 8,675 35 264 -1152
2018-12-06 13:30:53 GMT 51.295944 -0.452073 8,575 26 261 -448
2018-12-06 13:30:50 GMT 51.293118 -0.455322 8,625 32 262 -1088
2018-12-06 13:30:47 GMT 51.290634 -0.457788 8,650 26 336 0
2018-12-06 13:30:44 GMT 51.283493 -0.463801 8,725 27 259 -1024
2018-12-06 13:30:41 GMT 51.283493 -0.463801 8,775 26 259 -960
2018-12-06 13:30:38 GMT 51.280270 -0.466385 8,850 26 261 -512
2018-12-06 13:30:35 GMT 51.276764 -0.469146 8,875 26 259 -832
2018-12-06 13:30:32 GMT 51.274033 -0.471344 8,875 26 259 -768
2018-12-06 13:30:29 GMT 51.271271 -0.473526 8,925 26 260 -640
2018-12-06 13:30:26 GMT 51.268341 -0.475753 8,950 26 260 -576
2018-12-06 13:30:23 GMT 51.264397 -0.478897 9,000 26 261 -320
2018-12-06 13:30:20 GMT 51.261200 -0.481394 9,000 25 262 -128
2018-12-06 13:30:17 GMT 51.253082 -0.487671 9,025 25 262 0
2018-12-06 13:30:14 GMT 51.253082 -0.487671 9,025 25 262 0
2018-12-06 13:30:11 GMT 51.251404 -0.488966 9,025 25 262 0
2018-12-06 13:30:08 GMT 51.247009 -0.492381 9,025 25 262 0
2018-12-06 13:30:05 GMT 51.243622 -0.494979 9,000 25 263 0
2018-12-06 13:30:02 GMT 51.241470 -0.496686 9,000 25 263 0
2018-12-06 13:29:59 GMT 51.237625 -0.499655 9,000 25 262 64
2018-12-06 13:29:56 GMT 51.233917 -0.502476 9,000 25 262 0
2018-12-06 13:29:53 GMT 51.231308 -0.504555 9,000 25 262 0
2018-12-06 13:29:50 GMT 51.228561 -0.506633 9,000 25 262 0
2018-12-06 13:29:47 GMT 51.225105 -0.509262 9,000 25 262 0
2018-12-06 13:29:44 GMT 51.220825 -0.512572 9,000 25 262 -64
2018-12-06 13:29:41 GMT 51.218857 -0.514130 9,000 25 263 -64
2018-12-06 13:29:38 GMT 51.214630 -0.517349 9,025 25 263 -64
2018-12-06 13:29:34 GMT 51.210205 -0.520811 9,025 25 263 0
2018-12-06 13:29:31 GMT 51.208008 -0.522444 8,975 25 264 128
2018-12-06 13:29:28 GMT 51.201599 -0.527418 8,975 25 289 64
2018-12-06 13:29:25 GMT 51.197128 -0.530853 9,000 26 267 256
2018-12-06 13:29:22 GMT 51.197128 -0.530853 8,975 26 270 64
2018-12-06 13:29:19 GMT 51.190292 -0.536177 8,975 25 274 0
2018-12-06 13:29:16 GMT 51.190292 -0.536177 8,975 25 276 -64
2018-12-06 13:29:13 GMT 51.187225 -0.538553 8,975 25 278 -320
2018-12-06 13:29:10 GMT 51.184837 -0.540390 9,000 25 279 -320
2018-12-06 13:29:07 GMT 51.180954 -0.543378 9,000 25 281 -256
2018-12-06 13:29:04 GMT 51.177483 -0.546036 9,025 25 283 -64
2018-12-06 13:29:01 GMT 51.173153 -0.549393 9,025 25 285 -64
2018-12-06 13:28:58 GMT 51.165657 -0.555191 9,025 25 287 0
2018-12-06 13:28:55 GMT 51.165657 -0.555191 9,025 25 288 0
2018-12-06 13:28:51 GMT 51.160816 -0.558853 9,025 25 290 192
2018-12-06 13:28:48 GMT 51.157013 -0.561787 9,000 25 294 192
2018-12-06 13:28:45 GMT 51.154018 -0.564117 9,000 25 296 192
2018-12-06 13:28:42 GMT 51.149963 -0.567206 8,975 25 302 192
2018-12-06 13:28:39 GMT 51.142986 -0.572662 8,975 26 307 64
2018-12-06 13:28:36 GMT 51.142986 -0.572662 8,975 26 312 -128
2018-12-06 13:28:33 GMT 51.138332 -0.576248 9,000 26 318 -512
2018-12-06 13:28:30 GMT 51.135681 -0.578341 9,000 26 317 -384
2018-12-06 13:28:27 GMT 51.131393 -0.581665 9,025 26 319 -576
2018-12-06 13:28:24 GMT 51.127949 -0.584412 9,050 26 321 -768
2018-12-06 13:28:21 GMT 51.123295 -0.588074 9,150 26 325 -1152
2018-12-06 13:28:18 GMT 51.119663 -0.590973 9,400 26 327 -1216
2018-12-06 13:28:15 GMT 51.113937 -0.595398 9,225 26 327 -1216
2018-12-06 13:28:12 GMT 51.111282 -0.597493 9,300 26 329 -1216
2018-12-06 13:28:09 GMT 51.103043 -0.603803 9,375 26 332 -1024
2018-12-06 13:28:03 GMT 51.098854 -0.607147 9,450 26 335 -960
2018-12-06 13:28:00 GMT 51.094162 -0.610780 9,500 26 336 -832
2018-12-06 13:27:57 GMT 51.085587 -0.617523 9,550 26 339 -896
2018-12-06 13:27:54 GMT 51.085587 -0.617523 9,600 26 339 -896
2018-12-06 13:27:51 GMT 51.081352 -0.620804 9,650 25 341 -960
2018-12-06 13:27:48 GMT 51.077316 -0.623845 9,825 25 343 -960
2018-12-06 13:27:45 GMT 51.073811 -0.626526 9,725 25 345 -960
2018-12-06 13:27:42 GMT 51.070225 -0.629272 9,750 25 343 -960
2018-12-06 13:27:39 GMT 51.065060 -0.633163 9,850 25 347 -1024
2018-12-06 13:27:36 GMT 51.059147 -0.637665 9,875 25 347 -960
2018-12-06 13:27:33 GMT 51.055374 -0.640564 9,900 25 347 -1024
2018-12-06 13:27:30 GMT 51.051884 -0.643158 10,000 25 349 -1216
2018-12-06 13:27:27 GMT 51.048203 -0.645966 10,050 25 350 -1344
2018-12-06 13:27:24 GMT 51.043808 -0.649307 10,175 25 350 -1536
2018-12-06 13:27:21 GMT 51.037872 -0.653839 10,575 25 351 -1664
2018-12-06 13:27:18 GMT 51.034382 -0.656509 10,275 25 351 -1728
2018-12-06 13:27:15 GMT 51.030144 -0.659790 10,325 25 352 -1792
2018-12-06 13:27:12 GMT 51.024811 -0.663856 10,475 25 352 -1920
2018-12-06 13:27:09 GMT 51.019577 -0.667877 10,575 25 352 -1920
2018-12-06 13:27:06 GMT 51.015884 -0.670760 10,675 25 351 -1920
2018-12-06 13:27:03 GMT 51.012733 -0.673141 11,050 25 352 -1920
2018-12-06 13:27:00 GMT 51.007095 -0.677441 10,850 25 352 -1856
2018-12-06 13:26:57 GMT 51.003433 -0.680262 10,975 25 352 -1920
2018-12-06 13:26:54 GMT 50.999840 -0.683060 11,100 25 352 -1920
2018-12-06 13:26:51 GMT 50.995880 -0.686111 11,100 25 352 -1920
2018-12-06 13:26:48 GMT 50.990845 -0.689986 11,275 25 352 -1856
2018-12-06 13:26:45 GMT 50.983128 -0.695877 11,350 25 352 -1792
2018-12-06 13:26:42 GMT 50.980801 -0.697708 11,525 25 353 -1728
2018-12-06 13:26:39 GMT 50.976982 -0.700607 11,475 25 353 -1792
2018-12-06 13:26:36 GMT 50.972000 -0.704498 11,525 25 353 -1728
2018-12-06 13:26:33 GMT 50.968601 -0.707092 11,650 25 353 -1664
2018-12-06 13:26:30 GMT 50.963482 -0.711060 11,750 26 354 -1600
2018-12-06 13:26:27 GMT 50.959854 -0.713814 11,825 25 354 -1600
2018-12-06 13:26:24 GMT 50.954498 -0.718002 11,900 25 356 -1472
2018-12-06 13:26:21 GMT 50.950562 -0.720941 11,950 26 362 -1408
2018-12-06 13:26:17 GMT 50.944153 -0.725840 12,050 25 357 -1408
2018-12-06 13:26:14 GMT 50.940346 -0.728683 12,125 25 359 -1344
2018-12-06 13:26:11 GMT 50.931686 -0.735321 12,275 25 361 -1344
2018-12-06 13:26:08 GMT 50.925613 -0.739944 12,300 25 361 -1408
2018-12-06 13:26:05 GMT 50.925613 -0.739944 12,350 26 364 -1472
2018-12-06 13:26:02 GMT 50.920559 -0.743866 12,450 26 364 -1472
2018-12-06 13:25:59 GMT 50.916733 -0.746848 12,525 26 365 -1408
2018-12-06 13:25:56 GMT 50.913017 -0.749741 12,525 26 365 -1408
2018-12-06 13:25:53 GMT 50.909203 -0.752716 12,650 25 373 -1984
2018-12-06 13:25:50 GMT 50.903824 -0.756869 12,700 25 368 -1280
2018-12-06 13:25:46 GMT 50.898399 -0.761108 12,725 25 368 -1280
2018-12-06 13:25:43 GMT 50.893791 -0.764618 12,825 25 370 -1344
2018-12-06 13:25:40 GMT 50.888443 -0.768598 12,950 25 371 -1536
2018-12-06 13:25:37 GMT 50.883133 -0.772629 13,075 25 372 -1664
2018-12-06 13:25:34 GMT 50.878555 -0.776095 13,100 25 372 -1728
2018-12-06 13:25:31 GMT 50.873634 -0.779800 13,175 25 373 -1856
2018-12-06 13:25:28 GMT 50.870377 -0.782318 13,225 25 373 -1856
2018-12-06 13:25:25 GMT 50.864685 -0.786562 13,425 25 373 -1984
2018-12-06 13:25:22 GMT 50.861252 -0.789160 13,500 25 373 -1984
2018-12-06 13:25:19 GMT 50.856365 -0.792923 13,525 25 374 -1920
2018-12-06 13:25:16 GMT 50.852371 -0.795915 13,650 25 374 -1984
2018-12-06 13:25:13 GMT 50.842255 -0.803635 13,850 25 376 -1792
2018-12-06 13:25:10 GMT 50.842255 -0.803635 13,850 25 375 -1920
2018-12-06 13:25:07 GMT 50.837975 -0.806885 13,950 25 374 -1856
2018-12-06 13:25:04 GMT 50.832951 -0.810699 14,175 25 379 -1664
2018-12-06 13:25:01 GMT 50.822708 -0.818481 14,175 25 376 -1792
2018-12-06 13:24:58 GMT 50.817772 -0.822220 14,350 25 377 -1728
2018-12-06 13:24:55 GMT 50.817772 -0.822220 14,350 25 377 -1728
2018-12-06 13:24:52 GMT 50.813782 -0.825311 14,425 25 378 -1664
2018-12-06 13:24:49 GMT 50.809254 -0.828705 14,550 25 379 -1664
2018-12-06 13:24:46 GMT 50.803761 -0.832901 14,550 25 379 -1664
2018-12-06 13:24:42 GMT 50.798767 -0.836668 14,650 25 381 -1536
2018-12-06 13:24:39 GMT 50.794125 -0.840225 14,725 25 381 -1536
2018-12-06 13:24:36 GMT 50.783066 -0.848694 14,875 26 384 -1472
2018-12-06 13:24:33 GMT 50.783066 -0.848694 14,900 26 384 -1472
2018-12-06 13:24:30 GMT 50.779182 -0.851669 14,975 26 385 -1472
2018-12-06 13:24:27 GMT 50.773819 -0.855820 15,025 26 386 -1472
2018-12-06 13:24:24 GMT 50.768429 -0.860062 15,100 25 389 -1600
2018-12-06 13:24:21 GMT 50.764343 -0.863243 15,175 26 388 -1536
2018-12-06 13:24:18 GMT 50.759491 -0.866955 15,225 26 389 -1536
2018-12-06 13:24:15 GMT 50.755280 -0.870147 15,375 25 390 -1600
2018-12-06 13:24:12 GMT 50.750244 -0.874007 15,400 25 390 -1664
2018-12-06 13:24:09 GMT 50.743881 -0.878758 15,425 25 394 -1856
2018-12-06 13:24:06 GMT 50.733791 -0.886307 15,700 25 393 -1792
2018-12-06 13:24:03 GMT 50.733791 -0.886307 15,725 25 394 -1856
2018-12-06 13:24:00 GMT 50.731186 -0.888290 15,775 25 394 -1856
2018-12-06 13:23:57 GMT 50.724621 -0.893173 15,850 25 394 -1984
2018-12-06 13:23:54 GMT 50.714676 -0.900730 16,050 25 394 -2048
2018-12-06 13:23:51 GMT 50.714676 -0.900730 16,250 25 394 -2112
2018-12-06 13:23:48 GMT 50.710556 -0.903848 16,200 25 394 -2112
2018-12-06 13:23:45 GMT 50.705673 -0.907516 16,250 25 395 -2112
2018-12-06 13:23:42 GMT 50.695667 -0.915070 16,450 25 394 -2112
2018-12-06 13:23:36 GMT 50.689133 -0.919957 17,275 25 394 -2304
2018-12-06 13:23:33 GMT 50.685101 -0.923004 16,700 25 394 -2304
2018-12-06 13:23:30 GMT 50.680252 -0.926712 16,825 25 395 -2176
2018-12-06 13:23:27 GMT 50.669502 -0.934951 16,950 25 395 -2240
2018-12-06 13:23:24 GMT 50.669502 -0.934951 17,075 25 394 -2304
2018-12-06 13:23:21 GMT 50.666931 -0.936874 17,225 25 394 -2368
2018-12-06 13:23:18 GMT 50.661263 -0.941187 17,300 25 394 -2304
2018-12-06 13:23:15 GMT 50.655441 -0.945619 17,350 25 394 -2304
2018-12-06 13:23:12 GMT 50.652008 -0.948221 17,550 25 393 -2240
2018-12-06 13:23:09 GMT 50.647018 -0.951950 17,625 25 393 -2176
2018-12-06 13:23:06 GMT 50.637150 -0.959374 17,850 25 394 -2176
2018-12-06 13:23:03 GMT 50.637150 -0.959374 17,825 25 394 -2176
2018-12-06 13:23:00 GMT 50.630997 -0.963978 17,950 25 394 -2112
2018-12-06 13:22:57 GMT 50.626694 -0.967158 18,000 25 394 -2112
2018-12-06 13:22:54 GMT 50.622349 -0.970434 18,100 25 394 -2048
2018-12-06 13:22:51 GMT 50.612228 -0.978072 18,275 25 395 -2048
2018-12-06 13:22:48 GMT 50.612228 -0.978072 18,375 25 395 -2048
2018-12-06 13:22:45 GMT 50.607216 -0.981866 18,425 25 394 -2048
2018-12-06 13:22:42 GMT 50.602608 -0.985355 18,775 25 395 -2048
2018-12-06 13:22:39 GMT 50.596046 -0.990328 18,650 25 395 -2048
2018-12-06 13:22:36 GMT 50.592552 -0.992927 18,725 25 401 -1728
2018-12-06 13:22:33 GMT 50.587433 -0.996712 19,050 25 396 -2048
2018-12-06 13:22:30 GMT 50.583572 -0.999684 18,925 25 397 -1984
2018-12-06 13:22:27 GMT 50.577843 -1.003987 19,100 25 398 -1920
2018-12-06 13:22:24 GMT 50.570984 -1.009152 19,750 25 401 -1728
2018-12-06 13:22:21 GMT 50.567741 -1.011633 19,300 25 402 -1728
2018-12-06 13:22:18 GMT 50.556656 -1.019994 19,400 25 400 -1792
2018-12-06 13:22:15 GMT 50.556656 -1.019994 19,475 25 401 -1728
2018-12-06 13:22:12 GMT 50.551586 -1.023807 19,525 25 402 -1728
2018-12-06 13:22:09 GMT 50.546421 -1.027741 19,675 25 403 -1664
2018-12-06 13:22:06 GMT 50.540367 -1.032269 19,650 25 403 -1664
2018-12-06 13:22:03 GMT 50.537666 -1.034274 19,775 25 404 -1664
2018-12-06 13:22:00 GMT 50.532082 -1.038505 19,900 25 406 -1728
2018-12-06 13:21:57 GMT 50.526947 -1.042328 19,925 25 406 -1728
2018-12-06 13:21:54 GMT 50.521683 -1.046231 20,025 25 406 -1728
2018-12-06 13:21:51 GMT 50.516998 -1.049714 20,100 25 407 -1792
2018-12-06 13:21:48 GMT 50.512161 -1.053314 20,175 25 407 -1856
2018-12-06 13:21:45 GMT 50.501823 -1.061071 21,125 25 410 -2048
2018-12-06 13:21:42 GMT 50.501823 -1.061071 20,400 25 410 -2048
2018-12-06 13:21:39 GMT 50.495865 -1.065525 20,500 25 410 -2048
2018-12-06 13:21:36 GMT 50.490929 -1.069237 20,600 25 410 -2048
2018-12-06 13:21:33 GMT 50.485622 -1.073245 20,775 25 411 -1984
2018-12-06 13:21:30 GMT 50.480453 -1.077031 20,825 25 411 -1984
2018-12-06 13:21:27 GMT 50.475334 -1.080891 20,875 25 411 -1920
2018-12-06 13:21:24 GMT 50.471100 -1.084033 21,100 25 415 -1856
2018-12-06 13:21:21 GMT 50.461121 -1.091477 21,125 25 412 -1920
2018-12-06 13:21:18 GMT 50.461121 -1.091477 21,300 25 414 -1856
2018-12-06 13:21:15 GMT 50.455582 -1.095597 21,400 25 416 -1792
2018-12-06 13:21:12 GMT 50.450226 -1.099572 21,425 25 416 -1792
2018-12-06 13:21:09 GMT 50.445309 -1.103309 21,450 25 416 -1792
2018-12-06 13:21:06 GMT 50.438141 -1.108752 21,575 25 417 -1664
2018-12-06 13:21:03 GMT 50.433716 -1.112143 21,750 25 443 -1920
2018-12-06 13:21:00 GMT 50.429260 -1.115474 21,725 25 419 -1664
2018-12-06 13:20:57 GMT 50.423904 -1.119594 21,775 25 419 -1664
2018-12-06 13:20:54 GMT 50.418915 -1.123352 21,850 25 420 -1664
2018-12-06 13:20:51 GMT 50.412071 -1.128474 22,000 25 422 -1728
2018-12-06 13:20:48 GMT 50.408478 -1.131158 22,050 25 422 -1728
2018-12-06 13:20:45 GMT 50.403084 -1.135229 22,475 25 425 -1920
2018-12-06 13:20:42 GMT 50.397823 -1.139163 22,300 25 432 -2176
2018-12-06 13:20:39 GMT 50.393028 -1.142727 22,400 25 425 -1920
2018-12-06 13:20:36 GMT 50.386654 -1.147477 22,425 25 426 -1920
2018-12-06 13:20:33 GMT 50.380692 -1.151902 22,525 25 426 -1984
2018-12-06 13:20:30 GMT 50.376434 -1.155082 22,625 25 427 -1984
2018-12-06 13:20:27 GMT 50.370640 -1.159355 22,725 25 428 -1920
2018-12-06 13:20:24 GMT 50.365356 -1.163322 22,825 25 428 -1856
2018-12-06 13:20:21 GMT 50.360367 -1.167008 22,950 25 443 -1920
2018-12-06 13:20:18 GMT 50.355091 -1.170935 23,025 25 430 -1856
2018-12-06 13:20:15 GMT 50.349243 -1.175320 23,075 25 430 -1920
2018-12-06 13:20:12 GMT 50.342422 -1.180380 23,225 25 432 -2048
2018-12-06 13:20:09 GMT 50.338890 -1.182960 23,425 25 432 -2176
2018-12-06 13:20:06 GMT 50.333862 -1.186746 23,400 25 432 -2176
2018-12-06 13:20:03 GMT 50.326538 -1.192161 23,525 25 432 -2176
2018-12-06 13:20:00 GMT 50.323761 -1.194244 23,650 25 433 -2240
2018-12-06 13:19:57 GMT 50.318939 -1.197799 24,000 25 434 -2112
2018-12-06 13:19:54 GMT 50.306442 -1.206978 23,850 25 433 -2176
2018-12-06 13:19:51 GMT 50.306442 -1.206978 24,050 25 434 -2112
2018-12-06 13:19:48 GMT 50.300079 -1.211676 24,550 25 441 -1856
2018-12-06 13:19:44 GMT 50.293270 -1.216736 24,200 25 436 -1920
2018-12-06 13:19:41 GMT 50.288567 -1.220225 24,325 25 437 -1856
2018-12-06 13:19:38 GMT 50.283188 -1.224253 24,450 25 439 -1856
2018-12-06 13:19:35 GMT 50.275951 -1.229578 24,475 25 438 -1856
2018-12-06 13:19:32 GMT 50.270271 -1.233809 24,575 25 439 -1856
2018-12-06 13:19:26 GMT 50.260403 -1.241158 25,275 25 445 -1856
2018-12-06 13:19:23 GMT 50.255608 -1.244721 24,800 25 441 -1920
2018-12-06 13:19:20 GMT 50.250000 -1.248900 25,050 25 442 -1856
2018-12-06 13:19:17 GMT 50.242813 -1.254248 25,050 25 443 -1920
2018-12-06 13:19:14 GMT 50.239223 -1.256970 25,150 25 443 -1920
2018-12-06 13:19:11 GMT 50.232006 -1.262388 25,225 25 444 -1920
2018-12-06 13:19:08 GMT 50.228210 -1.265162 25,275 25 444 -1920
2018-12-06 13:19:05 GMT 50.223404 -1.268776 26,075 25 445 -1856
2018-12-06 13:19:02 GMT 50.210220 -1.278534 25,675 25 445 -1856
2018-12-06 13:18:59 GMT 50.210220 -1.278534 25,750 25 446 -1856
2018-12-06 13:18:56 GMT 50.205471 -1.282060 25,700 25 446 -1856
2018-12-06 13:18:53 GMT 50.200882 -1.285400 25,750 25 446 -1856
2018-12-06 13:18:50 GMT 50.189411 -1.293789 25,925 25 446 -1856
2018-12-06 13:18:47 GMT 50.189411 -1.293789 26,000 25 447 -1920
2018-12-06 13:18:44 GMT 50.182434 -1.298989 26,075 25 448 -1920
2018-12-06 13:18:41 GMT 50.177536 -1.302530 26,175 25 449 -1920
2018-12-06 13:18:38 GMT 50.172745 -1.306037 26,525 25 450 -1920
2018-12-06 13:18:35 GMT 50.165909 -1.311059 26,400 25 451 -1920
2018-12-06 13:18:32 GMT 50.161480 -1.314351 26,425 25 454 -1920
2018-12-06 13:18:29 GMT 50.155430 -1.318731 26,525 25 452 -1920
2018-12-06 13:18:26 GMT 50.143387 -1.327539 26,725 25 454 -1920
2018-12-06 13:18:23 GMT 50.138531 -1.331053 26,775 25 455 -1920
2018-12-06 13:18:20 GMT 50.130756 -1.336769 27,800 25 455 -1856
2018-12-06 13:18:17 GMT 50.130756 -1.336769 26,975 25 456 -1856
2018-12-06 13:18:14 GMT 50.127045 -1.339537 27,275 25 457 -1856
2018-12-06 13:18:11 GMT 50.121506 -1.343585 27,100 25 458 -1856
2018-12-06 13:18:08 GMT 50.114822 -1.348499 27,150 25 458 -1856
2018-12-06 13:18:05 GMT 50.108967 -1.352803 27,400 25 459 -1856
2018-12-06 13:18:02 GMT 50.102554 -1.357534 27,400 25 459 -1856
2018-12-06 13:17:59 GMT 50.096237 -1.362232 27,450 25 459 -1856
2018-12-06 13:17:56 GMT 50.091248 -1.365919 27,700 25 459 -1856
2018-12-06 13:17:53 GMT 50.086529 -1.369357 27,725 25 459 -1856
2018-12-06 13:17:49 GMT 50.078384 -1.375315 28,925 25 460 -1920
2018-12-06 13:17:46 GMT 50.073395 -1.379001 27,900 25 460 -1920
2018-12-06 13:17:43 GMT 50.067120 -1.383535 27,975 25 461 -1920
2018-12-06 13:17:40 GMT 50.062180 -1.387096 28,000 25 461 -1920
2018-12-06 13:17:37 GMT 50.048172 -1.397342 28,225 25 463 -1920
2018-12-06 13:17:34 GMT 50.048172 -1.397342 28,425 25 463 -1920
2018-12-06 13:17:30 GMT 50.043274 -1.400974 28,325 25 464 -1920
2018-12-06 13:17:27 GMT 50.033752 -1.407912 28,525 25 465 -1920
2018-12-06 13:17:24 GMT 50.029549 -1.411001 28,900 25 469 -1920
2018-12-06 13:17:21 GMT 50.024708 -1.414564 29,250 25 471 -1920
2018-12-06 13:17:18 GMT 50.017227 -1.420055 28,800 25 468 -1920
2018-12-06 13:17:15 GMT 50.014069 -1.422368 28,850 25 468 -1920
2018-12-06 13:17:12 GMT 50.006180 -1.428223 28,925 25 471 -1920
2018-12-06 13:17:09 GMT 50.000317 -1.432602 29,150 25 470 -1920
2018-12-06 13:17:06 GMT 49.994705 -1.436679 29,225 25 471 -1920
2018-12-06 13:17:03 GMT 49.988800 -1.441016 29,225 25 471 -1920
2018-12-06 13:17:00 GMT 49.984085 -1.444485 29,725 25 478 -1856
2018-12-06 13:16:57 GMT 49.977879 -1.449082 29,475 25 473 -1920
2018-12-06 13:16:54 GMT 49.969776 -1.455020 29,550 25 473 -1920
2018-12-06 13:16:51 GMT 49.966324 -1.457568 29,700 25 474 -1920
2018-12-06 13:16:48 GMT 49.960007 -1.462194 29,775 25 476 -1856
2018-12-06 13:16:45 GMT 49.952866 -1.467470 29,825 25 475 -1920
2018-12-06 13:16:42 GMT 49.945850 -1.472613 29,875 25 476 -1856
2018-12-06 13:16:39 GMT 49.940868 -1.476251 30,025 25 477 -1856
2018-12-06 13:16:36 GMT 49.934303 -1.481150 30,075 25 477 -1856
2018-12-06 13:16:33 GMT 49.930347 -1.484045 30,200 25 477 -1856
2018-12-06 13:16:30 GMT 49.924072 -1.488647 30,350 25 478 -1856
2018-12-06 13:16:27 GMT 49.917965 -1.493101 30,425 25 478 -1856
2018-12-06 13:16:24 GMT 49.910889 -1.498260 30,725 25 477 -1856
2018-12-06 13:16:21 GMT 49.905670 -1.502019 30,600 25 477 -1856
2018-12-06 13:16:18 GMT 49.893860 -1.510548 30,800 25 477 -1856
2018-12-06 13:16:15 GMT 49.893860 -1.510548 30,800 25 477 -1856
2018-12-06 13:16:12 GMT 49.887863 -1.514885 31,000 25 476 -1856
2018-12-06 13:16:09 GMT 49.881683 -1.519294 30,975 25 476 -1856
2018-12-06 13:16:06 GMT 49.875790 -1.523611 31,075 25 477 -1792
2018-12-06 13:16:02 GMT 49.868088 -1.529196 31,150 25 477 -1792
2018-12-06 13:15:59 GMT 49.861908 -1.533677 31,200 25 477 -1792
2018-12-06 13:15:56 GMT 49.854839 -1.538828 31,425 25 475 -1856
2018-12-06 13:15:52 GMT 49.848274 -1.543579 31,425 25 476 -1856
2018-12-06 13:15:49 GMT 49.840622 -1.549145 31,625 25 477 -1792
2018-12-06 13:15:44 GMT 49.831566 -1.555679 31,750 25 475 -1856
2018-12-06 13:15:38 GMT 49.821182 -1.563176 31,925 25 477 -1920
2018-12-06 13:15:35 GMT 49.812515 -1.569455 32,000 25 477 -1856
2018-12-06 13:15:31 GMT 49.805557 -1.574587 32,125 25 477 -1792
2018-12-06 13:15:27 GMT 49.795673 -1.581734 32,250 25 477 -1856
2018-12-06 13:15:21 GMT 49.784958 -1.589404 32,425 24 476 -1472
2018-12-06 13:15:18 GMT 49.779099 -1.593611 32,525 24 476 -1472
2018-12-06 13:15:15 GMT 49.773884 -1.597323 32,550 24 476 -1472
2018-12-06 13:15:11 GMT 49.766296 -1.602816 32,675 24 476 -1472
2018-12-06 13:15:08 GMT 49.758896 -1.608087 32,775 24 476 -1472
2018-12-06 13:15:05 GMT 49.752937 -1.612392 32,825 24 476 -1472
2018-12-06 13:15:01 GMT 49.747055 -1.616653 32,975 25 475 -1472
2018-12-06 13:14:58 GMT 49.739204 -1.622339 33,000 25 472 -1152
2018-12-06 13:14:55 GMT 49.733200 -1.626570 33,075 24 475 -1408
2018-12-06 13:14:52 GMT 49.723160 -1.633783 33,200 25 473 -1280
2018-12-06 13:14:49 GMT 49.716904 -1.638299 33,250 25 473 -1344
2018-12-06 13:14:46 GMT 49.716904 -1.638299 33,325 25 472 -960
2018-12-06 13:14:43 GMT 49.711487 -1.642239 33,400 25 473 -1216
2018-12-06 13:14:40 GMT 49.704243 -1.647430 33,375 25 472 -1088
2018-12-06 13:14:36 GMT 49.696014 -1.653370 33,500 25 472 -960
2018-12-06 13:14:33 GMT 49.690109 -1.657707 33,550 25 471 -960
2018-12-06 13:14:30 GMT 49.683426 -1.662549 33,550 25 471 -960
2018-12-06 13:14:27 GMT 49.672497 -1.670516 33,675 25 470 -960
2018-12-06 13:14:24 GMT 49.672497 -1.670516 33,800 25 469 -960
2018-12-06 13:14:21 GMT 49.666534 -1.674981 33,700 26 469 -1024
2018-12-06 13:14:18 GMT 49.661453 -1.678740 33,800 26 468 -1024
2018-12-06 13:14:15 GMT 49.655689 -1.683061 33,800 28 467 -256
2018-12-06 13:14:12 GMT 49.649685 -1.687589 33,850 26 467 -960
2018-12-06 13:14:09 GMT 49.643261 -1.692488 33,900 26 466 -768
2018-12-06 13:14:06 GMT 49.637604 -1.696882 33,925 27 466 -576
2018-12-06 13:14:03 GMT 49.632614 -1.700785 33,925 27 466 -576
2018-12-06 13:14:00 GMT 49.627525 -1.704885 34,000 28 467 -384
2018-12-06 13:13:56 GMT 49.619190 -1.711789 34,000 29 467 -192
2018-12-06 13:13:53 GMT 49.612839 -1.717192 34,000 30 467 0
2018-12-06 13:13:50 GMT 49.607693 -1.721736 34,000 38 475 0
2018-12-06 13:13:46 GMT 49.601364 -1.727526 34,000 31 469 0
2018-12-06 13:13:43 GMT 49.594437 -1.734177 34,000 32 471 0
2018-12-06 13:13:40 GMT 49.589027 -1.739477 34,000 33 471 0
2018-12-06 13:13:37 GMT 49.581711 -1.746971 34,000 34 472 -64
2018-12-06 13:13:33 GMT 49.572372 -1.757017 34,000 37 475 -64
2018-12-06 13:13:27 GMT 49.565796 -1.764568 34,025 38 477 0
2018-12-06 13:13:24 GMT 49.560333 -1.771112 34,025 38 476 0
2018-12-06 13:13:21 GMT 49.555927 -1.776519 34,025 38 476 0
2018-12-06 13:13:18 GMT 49.550354 -1.783399 34,025 38 476 0
2018-12-06 13:13:15 GMT 49.543533 -1.791928 34,025 38 476 0
2018-12-06 13:13:12 GMT 49.538471 -1.798195 34,025 38 475 0
2018-12-06 13:13:09 GMT 49.535110 -1.802336 34,025 38 476 -64
2018-12-06 13:13:06 GMT 49.528183 -1.810888 34,025 38 476 -64
2018-12-06 13:13:03 GMT 49.517807 -1.823730 34,025 38 475 0
2018-12-06 13:12:59 GMT 49.517807 -1.823730 34,025 38 475 0
2018-12-06 13:12:56 GMT 49.507607 -1.836276 34,025 38 475 0
2018-12-06 13:12:53 GMT 49.499130 -1.846787 34,000 38 475 0
2018-12-06 13:12:49 GMT 49.499130 -1.846787 34,000 38 475 64
2018-12-06 13:12:46 GMT 49.495697 -1.850979 34,000 38 475 0
2018-12-06 13:12:43 GMT 49.488876 -1.859436 34,000 38 475 0
2018-12-06 13:12:40 GMT 49.479950 -1.870422 34,000 38 475 0
2018-12-06 13:12:37 GMT 49.479950 -1.870422 34,000 38 475 0
2018-12-06 13:12:33 GMT 49.472507 -1.879627 34,000 38 475 0
2018-12-06 13:12:30 GMT 49.468037 -1.885120 34,000 38 476 0
2018-12-06 13:12:27 GMT 49.463615 -1.890613 34,000 38 476 0
2018-12-06 13:12:24 GMT 49.457520 -1.898105 34,000 38 476 0
2018-12-06 13:12:21 GMT 49.451790 -1.905237 34,000 38 475 0
2018-12-06 13:12:17 GMT 49.445087 -1.913477 34,000 38 475 0
2018-12-06 13:12:12 GMT 49.437222 -1.923127 34,000 38 475 0
2018-12-06 13:12:09 GMT 49.431911 -1.929659 34,000 38 475 0
2018-12-06 13:12:06 GMT 49.427444 -1.935184 34,000 38 475 0
2018-12-06 13:12:03 GMT 49.422226 -1.941622 34,000 38 475 0
2018-12-06 13:11:59 GMT 49.413803 -1.951975 34,000 38 475 0
2018-12-06 13:11:56 GMT 49.409683 -1.956975 34,000 38 475 0
2018-12-06 13:11:53 GMT 49.405930 -1.961623 34,000 38 476 0
2018-12-06 13:11:50 GMT 49.400723 -1.968071 34,000 38 475 -64
2018-12-06 13:11:46 GMT 49.387318 -1.984478 34,000 38 475 0
2018-12-06 13:11:40 GMT 49.375580 -1.998878 34,000 38 475 0
2018-12-06 13:11:36 GMT 49.375580 -1.998878 34,025 38 475 0
2018-12-06 13:11:32 GMT 49.369812 -2.005872 34,000 38 475 0
2018-12-06 13:11:29 GMT 49.364506 -2.012377 34,000 38 475 0
2018-12-06 13:11:25 GMT 49.357407 -2.021132 34,000 38 475 0
2018-12-06 13:11:22 GMT 49.351284 -2.028568 34,000 38 475 0
2018-12-06 13:11:19 GMT 49.346603 -2.034302 34,000 38 475 0
2018-12-06 13:11:16 GMT 49.339458 -2.043023 34,025 38 475 0
2018-12-06 13:11:11 GMT 49.332291 -2.051841 34,025 38 475 0
2018-12-06 13:11:08 GMT 49.328705 -2.056250 34,025 38 475 0
2018-12-06 13:11:05 GMT 49.321930 -2.064585 34,025 38 475 0
2018-12-06 13:11:01 GMT 49.314137 -2.074103 34,025 38 474 64
2018-12-06 13:10:57 GMT 49.307190 -2.082543 34,025 38 474 64
2018-12-06 13:10:54 GMT 49.303196 -2.087475 34,000 38 474 64
2018-12-06 13:10:50 GMT 49.297073 -2.094867 34,000 38 474 64
2018-12-06 13:10:47 GMT 49.290939 -2.102403 34,000 38 474 0
2018-12-06 13:10:43 GMT 49.285767 -2.108671 34,000 38 475 0
2018-12-06 13:10:40 GMT 49.279175 -2.116747 34,000 38 475 0
2018-12-06 13:10:36 GMT 49.272518 -2.124915 34,000 38 475 0
2018-12-06 13:10:33 GMT 49.260693 -2.139371 34,000 38 474 0
2018-12-06 13:10:29 GMT 49.260693 -2.139371 34,000 38 474 0
2018-12-06 13:10:26 GMT 49.256226 -2.144791 34,000 38 475 0
2018-12-06 13:10:23 GMT 49.250732 -2.151513 34,000 38 473 0
2018-12-06 13:10:20 GMT 49.245483 -2.157828 34,000 38 475 0
2018-12-06 13:10:17 GMT 49.238480 -2.166419 34,000 38 474 0
2018-12-06 13:10:13 GMT 49.234177 -2.171631 34,000 38 474 0
2018-12-06 13:10:09 GMT 49.226990 -2.180434 34,000 38 474 0
2018-12-06 13:10:06 GMT 49.221588 -2.187002 34,025 38 474 0
2018-12-06 13:10:03 GMT 49.214447 -2.195646 34,025 38 474 0
2018-12-06 13:09:59 GMT 49.209393 -2.201747 34,025 38 474 0
2018-12-06 13:09:56 GMT 49.203945 -2.208469 34,000 38 474 0
2018-12-06 13:09:53 GMT 49.198883 -2.214590 34,025 38 473 0
2018-12-06 13:09:48 GMT 49.190540 -2.224659 34,000 38 473 0
2018-12-06 13:09:44 GMT 49.183369 -2.233405 34,000 38 473 0
2018-12-06 13:09:41 GMT 49.178284 -2.239521 34,000 38 473 0
2018-12-06 13:09:38 GMT 49.173340 -2.245507 34,000 38 473 0
2018-12-06 13:09:35 GMT 49.168285 -2.251691 34,000 38 473 0
2018-12-06 13:09:32 GMT 49.162857 -2.258183 34,000 38 473 0
2018-12-06 13:09:28 GMT 49.156357 -2.266071 34,000 38 473 0
2018-12-06 13:09:25 GMT 49.148922 -2.275110 34,000 38 473 0
2018-12-06 13:09:20 GMT 49.142918 -2.282410 34,000 38 473 0
2018-12-06 13:09:17 GMT 49.137424 -2.289059 34,000 38 473 0
2018-12-06 13:09:14 GMT 49.132114 -2.295492 34,000 38 474 0
2018-12-06 13:09:10 GMT 49.126556 -2.302270 34,000 38 474 0
2018-12-06 13:09:07 GMT 49.121246 -2.308678 34,000 38 474 0
2018-12-06 13:09:04 GMT 49.114101 -2.317248 34,000 38 474 0
2018-12-06 13:09:01 GMT 49.108608 -2.323898 34,000 38 474 0
2018-12-06 13:08:56 GMT 49.100182 -2.334089 34,000 38 474 0
2018-12-06 13:08:53 GMT 49.091431 -2.344641 34,000 38 475 0
2018-12-06 13:08:47 GMT 49.086365 -2.350793 34,000 38 474 0
2018-12-06 13:08:44 GMT 49.080551 -2.357835 34,000 38 474 0
2018-12-06 13:08:41 GMT 49.075195 -2.364244 34,000 38 474 0
2018-12-06 13:08:38 GMT 49.071762 -2.368399 34,000 38 474 64
2018-12-06 13:08:35 GMT 49.060703 -2.381793 34,000 38 474 0
2018-12-06 13:08:32 GMT 49.060703 -2.381793 34,000 38 474 0
2018-12-06 13:08:28 GMT 49.053303 -2.390683 34,000 38 474 0
2018-12-06 13:08:25 GMT 49.048649 -2.396321 34,000 38 476 0
2018-12-06 13:08:22 GMT 49.043480 -2.402536 34,000 38 476 0
2018-12-06 13:08:19 GMT 49.036777 -2.410632 34,000 38 476 0
2018-12-06 13:08:15 GMT 49.030399 -2.418293 34,000 38 476 0
2018-12-06 13:08:12 GMT 49.026031 -2.423612 34,000 38 476 0
2018-12-06 13:08:09 GMT 49.020859 -2.429880 34,000 38 476 -64
2018-12-06 13:08:06 GMT 49.016293 -2.435351 34,000 38 476 -64
2018-12-06 13:08:03 GMT 49.009777 -2.443229 34,000 38 476 0
2018-12-06 13:08:00 GMT 49.004700 -2.449388 34,000 38 475 0
2018-12-06 13:07:57 GMT 49.000214 -2.454811 34,000 38 476 0
2018-12-06 13:07:54 GMT 48.989868 -2.467205 34,000 38 475 0
2018-12-06 13:07:51 GMT 48.989868 -2.467205 34,000 38 475 0
2018-12-06 13:07:48 GMT 48.984264 -2.473948 34,000 38 476 0
2018-12-06 13:07:45 GMT 48.979889 -2.479248 34,000 38 475 0
2018-12-06 13:07:42 GMT 48.973343 -2.487065 34,000 38 475 0
2018-12-06 13:07:39 GMT 48.969090 -2.492162 34,025 38 475 0
2018-12-06 13:07:36 GMT 48.962711 -2.499751 34,000 38 475 0
2018-12-06 13:07:33 GMT 48.950981 -2.513773 34,000 38 475 0
2018-12-06 13:07:29 GMT 48.950981 -2.513773 34,000 38 475 0
2018-12-06 13:07:24 GMT 48.942184 -2.524326 34,000 38 475 0
2018-12-06 13:07:21 GMT 48.937157 -2.530325 34,000 38 476 0
2018-12-06 13:07:18 GMT 48.932316 -2.536107 34,000 38 476 0
2018-12-06 13:07:14 GMT 48.920258 -2.550635 34,000 38 476 0
2018-12-06 13:07:11 GMT 48.920258 -2.550635 34,000 38 476 0
2018-12-06 13:07:08 GMT 48.914841 -2.557138 34,000 38 476 0
2018-12-06 13:07:04 GMT 48.907425 -2.566012 34,000 38 476 0
2018-12-06 13:06:59 GMT 48.900242 -2.574632 34,000 38 476 0
2018-12-06 13:06:56 GMT 48.894974 -2.580942 34,000 38 476 0
2018-12-06 13:06:53 GMT 48.890305 -2.586506 34,000 38 476 0
2018-12-06 13:06:49 GMT 48.882385 -2.596013 34,000 38 476 0
2018-12-06 13:06:46 GMT 48.878265 -2.600943 34,000 38 476 0
2018-12-06 13:06:43 GMT 48.866909 -2.614457 34,000 38 476 0
2018-12-06 13:06:40 GMT 48.866909 -2.614457 34,000 38 476 0
2018-12-06 13:06:37 GMT 48.860962 -2.621577 34,000 38 475 0
2018-12-06 13:06:34 GMT 48.854805 -2.628913 34,000 38 475 0
2018-12-06 13:06:31 GMT 48.851360 -2.633033 34,000 38 476 0
2018-12-06 13:06:28 GMT 48.844345 -2.641367 34,000 38 476 0
2018-12-06 13:06:25 GMT 48.841164 -2.645175 34,000 38 476 0
2018-12-06 13:06:21 GMT 48.834229 -2.653415 34,000 38 476 0
2018-12-06 13:06:18 GMT 48.829060 -2.659631 34,000 38 477 0
2018-12-06 13:06:15 GMT 48.823662 -2.665992 34,000 38 477 0
2018-12-06 13:06:11 GMT 48.816833 -2.674115 34,000 38 477 0
2018-12-06 13:06:07 GMT 48.810673 -2.681459 34,000 38 477 0
2018-12-06 13:06:04 GMT 48.805435 -2.687707 34,000 38 476 0
2018-12-06 13:06:01 GMT 48.798340 -2.696158 34,000 38 477 0
2018-12-06 13:05:58 GMT 48.793030 -2.702492 34,000 38 476 0
2018-12-06 13:05:55 GMT 48.788818 -2.707496 34,000 38 476 0
2018-12-06 13:05:50 GMT 48.781113 -2.716659 34,000 38 476 0
2018-12-06 13:05:47 GMT 48.769730 -2.730103 34,000 38 476 0
2018-12-06 13:05:44 GMT 48.769730 -2.730103 34,025 38 476 0
2018-12-06 13:05:41 GMT 48.765244 -2.735455 34,025 38 475 0
2018-12-06 13:05:38 GMT 48.759888 -2.741864 34,000 38 476 0
2018-12-06 13:05:35 GMT 48.745468 -2.758906 34,000 38 476 0
2018-12-06 13:05:30 GMT 48.745468 -2.758906 34,000 38 476 0
2018-12-06 13:05:26 GMT 48.739170 -2.766386 34,000 38 477 0
2018-12-06 13:05:23 GMT 48.734253 -2.772287 34,000 38 477 0
2018-12-06 13:05:20 GMT 48.720200 -2.788908 34,000 38 476 0
2018-12-06 13:05:15 GMT 48.720200 -2.788908 34,000 38 476 0
2018-12-06 13:05:12 GMT 48.715210 -2.794823 34,000 38 476 0
2018-12-06 13:05:09 GMT 48.709671 -2.801443 34,000 38 476 0
2018-12-06 13:05:06 GMT 48.704208 -2.807874 34,000 38 476 0
2018-12-06 13:05:03 GMT 48.700066 -2.812789 34,025 38 476 -64
2018-12-06 13:05:00 GMT 48.692757 -2.821390 34,000 38 476 -64
2018-12-06 13:04:57 GMT 48.688286 -2.826739 34,025 38 475 0
2018-12-06 13:04:53 GMT 48.681610 -2.834614 34,025 38 476 0
2018-12-06 13:04:49 GMT 48.673828 -2.843839 34,025 38 476 0
2018-12-06 13:04:46 GMT 48.669159 -2.849332 34,025 38 475 0
2018-12-06 13:04:43 GMT 48.656021 -2.864896 34,025 38 475 0
2018-12-06 13:04:39 GMT 48.656021 -2.864896 34,025 38 475 0
2018-12-06 13:04:36 GMT 48.651745 -2.869889 34,025 38 475 0
2018-12-06 13:04:31 GMT 48.643021 -2.880179 34,025 38 475 0
2018-12-06 13:04:28 GMT 48.638031 -2.886094 34,025 38 475 0
2018-12-06 13:04:25 GMT 48.633499 -2.891447 34,025 38 475 0
2018-12-06 13:04:22 GMT 48.629196 -2.896517 34,025 38 475 0
2018-12-06 13:04:19 GMT 48.623020 -2.903788 34,025 38 475 0
2018-12-06 13:04:16 GMT 48.617935 -2.909757 34,025 38 475 0
2018-12-06 13:04:13 GMT 48.613770 -2.914687 34,025 38 475 0
2018-12-06 13:04:10 GMT 48.607910 -2.921589 34,025 38 475 0
2018-12-06 13:04:07 GMT 48.602371 -2.928138 34,000 38 475 0
2018-12-06 13:04:04 GMT 48.597790 -2.933566 34,000 38 475 0
2018-12-06 13:04:00 GMT 48.588501 -2.944477 34,000 38 475 0
2018-12-06 13:03:56 GMT 48.583145 -2.950745 34,000 38 475 0
2018-12-06 13:03:53 GMT 48.570831 -2.965252 34,000 37 476 0
2018-12-06 13:03:49 GMT 48.570831 -2.965252 34,000 38 475 0
2018-12-06 13:03:45 GMT 48.562683 -2.974830 34,000 38 475 0
2018-12-06 13:03:41 GMT 48.550049 -2.989690 34,000 37 476 0
2018-12-06 13:03:38 GMT 48.550049 -2.989690 34,000 37 476 0
2018-12-06 13:03:34 GMT 48.544907 -2.995726 34,000 37 476 0
2018-12-06 13:03:30 GMT 48.537643 -3.004255 34,000 37 476 0
2018-12-06 13:03:27 GMT 48.533455 -3.009170 34,000 37 476 0
2018-12-06 13:03:24 GMT 48.527664 -3.015958 34,000 37 476 0
2018-12-06 13:03:19 GMT 48.519470 -3.025536 34,000 37 476 0
2018-12-06 13:03:16 GMT 48.515064 -3.030709 34,000 37 476 0
2018-12-06 13:03:13 GMT 48.500381 -3.047861 34,000 37 476 0
2018-12-06 13:03:09 GMT 48.500381 -3.047861 34,000 37 476 0
2018-12-06 13:03:06 GMT 48.491226 -3.058636 34,025 37 476 0
2018-12-06 13:03:03 GMT 48.491226 -3.058636 34,000 37 476 0
2018-12-06 13:02:58 GMT 48.482807 -3.068438 34,000 37 476 0
2018-12-06 13:02:55 GMT 48.478291 -3.073714 34,000 37 476 0
2018-12-06 13:02:52 GMT 48.473076 -3.079858 34,000 37 476 0
2018-12-06 13:02:49 GMT 48.466736 -3.087229 34,000 37 476 0
2018-12-06 13:02:45 GMT 48.461113 -3.093808 34,000 37 476 0
2018-12-06 13:02:42 GMT 48.449474 -3.107396 34,000 37 476 0
2018-12-06 13:02:39 GMT 48.449474 -3.107396 34,000 37 476 0
2018-12-06 13:02:35 GMT 48.442978 -3.114976 34,000 37 476 -64
2018-12-06 13:02:31 GMT 48.436115 -3.123008 34,000 37 475 -64
2018-12-06 13:02:27 GMT 48.429291 -3.130963 34,000 37 475 -64
2018-12-06 13:02:23 GMT 48.421280 -3.140329 34,025 37 475 0
2018-12-06 13:02:19 GMT 48.413582 -3.149318 34,000 37 475 0
2018-12-06 13:02:15 GMT 48.406586 -3.157513 34,000 37 474 0
2018-12-06 13:02:11 GMT 48.401478 -3.163484 34,000 37 475 0
2018-12-06 13:02:06 GMT 48.392899 -3.173499 34,000 37 475 0
2018-12-06 13:02:03 GMT 48.387863 -3.179345 34,000 37 475 0
2018-12-06 13:02:00 GMT 48.382462 -3.185613 34,000 37 475 0
2018-12-06 13:01:55 GMT 48.374130 -3.195331 34,000 37 475 0
2018-12-06 13:01:51 GMT 48.367451 -3.203093 34,000 37 475 0
2018-12-06 13:01:47 GMT 48.360512 -3.211188 34,000 37 475 0
2018-12-06 13:01:44 GMT 48.354462 -3.218199 34,000 37 475 0
2018-12-06 13:01:41 GMT 48.349758 -3.223692 34,000 37 475 0
2018-12-06 13:01:38 GMT 48.343147 -3.231354 34,000 37 475 0
2018-12-06 13:01:32 GMT 48.332657 -3.243573 34,000 37 475 0
2018-12-06 13:01:29 GMT 48.328392 -3.248484 34,000 37 475 0
2018-12-06 13:01:25 GMT 48.320244 -3.257952 34,000 37 475 0
2018-12-06 13:01:20 GMT 48.313122 -3.266264 34,000 37 475 0
2018-12-06 13:01:17 GMT 48.301296 -3.279925 34,000 37 475 0
2018-12-06 13:01:10 GMT 48.289902 -3.293152 34,000 37 475 0
2018-12-06 13:01:07 GMT 48.289902 -3.293152 34,000 37 475 0
2018-12-06 13:01:03 GMT 48.283127 -3.300969 34,000 37 476 0
2018-12-06 13:01:00 GMT 48.277649 -3.307318 34,000 37 474 0
2018-12-06 13:00:57 GMT 48.271683 -3.314279 34,000 37 475 0
2018-12-06 13:00:53 GMT 48.265228 -3.321674 34,000 37 475 0
2018-12-06 13:00:50 GMT 48.260010 -3.327731 34,000 37 475 0
2018-12-06 13:00:46 GMT 48.254791 -3.333717 34,025 37 475 0
2018-12-06 13:00:43 GMT 48.248463 -3.341072 34,000 37 474 0
2018-12-06 13:00:40 GMT 48.243061 -3.347288 34,000 37 474 0
2018-12-06 13:00:36 GMT 48.236389 -3.355056 34,025 37 474 0
2018-12-06 13:00:33 GMT 48.231098 -3.361166 34,000 37 474 0
2018-12-06 13:00:29 GMT 48.224861 -3.368394 34,000 37 474 0
2018-12-06 13:00:26 GMT 48.219360 -3.374704 34,000 37 474 0
2018-12-06 13:00:23 GMT 48.213272 -3.381676 34,000 37 474 0
2018-12-06 13:00:19 GMT 48.207451 -3.388415 34,000 37 474 0
2018-12-06 13:00:15 GMT 48.200329 -3.396655 34,000 37 474 0
2018-12-06 13:00:11 GMT 48.193390 -3.404678 34,000 37 474 0
2018-12-06 13:00:08 GMT 48.185383 -3.413857 34,000 37 474 0
2018-12-06 13:00:05 GMT 48.181824 -3.417945 34,000 37 474 0
2018-12-06 13:00:02 GMT 48.176605 -3.424002 34,000 37 474 0
2018-12-06 12:59:59 GMT 48.164902 -3.437492 34,000 37 474 0
2018-12-06 12:59:56 GMT 48.164902 -3.437492 34,000 37 474 0
2018-12-06 12:59:52 GMT 48.154221 -3.449776 34,000 37 474 0
2018-12-06 12:59:49 GMT 48.154221 -3.449776 34,000 37 474 0
2018-12-06 12:59:44 GMT 48.145954 -3.459285 34,000 37 474 0
2018-12-06 12:59:41 GMT 48.139156 -3.467102 34,000 37 474 0
2018-12-06 12:59:38 GMT 48.134827 -3.472102 34,000 37 474 0
2018-12-06 12:59:34 GMT 48.128677 -3.479233 34,000 37 474 0
2018-12-06 12:59:31 GMT 48.122772 -3.486031 34,000 37 474 0
2018-12-06 12:59:27 GMT 48.116066 -3.493723 34,000 37 474 0
2018-12-06 12:59:23 GMT 48.109642 -3.501117 34,000 37 474 0
2018-12-06 12:59:20 GMT 48.097229 -3.515350 34,000 37 474 0
2018-12-06 12:59:17 GMT 48.097229 -3.515350 34,000 37 474 0
2018-12-06 12:59:11 GMT 48.083435 -3.531189 34,000 37 474 0
2018-12-06 12:59:08 GMT 48.075428 -3.540344 34,000 37 474 0
2018-12-06 12:59:04 GMT 48.075428 -3.540344 34,000 37 474 0
2018-12-06 12:59:01 GMT 48.071098 -3.545344 34,000 37 474 0
2018-12-06 12:58:57 GMT 48.064487 -3.552880 34,000 37 474 0
2018-12-06 12:58:52 GMT 48.055527 -3.563141 34,000 37 474 0
2018-12-06 12:58:49 GMT 48.050308 -3.569115 34,000 37 475 0
2018-12-06 12:58:46 GMT 48.045456 -3.574745 34,000 37 474 0
2018-12-06 12:58:42 GMT 48.037811 -3.583466 34,000 37 475 0
2018-12-06 12:58:39 GMT 48.032410 -3.589645 34,000 37 474 0
2018-12-06 12:58:35 GMT 48.024498 -3.598656 34,000 37 475 0
2018-12-06 12:58:31 GMT 48.019981 -3.603868 34,000 37 474 0
2018-12-06 12:58:28 GMT 48.013275 -3.611481 34,000 37 474 0
2018-12-06 12:58:24 GMT 48.006390 -3.619291 34,025 37 474 -64
2018-12-06 12:58:21 GMT 48.002571 -3.623657 34,025 37 474 0
2018-12-06 12:58:18 GMT 47.985947 -3.642586 34,025 37 474 0
2018-12-06 12:58:13 GMT 47.985947 -3.642586 34,025 37 474 0
2018-12-06 12:58:09 GMT 47.981529 -3.647672 34,025 37 474 0
2018-12-06 12:58:05 GMT 47.974503 -3.655701 34,025 37 474 0
2018-12-06 12:58:02 GMT 47.968597 -3.662498 34,000 37 474 0
2018-12-06 12:57:58 GMT 47.962257 -3.669715 34,000 37 475 64
2018-12-06 12:57:54 GMT 47.955368 -3.677605 34,000 37 475 0
2018-12-06 12:57:50 GMT 47.948524 -3.685420 34,000 37 474 0
2018-12-06 12:57:46 GMT 47.941730 -3.693167 34,000 37 474 0
2018-12-06 12:57:43 GMT 47.936329 -3.699294 34,000 37 474 0
2018-12-06 12:57:40 GMT 47.930042 -3.706407 34,000 37 474 0
2018-12-06 12:57:37 GMT 47.925064 -3.712074 34,000 37 474 0
2018-12-06 12:57:34 GMT 47.919708 -3.718185 34,000 37 474 0
2018-12-06 12:57:30 GMT 47.908218 -3.731232 34,000 37 474 0
2018-12-06 12:57:23 GMT 47.901077 -3.739334 34,000 37 474 0
2018-12-06 12:57:19 GMT 47.893753 -3.747643 34,025 37 474 0
2018-12-06 12:57:15 GMT 47.886333 -3.756057 34,000 37 474 0
2018-12-06 12:57:12 GMT 47.882080 -3.760895 34,025 37 474 0
2018-12-06 12:57:09 GMT 47.875904 -3.767888 34,000 37 474 0
2018-12-06 12:57:04 GMT 47.868595 -3.776198 34,000 37 474 0
2018-12-06 12:57:01 GMT 47.861893 -3.783829 34,000 37 474 0
2018-12-06 12:56:57 GMT 47.854935 -3.791725 34,000 37 474 0
2018-12-06 12:56:54 GMT 47.850346 -3.796974 34,000 37 474 0
2018-12-06 12:56:51 GMT 47.843552 -3.804650 34,000 37 473 0
2018-12-06 12:56:46 GMT 47.836800 -3.812326 34,025 37 473 0
2018-12-06 12:56:43 GMT 47.826096 -3.824478 34,000 37 473 0
2018-12-06 12:56:40 GMT 47.826096 -3.824478 34,025 37 473 0
2018-12-06 12:56:36 GMT 47.818771 -3.832718 34,025 37 473 0
2018-12-06 12:56:33 GMT 47.813663 -3.838524 34,000 37 473 0
2018-12-06 12:56:30 GMT 47.808449 -3.844440 34,000 37 473 0
2018-12-06 12:56:25 GMT 47.800186 -3.853798 34,000 37 473 0
2018-12-06 12:56:22 GMT 47.794716 -3.860004 34,025 37 473 0
2018-12-06 12:56:19 GMT 47.790016 -3.865286 34,025 37 473 0
2018-12-06 12:56:15 GMT 47.783031 -3.873174 34,025 37 473 0
2018-12-06 12:56:12 GMT 47.771988 -3.885590 34,025 37 472 0
2018-12-06 12:56:09 GMT 47.771988 -3.885590 34,025 37 472 0
2018-12-06 12:56:05 GMT 47.765156 -3.893315 34,000 37 470 0
2018-12-06 12:55:59 GMT 47.752960 -3.907048 34,000 37 472 64
2018-12-06 12:55:54 GMT 47.746124 -3.914841 34,000 37 472 64
2018-12-06 12:55:49 GMT 47.737244 -3.924797 34,000 37 473 64
2018-12-06 12:55:45 GMT 47.728661 -3.934514 34,000 37 470 0
2018-12-06 12:55:38 GMT 47.718475 -3.945946 34,000 37 472 0
2018-12-06 12:55:33 GMT 47.710411 -3.955078 34,000 37 470 0
2018-12-06 12:55:28 GMT 47.699524 -3.967300 34,000 37 472 0
2018-12-06 12:55:23 GMT 47.692749 -3.974922 34,000 37 472 0
2018-12-06 12:55:17 GMT 47.680340 -3.988882 34,000 37 471 0
2018-12-06 12:55:12 GMT 47.673775 -3.996277 34,000 37 471 0
2018-12-06 12:55:08 GMT 47.666061 -4.004929 34,000 37 471 0
2018-12-06 12:55:04 GMT 47.657993 -4.014024 34,000 37 471 0
2018-12-06 12:54:58 GMT 47.649033 -4.024086 34,000 37 471 0
2018-12-06 12:54:55 GMT 47.643677 -4.030128 34,000 37 471 0
2018-12-06 12:54:52 GMT 47.638824 -4.035553 34,000 37 471 0
2018-12-06 12:54:48 GMT 47.631084 -4.044166 34,000 37 470 0
2018-12-06 12:54:44 GMT 47.619865 -4.056843 34,000 37 470 0
2018-12-06 12:54:37 GMT 47.613117 -4.064378 34,000 37 470 0
2018-12-06 12:54:33 GMT 47.605042 -4.073456 34,000 37 470 0
2018-12-06 12:54:30 GMT 47.600780 -4.078181 34,000 37 470 0
2018-12-06 12:54:26 GMT 47.594215 -4.085576 34,000 37 470 0
2018-12-06 12:54:21 GMT 47.585632 -4.095154 34,025 37 470 0
2018-12-06 12:54:16 GMT 47.574738 -4.107307 34,025 37 469 0
2018-12-06 12:54:13 GMT 47.570938 -4.111565 34,000 37 469 0
2018-12-06 12:54:09 GMT 47.564667 -4.118568 34,000 37 470 0
2018-12-06 12:54:06 GMT 47.558441 -4.125504 34,000 37 469 0
2018-12-06 12:54:00 GMT 47.549286 -4.135735 34,000 37 470 0
2018-12-06 12:53:56 GMT 47.539982 -4.146142 34,000 37 470 0
2018-12-06 12:53:50 GMT 47.531250 -4.155853 34,000 37 470 0
2018-12-06 12:53:46 GMT 47.523468 -4.164574 34,025 36 469 0
2018-12-06 12:53:38 GMT 47.510468 -4.179062 34,000 37 469 0
2018-12-06 12:53:34 GMT 47.502686 -4.187782 34,000 37 469 0
2018-12-06 12:53:30 GMT 47.487846 -4.204242 34,000 37 469 0
2018-12-06 12:53:25 GMT 47.487846 -4.204242 34,000 37 469 0
2018-12-06 12:53:22 GMT 47.483276 -4.209343 34,025 36 469 0
2018-12-06 12:53:19 GMT 47.477737 -4.215523 34,025 36 469 0
2018-12-06 12:53:14 GMT 47.468620 -4.225581 34,025 36 469 0
2018-12-06 12:53:11 GMT 47.463318 -4.231453 34,025 36 469 0
2018-12-06 12:53:08 GMT 47.457867 -4.237483 34,025 36 469 0
2018-12-06 12:53:03 GMT 47.449718 -4.246568 34,025 36 469 0
2018-12-06 12:52:58 GMT 47.441666 -4.255486 34,025 36 469 0
2018-12-06 12:52:55 GMT 47.435520 -4.262273 34,000 36 469 0
2018-12-06 12:52:52 GMT 47.431274 -4.267021 34,025 36 469 0
2018-12-06 12:52:48 GMT 47.423996 -4.275055 34,000 36 469 0
2018-12-06 12:52:42 GMT 47.413101 -4.287140 34,025 36 469 0
2018-12-06 12:52:38 GMT 47.405727 -4.295302 34,000 36 469 0
2018-12-06 12:52:32 GMT 47.395798 -4.306366 34,000 36 469 0
2018-12-06 12:52:27 GMT 47.387943 -4.315092 34,000 36 469 0
2018-12-06 12:52:22 GMT 47.376865 -4.327346 34,000 36 469 64
2018-12-06 12:52:17 GMT 47.370163 -4.334724 34,000 36 469 0
2018-12-06 12:52:13 GMT 47.363251 -4.342415 34,000 36 469 0
2018-12-06 12:52:10 GMT 47.357712 -4.348526 34,000 36 469 0
2018-12-06 12:52:07 GMT 47.352356 -4.354500 34,000 37 469 0
2018-12-06 12:52:02 GMT 47.335106 -4.373545 34,000 37 469 0
2018-12-06 12:51:57 GMT 47.335106 -4.373545 34,000 36 469 0
2018-12-06 12:51:54 GMT 47.325165 -4.384575 34,000 36 469 0
2018-12-06 12:51:51 GMT 47.318302 -4.392207 34,000 36 469 0
2018-12-06 12:51:47 GMT 47.318302 -4.392207 34,000 36 469 0
2018-12-06 12:51:43 GMT 47.311295 -4.399956 34,000 36 469 0
2018-12-06 12:51:40 GMT 47.306198 -4.405588 34,000 36 469 0
2018-12-06 12:51:37 GMT 47.299263 -4.413264 34,000 36 469 0
2018-12-06 12:51:33 GMT 47.293209 -4.419884 34,000 36 469 0
2018-12-06 12:51:29 GMT 47.279617 -4.434906 34,000 36 469 0
2018-12-06 12:51:25 GMT 47.279617 -4.434906 34,000 36 469 0
2018-12-06 12:51:22 GMT 47.275131 -4.439919 34,000 36 469 0
2018-12-06 12:51:19 GMT 47.263687 -4.452484 34,000 36 469 0
2018-12-06 12:51:16 GMT 47.263687 -4.452484 34,000 36 468 0
2018-12-06 12:51:13 GMT 47.258469 -4.458252 34,000 36 468 0
2018-12-06 12:51:10 GMT 47.253220 -4.464041 34,000 36 468 0
2018-12-06 12:51:06 GMT 47.245399 -4.472633 34,000 36 468 0
2018-12-06 12:51:02 GMT 47.240189 -4.478337 34,000 36 468 0
2018-12-06 12:50:59 GMT 47.235531 -4.483549 34,000 36 468 0
2018-12-06 12:50:55 GMT 47.228165 -4.491623 34,000 36 468 0
2018-12-06 12:50:52 GMT 47.222870 -4.497422 34,000 36 468 0
2018-12-06 12:50:46 GMT 47.212116 -4.509254 34,000 36 468 0
2018-12-06 12:50:43 GMT 47.208069 -4.513733 34,000 36 468 0
2018-12-06 12:50:39 GMT 47.192276 -4.531105 34,000 36 468 0
2018-12-06 12:50:34 GMT 47.192276 -4.531105 34,000 36 468 0
2018-12-06 12:50:31 GMT 47.187210 -4.536720 34,025 36 468 0
2018-12-06 12:50:28 GMT 47.181747 -4.542641 34,025 36 468 0
2018-12-06 12:50:24 GMT 47.174175 -4.550946 34,000 36 468 0
2018-12-06 12:50:21 GMT 47.162659 -4.563515 34,000 36 468 0
2018-12-06 12:50:18 GMT 47.156857 -4.569890 34,000 36 468 0
2018-12-06 12:50:14 GMT 47.156857 -4.569890 34,000 36 468 0
2018-12-06 12:50:11 GMT 47.151260 -4.576080 34,000 36 468 0
2018-12-06 12:50:08 GMT 47.146042 -4.581779 34,000 36 468 64
2018-12-06 12:50:04 GMT 47.139030 -4.589398 34,000 36 468 64
2018-12-06 12:50:01 GMT 47.133591 -4.595375 34,000 36 468 0
2018-12-06 12:49:55 GMT 47.124390 -4.605400 34,000 36 467 0
2018-12-06 12:49:51 GMT 47.115555 -4.615082 34,000 36 467 0
2018-12-06 12:49:46 GMT 47.107002 -4.624399 34,000 36 467 0
2018-12-06 12:49:40 GMT 47.097702 -4.634514 34,000 36 468 0
2018-12-06 12:49:34 GMT 47.088100 -4.645034 34,000 36 467 0
2018-12-06 12:49:27 GMT 47.075111 -4.659189 34,025 36 467 0
2018-12-06 12:49:22 GMT 47.066528 -4.668503 34,025 36 467 0
2018-12-06 12:49:19 GMT 47.059799 -4.675919 34,025 36 467 0
2018-12-06 12:49:14 GMT 47.052814 -4.683556 34,025 36 467 0
2018-12-06 12:49:09 GMT 47.044052 -4.693085 34,025 36 467 0
2018-12-06 12:49:04 GMT 47.035400 -4.702492 34,025 36 467 0
2018-12-06 12:48:58 GMT 47.024826 -4.713959 34,025 36 467 0
2018-12-06 12:48:54 GMT 47.016861 -4.722679 34,025 36 466 0
2018-12-06 12:48:47 GMT 46.998955 -4.742080 34,000 36 467 0
2018-12-06 12:48:43 GMT 46.998955 -4.742080 34,000 36 467 0
2018-12-06 12:48:36 GMT 46.988297 -4.753716 34,000 36 467 0
2018-12-06 12:48:32 GMT 46.980286 -4.762432 34,000 36 467 0
2018-12-06 12:48:23 GMT 46.964878 -4.779194 34,000 36 467 0
2018-12-06 12:48:15 GMT 46.951191 -4.794053 34,000 36 467 64
2018-12-06 12:48:12 GMT 46.946091 -4.799583 34,000 36 467 0
2018-12-06 12:48:08 GMT 46.938812 -4.807480 34,000 36 466 0
2018-12-06 12:48:04 GMT 46.932220 -4.814621 34,000 36 466 0
2018-12-06 12:47:59 GMT 46.922794 -4.824829 34,000 36 466 -64
2018-12-06 12:47:53 GMT 46.913063 -4.835322 34,000 36 466 0
2018-12-06 12:47:48 GMT 46.902100 -4.847237 34,025 36 466 0
2018-12-06 12:47:41 GMT 46.892395 -4.857742 34,025 36 466 0
2018-12-06 12:47:33 GMT 46.871353 -4.880465 34,025 36 466 0
2018-12-06 12:47:30 GMT 46.871353 -4.880465 34,025 36 466 0
2018-12-06 12:47:24 GMT 46.863327 -4.889184 34,000 36 466 0
2018-12-06 12:47:20 GMT 46.855682 -4.897424 34,000 36 466 0
2018-12-06 12:47:09 GMT 46.836578 -4.918098 34,025 36 466 0
2018-12-06 12:46:57 GMT 46.816280 -4.939934 34,025 36 466 0
2018-12-06 12:46:46 GMT 46.796406 -4.961426 34,000 36 466 64
2018-12-06 12:46:36 GMT 46.780296 -4.978798 34,000 36 466 0
2018-12-06 12:46:27 GMT 46.763493 -4.996857 34,000 36 466 0
2018-12-06 12:46:21 GMT 46.752869 -5.008292 34,025 36 466 0
2018-12-06 12:46:15 GMT 46.742542 -5.019379 34,000 36 466 0
2018-12-06 12:46:06 GMT 46.727051 -5.036026 34,000 36 465 0
2018-12-06 12:45:55 GMT 46.708191 -5.056257 34,000 36 465 0
2018-12-06 12:45:44 GMT 46.689972 -5.075751 34,025 36 465 0
2018-12-06 12:45:33 GMT 46.671040 -5.096077 34,000 36 465 0
2018-12-06 12:45:23 GMT 46.653210 -5.115166 34,000 36 465 0
2018-12-06 12:45:12 GMT 46.634216 -5.135372 34,000 36 465 0
2018-12-06 12:44:57 GMT 46.608307 -5.163172 34,000 36 464 0
2018-12-06 12:44:48 GMT 46.592377 -5.180121 34,000 36 465 0
2018-12-06 12:44:39 GMT 46.577747 -5.195709 34,000 36 465 0
2018-12-06 12:44:29 GMT 46.559006 -5.215692 34,000 36 465 0
2018-12-06 12:44:17 GMT 46.539276 -5.236660 34,000 36 464 0
2018-12-06 12:44:07 GMT 46.521374 -5.255722 34,000 36 464 0
2018-12-06 12:43:55 GMT 46.501637 -5.276665 34,000 36 464 0
2018-12-06 12:43:46 GMT 46.485203 -5.294106 34,000 36 464 0
2018-12-06 12:43:35 GMT 46.466904 -5.313497 34,000 36 465 0
2018-12-06 12:43:23 GMT 46.446053 -5.335579 34,000 36 465 -64
2018-12-06 12:43:15 GMT 46.431747 -5.350744 34,025 36 464 0
2018-12-06 12:43:05 GMT 46.413757 -5.369769 34,025 36 464 0
2018-12-06 12:42:55 GMT 46.379105 -5.406412 34,025 36 464 0
2018-12-06 12:42:42 GMT 46.373852 -5.412003 34,025 36 464 0
2018-12-06 12:42:31 GMT 46.355507 -5.431366 34,000 36 464 0
2018-12-06 12:42:21 GMT 46.336716 -5.451228 34,000 36 464 0
2018-12-06 12:42:17 GMT 46.331253 -5.456978 34,000 36 464 0
2018-12-06 12:42:12 GMT 46.323063 -5.465561 34,000 36 464 0
2018-12-06 12:42:08 GMT 46.316124 -5.472839 34,000 36 464 0
2018-12-06 12:42:02 GMT 46.304947 -5.484589 34,000 36 464 0
2018-12-06 12:41:59 GMT 46.299831 -5.490005 34,000 36 464 0
2018-12-06 12:41:53 GMT 46.287460 -5.503012 34,000 36 464 0
2018-12-06 12:41:48 GMT 46.281738 -5.509041 34,000 36 464 0
2018-12-06 12:41:41 GMT 46.269287 -5.522171 34,000 36 464 0
2018-12-06 12:41:38 GMT 46.263565 -5.528200 34,000 36 463 0
2018-12-06 12:41:32 GMT 46.252350 -5.539925 34,000 36 463 0
2018-12-06 12:41:22 GMT 46.235172 -5.557983 34,000 35 464 0
2018-12-06 12:41:15 GMT 46.224419 -5.569244 34,000 35 464 0
2018-12-06 12:41:12 GMT 46.216270 -5.577759 34,000 35 464 0
2018-12-06 12:41:05 GMT 46.206028 -5.588539 34,000 35 464 0
2018-12-06 12:41:01 GMT 46.198837 -5.596060 34,000 35 464 0
2018-12-06 12:40:54 GMT 46.186756 -5.608658 34,000 35 464 0
2018-12-06 12:40:50 GMT 46.180618 -5.615152 34,000 35 464 0
2018-12-06 12:40:43 GMT 46.167854 -5.628502 34,000 35 464 0
2018-12-06 12:40:40 GMT 46.163406 -5.633106 34,000 35 464 0
2018-12-06 12:40:31 GMT 46.145977 -5.651367 34,000 35 464 0
2018-12-06 12:40:20 GMT 46.127403 -5.670799 34,000 35 464 0
2018-12-06 12:40:10 GMT 46.110226 -5.688721 34,000 35 464 0
2018-12-06 12:39:59 GMT 46.090668 -5.709072 34,000 35 464 0
2018-12-06 12:39:48 GMT 46.072449 -5.728030 34,000 35 464 0
2018-12-06 12:39:38 GMT 46.055527 -5.745644 34,000 35 464 0
2018-12-06 12:39:28 GMT 46.037567 -5.764339 34,000 35 464 0
2018-12-06 12:39:19 GMT 46.020657 -5.781967 34,025 35 464 0
2018-12-06 12:39:06 GMT 46.000687 -5.802704 34,025 35 464 0
2018-12-06 12:38:58 GMT 45.985657 -5.818266 34,000 35 463 0
2018-12-06 12:38:52 GMT 45.975178 -5.829140 34,025 35 463 0
2018-12-06 12:38:47 GMT 45.966656 -5.837929 34,025 35 463 0
2018-12-06 12:38:44 GMT 45.961304 -5.843491 34,025 35 463 0
2018-12-06 12:38:38 GMT 45.949154 -5.856125 34,000 35 463 0
2018-12-06 12:38:34 GMT 45.944046 -5.861407 34,000 35 463 0
2018-12-06 12:38:27 GMT 45.931915 -5.874001 34,000 35 463 0
2018-12-06 12:38:21 GMT 45.921661 -5.884585 34,000 35 463 0
2018-12-06 12:38:17 GMT 45.914200 -5.892289 34,000 35 463 0
2018-12-06 12:38:06 GMT 45.896084 -5.911057 34,000 35 463 0
2018-12-06 12:37:56 GMT 45.878586 -5.929067 34,000 35 463 0
2018-12-06 12:37:46 GMT 45.860237 -5.947929 34,000 35 463 0
2018-12-06 12:37:35 GMT 45.841805 -5.966949 34,000 35 463 0
2018-12-06 12:37:26 GMT 45.824524 -5.984802 34,000 35 463 0
2018-12-06 12:37:14 GMT 45.806004 -6.003822 34,000 35 463 0
2018-12-06 12:37:04 GMT 45.787491 -6.022919 34,000 35 464 0
2018-12-06 12:36:54 GMT 45.771233 -6.039665 34,000 35 464 0
2018-12-06 12:36:45 GMT 45.753773 -6.057518 34,000 35 464 0
2018-12-06 12:36:33 GMT 45.734711 -6.077114 34,000 35 464 0
2018-12-06 12:36:23 GMT 45.714066 -6.098236 34,000 35 464 0
2018-12-06 12:36:11 GMT 45.690125 -6.122734 34,000 35 463 0
2018-12-06 12:35:58 GMT 45.671051 -6.142250 34,000 35 464 0
2018-12-06 12:35:51 GMT 45.660439 -6.153168 34,000 35 464 0
2018-12-06 12:35:46 GMT 45.648052 -6.165802 34,000 35 463 0
2018-12-06 12:35:35 GMT 45.623520 -6.190865 34,000 35 463 0
2018-12-06 12:35:19 GMT 45.605255 -6.209486 34,000 35 464 0
2018-12-06 12:35:09 GMT 45.586578 -6.228511 34,000 35 464 0
2018-12-06 12:34:59 GMT 45.569569 -6.245796 34,025 35 464 0
2018-12-06 12:34:48 GMT 45.551273 -6.264404 34,025 35 464 64
2018-12-06 12:34:39 GMT 45.533813 -6.282170 34,000 35 464 0
2018-12-06 12:34:28 GMT 45.516216 -6.300056 34,000 35 464 0
2018-12-06 12:34:16 GMT 45.495457 -6.321158 34,000 35 464 0
2018-12-06 12:34:07 GMT 45.479279 -6.337542 34,000 35 463 0
2018-12-06 12:33:56 GMT 45.460968 -6.356114 34,000 35 463 0
2018-12-06 12:33:36 GMT 45.424072 -6.393324 34,000 35 463 0
2018-12-06 12:33:31 GMT 45.413773 -6.403721 34,000 35 463 0
2018-12-06 12:33:21 GMT 45.397789 -6.419901 34,000 35 464 0
2018-12-06 12:33:08 GMT 45.376923 -6.440996 34,000 35 463 0
2018-12-06 12:30:49 GMT 45.131470 -6.687535 34,025 35 466 64
2018-12-06 12:30:43 GMT 45.122314 -6.696690 34,000 35 466 64
2018-12-06 12:30:34 GMT 45.105675 -6.713249 34,000 34 467 0
2018-12-06 12:28:36 GMT 44.897678 -6.919310 34,000 34 467 0
2018-12-06 12:28:29 GMT 44.884644 -6.932172 34,000 35 467 0
2018-12-06 12:28:02 GMT 44.838318 -6.978149 34,000 35 466 0
2018-12-06 12:27:14 GMT 44.742100 -7.075061 34,000 39 467 0
We lost coverage of the aircraft here for a total of 8 minutes
2018-12-06 12:19:21 GMT 44.038277 -8.120989 34,000 46 469 0
2018-12-06 12:18:16 GMT 43.940331 -8.265119 34,000 46 469 0
2018-12-06 12:18:05 GMT 43.927322 -8.284202 34,000 46 469 0
2018-12-06 12:17:51 GMT 43.904205 -8.318154 34,000 46 469 0
2018-12-06 12:17:35 GMT 43.882050 -8.350504 34,000 46 469 0
2018-12-06 12:17:21 GMT 43.858913 -8.384465 34,000 46 469 0
2018-12-06 12:16:21 GMT 43.771069 -8.512639 34,000 46 471 0
2018-12-06 12:16:17 GMT 43.765247 -8.521075 34,000 46 471 -64
2018-12-06 12:15:45 GMT 43.716694 -8.591439 34,000 46 471 0
2018-12-06 12:15:32 GMT 43.698303 -8.618136 34,000 46 472 0
2018-12-06 12:14:33 GMT 43.608215 -8.748503 34,000 46 474 0
2018-12-06 12:14:30 GMT 43.603683 -8.755018 34,000 46 474 0
2018-12-06 12:14:17 GMT 43.592010 -8.771817 34,000 46 474 0
2018-12-06 12:14:08 GMT 43.578480 -8.791417 34,000 46 474 0
2018-12-06 12:13:56 GMT 43.561066 -8.816337 34,000 46 474 0
2018-12-06 12:13:50 GMT 43.552277 -8.828984 34,000 46 474 -64
2018-12-06 12:13:26 GMT 43.514938 -8.882642 34,025 46 473 0
2018-12-06 12:13:19 GMT 43.504166 -8.898223 34,025 46 473 64
2018-12-06 12:12:53 GMT 43.465027 -8.954305 34,000 46 472 -64
2018-12-06 12:12:39 GMT 43.444290 -8.983942 34,000 46 472 0
2018-12-06 12:12:26 GMT 43.424652 -9.012047 34,000 46 472 0
2018-12-06 12:12:13 GMT 43.404888 -9.040179 34,025 46 472 0
2018-12-06 12:11:48 GMT 43.366947 -9.094195 34,000 46 471 0
2018-12-06 12:11:42 GMT 43.358093 -9.106772 34,000 46 471 0
2018-12-06 12:11:33 GMT 43.344788 -9.125846 34,000 46 471 0
2018-12-06 12:11:22 GMT 43.327236 -9.150761 34,000 46 471 0
2018-12-06 12:11:12 GMT 43.311630 -9.173009 34,000 46 471 0
2018-12-06 12:11:01 GMT 43.296001 -9.195230 34,000 46 471 0
2018-12-06 12:10:49 GMT 43.278397 -9.220148 34,000 45 470 -64
2018-12-06 12:10:39 GMT 43.262741 -9.242440 34,025 46 470 0
2018-12-06 12:10:28 GMT 43.245255 -9.267223 34,025 46 469 0
2018-12-06 12:10:18 GMT 43.230827 -9.287698 34,000 46 469 0
2018-12-06 12:10:06 GMT 43.212765 -9.313333 34,000 46 469 0
2018-12-06 12:09:57 GMT 43.199036 -9.332820 34,000 46 469 0
2018-12-06 12:09:46 GMT 43.182495 -9.356136 34,000 45 469 0
2018-12-06 12:09:33 GMT 43.163773 -9.382516 34,000 45 469 -64
2018-12-06 12:09:25 GMT 43.150246 -9.401550 34,025 45 468 0
2018-12-06 12:09:14 GMT 43.134418 -9.423850 34,000 45 468 0
2018-12-06 12:09:07 GMT 43.123989 -9.438498 34,000 45 468 0
2018-12-06 12:09:01 GMT 43.115101 -9.450989 34,025 45 468 0
2018-12-06 12:08:56 GMT 43.108166 -9.460798 34,000 45 468 0
2018-12-06 12:08:51 GMT 43.100098 -9.472131 34,000 45 468 0
2018-12-06 12:08:42 GMT 43.085541 -9.492580 34,025 45 468 0
2018-12-06 12:08:29 GMT 43.067505 -9.517865 34,000 45 468 0
2018-12-06 12:08:23 GMT 43.058071 -9.531097 34,000 45 468 0
2018-12-06 12:08:15 GMT 43.046158 -9.547838 34,000 45 468 0
2018-12-06 12:08:01 GMT 43.025021 -9.577397 34,025 45 468 0
2018-12-06 12:07:47 GMT 43.003052 -9.608119 34,025 45 468 64
2018-12-06 12:07:44 GMT 42.999298 -9.613420 34,025 45 468 0
2018-12-06 12:07:36 GMT 42.985703 -9.632391 34,000 45 468 0
2018-12-06 12:07:33 GMT 42.982864 -9.636415 34,000 45 468 0
2018-12-06 12:07:27 GMT 42.972885 -9.650340 34,000 45 468 0
2018-12-06 12:07:24 GMT 42.968552 -9.656394 34,000 45 468 0
2018-12-06 12:07:13 GMT 42.952606 -9.678572 34,000 45 468 0
2018-12-06 12:07:03 GMT 42.937637 -9.699459 34,000 45 468 0
2018-12-06 12:06:53 GMT 42.920513 -9.723358 34,000 45 468 0
2018-12-06 12:06:43 GMT 42.906189 -9.743276 34,000 45 468 0
2018-12-06 12:06:32 GMT 42.890812 -9.764622 34,000 45 467 0
2018-12-06 12:06:27 GMT 42.881973 -9.776938 34,000 45 467 0
2018-12-06 12:06:23 GMT 42.875198 -9.786391 34,000 45 467 -64
2018-12-06 12:06:12 GMT 42.859955 -9.807661 34,000 45 468 0
2018-12-06 12:06:00 GMT 42.841049 -9.833977 34,000 45 468 0
2018-12-06 12:05:50 GMT 42.826427 -9.854213 34,000 45 468 0
2018-12-06 12:05:47 GMT 42.821774 -9.860753 34,000 45 468 0
2018-12-06 12:05:39 GMT 42.809692 -9.877412 34,000 45 468 0
2018-12-06 12:05:30 GMT 42.795319 -9.897371 34,025 45 468 0
2018-12-06 12:05:22 GMT 42.783783 -9.913288 34,000 45 468 0
2018-12-06 12:05:19 GMT 42.779388 -9.919343 34,000 45 468 0
2018-12-06 12:05:11 GMT 42.767635 -9.935537 34,000 45 468 0
2018-12-06 12:05:08 GMT 42.763073 -9.941860 34,000 45 468 -64
2018-12-06 12:04:58 GMT 42.747116 -9.964038 34,025 45 468 0
2018-12-06 12:04:53 GMT 42.740936 -9.972590 34,025 45 468 0
2018-12-06 12:04:47 GMT 42.730774 -9.986635 34,000 45 468 0
2018-12-06 12:04:42 GMT 42.724091 -9.995873 34,000 45 468 0
2018-12-06 12:04:39 GMT 42.719238 -10.002552 34,000 45 467 0
2018-12-06 12:04:35 GMT 42.713402 -10.010589 34,000 45 468 0
2018-12-06 12:04:29 GMT 42.703346 -10.024386 34,000 45 468 0
2018-12-06 12:04:25 GMT 42.697174 -10.032827 34,000 45 468 0
2018-12-06 12:04:21 GMT 42.687565 -10.046039 34,000 45 467 0
2018-12-06 12:04:18 GMT 42.687565 -10.046039 34,000 45 467 0
2018-12-06 12:04:11 GMT 42.675934 -10.062041 34,000 45 467 0
2018-12-06 12:04:08 GMT 42.671642 -10.068012 34,000 45 467 -64
2018-12-06 12:04:01 GMT 42.660782 -10.082890 34,000 45 467 0
2018-12-06 12:03:58 GMT 42.656067 -10.089319 34,000 45 467 0
2018-12-06 12:03:53 GMT 42.648651 -10.099557 34,000 45 467 64
2018-12-06 12:03:48 GMT 42.641010 -10.110105 34,000 45 467 64
2018-12-06 12:03:42 GMT 42.631851 -10.122653 34,000 45 466 64
2018-12-06 12:03:37 GMT 42.624710 -10.132453 34,000 45 467 0
2018-12-06 12:03:32 GMT 42.616699 -10.143502 34,000 45 467 -64
2018-12-06 12:03:26 GMT 42.609032 -10.153986 34,025 45 467 -64
2018-12-06 12:03:21 GMT 42.600651 -10.165419 34,025 45 467 0
2018-12-06 12:03:16 GMT 42.593262 -10.175462 34,025 45 466 64
2018-12-06 12:03:09 GMT 42.581192 -10.191927 34,000 45 465 0
2018-12-06 12:03:06 GMT 42.577469 -10.197060 34,000 45 465 0
2018-12-06 12:03:00 GMT 42.568405 -10.209545 34,000 45 466 0
2018-12-06 12:02:56 GMT 42.562042 -10.218221 34,000 45 466 0
2018-12-06 12:02:48 GMT 42.549316 -10.235700 34,000 45 466 0
2018-12-06 12:02:37 GMT 42.533802 -10.256951 34,000 45 465 0
2018-12-06 12:02:34 GMT 42.530090 -10.262042 34,000 45 465 0
2018-12-06 12:02:29 GMT 42.520161 -10.275666 34,000 45 465 64
2018-12-06 12:02:24 GMT 42.514111 -10.283970 34,000 45 465 64
2018-12-06 12:02:17 GMT 42.504364 -10.297311 34,000 45 465 0
2018-12-06 12:02:13 GMT 42.498283 -10.305751 34,000 45 465 0
2018-12-06 12:02:07 GMT 42.488602 -10.318973 34,000 45 466 0
2018-12-06 12:02:03 GMT 42.482407 -10.327468 34,000 45 466 0
2018-12-06 12:01:56 GMT 42.471889 -10.342031 34,000 45 465 0
2018-12-06 12:01:52 GMT 42.466488 -10.349568 34,000 45 465 -64
2018-12-06 12:01:45 GMT 42.454376 -10.366287 34,025 45 464 0
2018-12-06 12:01:41 GMT 42.449356 -10.373265 34,025 45 465 0
2018-12-06 12:01:35 GMT 42.437019 -10.390192 34,000 44 465 64
2018-12-06 12:01:31 GMT 42.434692 -10.393258 34,000 44 465 64
2018-12-06 12:01:24 GMT 42.421566 -10.410823 34,000 45 464 0
2018-12-06 12:01:11 GMT 42.404892 -10.434765 34,000 48 463 0
2018-12-06 12:01:02 GMT 42.390888 -10.456749 34,025 50 461 0
2018-12-06 12:00:51 GMT 42.372452 -10.488303 34,000 53 459 0
2018-12-06 12:00:41 GMT 42.363281 -10.505485 34,000 55 457 0
2018-12-06 12:00:29 GMT 42.351334 -10.530146 34,000 58 456 0
2018-12-06 12:00:18 GMT 42.338928 -10.557549 34,000 58 455 0
2018-12-06 12:00:07 GMT 42.326134 -10.585774 34,025 58 456 0
2018-12-06 11:59:58 GMT 42.316315 -10.607425 34,025 58 455 0
2018-12-06 11:59:49 GMT 42.306812 -10.628314 34,025 58 455 0
2018-12-06 11:59:45 GMT 42.302994 -10.636701 34,025 58 455 0
2018-12-06 11:59:38 GMT 42.294617 -10.655141 34,025 58 455 0
2018-12-06 11:59:35 GMT 42.291916 -10.661045 34,000 58 455 0
2018-12-06 11:59:28 GMT 42.279346 -10.688739 34,000 58 455 0
2018-12-06 11:59:17 GMT 42.272411 -10.703941 34,000 58 454 0
2018-12-06 11:59:14 GMT 42.267242 -10.715247 34,000 58 454 0
2018-12-06 11:59:05 GMT 42.258259 -10.735048 34,000 58 453 0
2018-12-06 11:58:52 GMT 42.244667 -10.764941 34,000 58 454 0
2018-12-06 11:58:42 GMT 42.233868 -10.788510 34,000 58 454 0
2018-12-06 11:58:35 GMT 42.225769 -10.806177 34,000 58 453 0
2018-12-06 11:58:31 GMT 42.220551 -10.817573 34,000 58 453 0
2018-12-06 11:58:22 GMT 42.210312 -10.839929 34,000 58 453 0
2018-12-06 11:58:10 GMT 42.197929 -10.867075 34,000 58 453 0
2018-12-06 11:58:03 GMT 42.190571 -10.883172 34,000 58 453 -64
2018-12-06 11:58:00 GMT 42.186710 -10.891603 34,000 58 453 0
2018-12-06 11:57:54 GMT 42.179680 -10.906933 34,000 58 452 0
2018-12-06 11:57:50 GMT 42.174698 -10.917664 34,000 58 452 0
2018-12-06 11:57:43 GMT 42.163620 -10.941872 34,025 58 452 0
2018-12-06 11:57:39 GMT 42.163620 -10.941872 34,025 58 452 0
2018-12-06 11:57:33 GMT 42.156876 -10.956553 34,025 58 452 0
2018-12-06 11:57:27 GMT 42.151474 -10.968288 34,025 58 451 64
2018-12-06 11:57:22 GMT 42.144905 -10.982496 34,000 58 451 0
2018-12-06 11:57:18 GMT 42.139664 -10.993819 34,000 58 451 0
2018-12-06 11:57:11 GMT 42.133595 -11.007087 34,000 58 452 0
2018-12-06 11:57:01 GMT 42.122093 -11.032190 34,000 58 451 0
2018-12-06 11:56:50 GMT 42.110783 -11.056717 34,025 58 451 0
2018-12-06 11:56:40 GMT 42.098969 -11.082334 34,000 58 450 0
2018-12-06 11:56:33 GMT 42.091644 -11.098251 34,025 58 450 0
2018-12-06 11:56:29 GMT 42.087708 -11.106803 34,025 58 450 0
2018-12-06 11:56:23 GMT 42.080658 -11.121972 34,025 58 450 0
2018-12-06 11:56:19 GMT 42.076172 -11.131710 34,025 58 450 0
2018-12-06 11:56:08 GMT 42.063995 -11.157990 34,000 58 449 0
2018-12-06 11:56:03 GMT 42.058456 -11.169966 34,000 58 449 0
2018-12-06 11:55:57 GMT 42.051891 -11.184210 34,000 58 449 0
2018-12-06 11:55:53 GMT 42.047012 -11.194756 34,000 58 449 0
2018-12-06 11:55:46 GMT 42.039974 -11.210015 34,000 58 448 0
2018-12-06 11:55:41 GMT 42.033875 -11.223096 34,025 58 448 0
2018-12-06 11:55:36 GMT 42.028748 -11.234207 34,025 58 448 0
2018-12-06 11:55:28 GMT 42.020611 -11.251788 34,025 58 448 0
2018-12-06 11:55:25 GMT 42.017303 -11.258989 34,025 58 447 0
2018-12-06 11:55:19 GMT 42.010788 -11.273059 34,000 58 447 0
2018-12-06 11:55:14 GMT 42.005295 -11.284811 34,000 58 447 0
2018-12-06 11:55:02 GMT 41.991898 -11.313671 34,000 58 447 0
2018-12-06 11:54:53 GMT 41.982101 -11.334645 34,000 58 447 0
2018-12-06 11:54:48 GMT 41.976570 -11.346514 34,000 57 448 0
2018-12-06 11:54:44 GMT 41.970753 -11.358969 34,000 57 448 0
2018-12-06 11:54:36 GMT 41.963562 -11.374408 34,000 58 449 0
2018-12-06 11:54:32 GMT 41.959396 -11.383396 34,000 58 449 0
2018-12-06 11:54:21 GMT 41.947010 -11.409940 34,000 58 449 0
2018-12-06 11:54:15 GMT 41.939983 -11.425015 34,000 58 449 0
2018-12-06 11:54:12 GMT 41.936646 -11.432211 34,000 58 449 0
2018-12-06 11:54:00 GMT 41.924377 -11.458428 34,000 58 450 -64
2018-12-06 11:53:54 GMT 41.917648 -11.472848 34,000 57 450 0
2018-12-06 11:53:50 GMT 41.913254 -11.482336 34,000 57 450 0
2018-12-06 11:53:38 GMT 41.900040 -11.510542 34,000 57 450 0
2018-12-06 11:53:28 GMT 41.888775 -11.534686 34,000 57 451 0
2018-12-06 11:53:18 GMT 41.877647 -11.558384 34,000 57 452 0
2018-12-06 11:53:08 GMT 41.866241 -11.582649 34,000 57 453 0
2018-12-06 11:53:01 GMT 41.858139 -11.600002 34,000 57 454 0
2018-12-06 11:52:58 GMT 41.854839 -11.606992 34,000 57 454 0
2018-12-06 11:52:47 GMT 41.842594 -11.633180 34,000 57 454 -64
2018-12-06 11:52:40 GMT 41.835659 -11.647935 34,000 57 456 0
2018-12-06 11:52:35 GMT 41.829208 -11.661613 34,000 57 454 -64
2018-12-06 11:52:25 GMT 41.818153 -11.685110 34,000 57 456 0
2018-12-06 11:52:15 GMT 41.806778 -11.709303 34,000 57 456 0
2018-12-06 11:52:05 GMT 41.795609 -11.732961 34,000 57 458 0
2018-12-06 11:51:56 GMT 41.785583 -11.754247 34,025 57 458 0
2018-12-06 11:51:52 GMT 41.781239 -11.763483 34,025 57 458 0
2018-12-06 11:51:43 GMT 41.770981 -11.785209 34,025 57 459 0
2018-12-06 11:51:32 GMT 41.758568 -11.811580 34,025 57 460 0
2018-12-06 11:51:26 GMT 41.751846 -11.825908 34,025 57 461 64
2018-12-06 11:51:22 GMT 41.747040 -11.836021 34,000 57 461 64
2018-12-06 11:51:11 GMT 41.734966 -11.861466 34,000 57 463 64
2018-12-06 11:51:00 GMT 41.722549 -11.887644 34,000 57 463 0
2018-12-06 11:50:53 GMT 41.713085 -11.907647 34,000 57 469 0
2018-12-06 11:50:50 GMT 41.710899 -11.912246 34,000 57 464 -64
2018-12-06 11:50:39 GMT 41.698189 -11.938817 34,000 57 465 0
2018-12-06 11:50:29 GMT 41.686600 -11.963089 34,000 57 466 0
2018-12-06 11:50:26 GMT 41.683105 -11.970307 34,000 57 466 0
2018-12-06 11:50:18 GMT 41.673798 -11.989725 34,025 57 467 0
2018-12-06 11:50:07 GMT 41.660980 -12.016608 34,025 57 468 64
2018-12-06 11:49:57 GMT 41.648750 -12.042101 34,000 57 469 64
2018-12-06 11:49:47 GMT 41.636765 -12.067171 34,000 57 471 0
2018-12-06 11:49:40 GMT 41.628502 -12.084450 34,000 57 473 0
2018-12-06 11:49:37 GMT 41.612045 -12.118981 34,000 57 472 0
2018-12-06 11:49:26 GMT 41.612045 -12.118981 34,000 57 474 0
2018-12-06 11:49:17 GMT 41.599182 -12.145885 34,000 57 476 0
2018-12-06 11:49:13 GMT 41.596802 -12.150816 34,000 57 475 0
2018-12-06 11:49:06 GMT 41.588608 -12.168170 34,000 57 476 -64
2018-12-06 11:48:56 GMT 41.576752 -12.193638 34,025 58 476 -64
2018-12-06 11:48:44 GMT 41.563522 -12.222415 34,025 57 476 128
2018-12-06 11:48:33 GMT 41.549316 -12.252311 34,000 57 478 128
2018-12-06 11:48:24 GMT 41.539818 -12.272495 34,000 62 478 0
2018-12-06 11:48:13 GMT 41.529297 -12.301302 34,000 72 477 0
2018-12-06 11:48:01 GMT 41.521362 -12.334088 34,000 77 476 0
2018-12-06 11:47:49 GMT 41.516739 -12.370356 34,000 84 474 64
2018-12-06 11:47:41 GMT 41.515961 -12.391579 34,025 99 465 448
2018-12-06 11:47:32 GMT 41.517654 -12.420481 34,000 99 468 -64
2018-12-06 11:47:18 GMT 41.522186 -12.457435 34,025 99 465 448
2018-12-06 11:47:09 GMT 41.525341 -12.482449 33,925 99 465 1024
2018-12-06 11:46:59 GMT 41.529144 -12.512804 33,725 99 465 1280
2018-12-06 11:46:48 GMT 41.533081 -12.544140 33,475 99 466 1472
2018-12-06 11:46:38 GMT 41.536606 -12.572383 33,225 99 468 1472
2018-12-06 11:46:26 GMT 41.540543 -12.604065 33,025 99 468 448
2018-12-06 11:46:16 GMT 41.543930 -12.632530 33,025 98 468 -64
2018-12-06 11:46:06 GMT 41.547089 -12.660994 33,025 98 468 -64
2018-12-06 11:45:55 GMT 41.550713 -12.694191 33,025 99 467 0
2018-12-06 11:45:43 GMT 41.554825 -12.727037 33,000 98 467 64
2018-12-06 11:45:34 GMT 41.556656 -12.755252 33,000 90 470 0
2018-12-06 11:45:24 GMT 41.555553 -12.781507 33,000 80 473 0
2018-12-06 11:45:13 GMT 41.550571 -12.812997 33,000 71 476 0
2018-12-06 11:45:01 GMT 41.539772 -12.847744 33,000 61 478 0
2018-12-06 11:44:53 GMT 41.530415 -12.868184 33,000 52 481 0
2018-12-06 11:44:38 GMT 41.508728 -12.900633 33,000 41 482 64
2018-12-06 11:44:31 GMT 41.494709 -12.915642 33,000 33 483 0
2018-12-06 11:44:21 GMT 41.476929 -12.929503 33,000 24 483 -128
2018-12-06 11:44:09 GMT 41.451557 -12.942150 33,000 15 483 0
2018-12-06 11:44:02 GMT 41.437031 -12.946941 33,000 11 483 0
2018-12-06 11:43:59 GMT 41.430000 -12.948793 33,000 9 482 0
2018-12-06 11:43:49 GMT 41.408775 -12.952370 33,000 2 480 -64
2018-12-06 11:43:26 GMT 41.356823 -12.949136 33,000 348 476 0
2018-12-06 11:43:17 GMT 41.335361 -12.942581 33,000 344 475 0
2018-12-06 11:43:06 GMT 41.315735 -12.933594 33,000 336 472 0
2018-12-06 11:42:54 GMT 41.292393 -12.918861 33,000 327 469 0
2018-12-06 11:42:43 GMT 41.270794 -12.900446 33,000 323 468 0
2018-12-06 11:42:35 GMT 41.257416 -12.886169 33,000 316 466 0
2018-12-06 11:42:24 GMT 41.240799 -12.864197 33,000 311 464 0
2018-12-06 11:42:14 GMT 41.226940 -12.841270 33,000 304 461 0
2018-12-06 11:42:02 GMT 41.214661 -12.814941 33,000 297 459 0
2018-12-06 11:41:52 GMT 41.205414 -12.788696 33,000 291 458 0
2018-12-06 11:41:40 GMT 41.197521 -12.755751 33,000 283 456 0
2018-12-06 11:41:32 GMT 41.194061 -12.731750 33,000 275 454 0
2018-12-06 11:41:20 GMT 41.192459 -12.701233 33,000 270 453 -64
2018-12-06 11:41:14 GMT 41.192825 -12.685425 33,000 266 452 -64
2018-12-06 11:41:10 GMT 41.193558 -12.673584 33,000 265 452 0
2018-12-06 11:41:02 GMT 41.195053 -12.652754 33,000 265 452 0
2018-12-06 11:40:56 GMT 41.196404 -12.634589 33,000 265 452 0
2018-12-06 11:40:52 GMT 41.197083 -12.624756 33,000 265 452 0
2018-12-06 11:40:48 GMT 41.197987 -12.612804 33,000 265 452 0
2018-12-06 11:40:39 GMT 41.200035 -12.584402 33,000 265 453 0
2018-12-06 11:40:31 GMT 41.201385 -12.565363 33,000 265 453 0
2018-12-06 11:40:28 GMT 41.202084 -12.555438 33,000 265 452 0
2018-12-06 11:40:22 GMT 41.203171 -12.540405 33,025 265 453 0
2018-12-06 11:40:15 GMT 41.204411 -12.522854 33,025 265 452 0
2018-12-06 11:40:05 GMT 41.206421 -12.494324 33,000 265 453 0
2018-12-06 11:39:55 GMT 41.208389 -12.467285 33,000 265 452 0
2018-12-06 11:39:45 GMT 41.210403 -12.438599 33,000 265 452 0
2018-12-06 11:39:37 GMT 41.211960 -12.416565 33,000 265 451 0
2018-12-06 11:39:34 GMT 41.212696 -12.405937 33,000 265 452 0
2018-12-06 11:39:22 GMT 41.214752 -12.376282 33,000 265 452 0
2018-12-06 11:39:13 GMT 41.216583 -12.350037 33,000 265 451 0
2018-12-06 11:39:03 GMT 41.218552 -12.322205 33,000 265 451 0
2018-12-06 11:38:59 GMT 41.219261 -12.312116 33,000 265 451 64
2018-12-06 11:38:51 GMT 41.220703 -12.291565 33,000 265 451 0
2018-12-06 11:38:41 GMT 41.222893 -12.259993 33,000 265 451 0
2018-12-06 11:38:34 GMT 41.224007 -12.243451 33,000 265 452 0
2018-12-06 11:38:27 GMT 41.225357 -12.224412 33,000 265 452 64
2018-12-06 11:38:20 GMT 41.226707 -12.204250 33,000 265 452 0
2018-12-06 11:38:17 GMT 41.227219 -12.197384 33,000 265 452 0
2018-12-06 11:38:09 GMT 41.228897 -12.172913 33,000 265 452 0
2018-12-06 11:38:06 GMT 41.229267 -12.167234 33,000 265 452 0
2018-12-06 11:37:59 GMT 41.230682 -12.146118 33,000 265 453 0
2018-12-06 11:37:56 GMT 41.231186 -12.138916 33,000 265 453 0
2018-12-06 11:37:43 GMT 41.233566 -12.104065 33,000 265 453 0
2018-12-06 11:37:38 GMT 41.234573 -12.089355 33,000 265 453 0
2018-12-06 11:37:34 GMT 41.235321 -12.078157 33,000 265 453 0
2018-12-06 11:37:25 GMT 41.237045 -12.052795 33,000 265 454 0
2018-12-06 11:37:15 GMT 41.238998 -12.024349 33,000 265 454 0
2018-12-06 11:37:04 GMT 41.240952 -11.995135 33,000 265 455 0
2018-12-06 11:36:54 GMT 41.242863 -11.965609 33,000 265 456 0
2018-12-06 11:36:41 GMT 41.245094 -11.931901 33,000 265 457 0
2018-12-06 11:36:31 GMT 41.247051 -11.902813 33,000 265 457 0
2018-12-06 11:36:22 GMT 41.248627 -11.878906 33,000 265 458 0
2018-12-06 11:36:07 GMT 41.251427 -11.836146 33,000 266 462 0
2018-12-06 11:35:56 GMT 41.253433 -11.805359 33,000 266 460 0
2018-12-06 11:35:51 GMT 41.254440 -11.789917 33,000 266 461 0
2018-12-06 11:35:39 GMT 41.256641 -11.755933 33,000 266 462 0
2018-12-06 11:35:30 GMT 41.258366 -11.730465 33,000 266 463 0
2018-12-06 11:35:18 GMT 41.260437 -11.698303 33,000 266 464 0
2018-12-06 11:35:11 GMT 41.261765 -11.677307 33,000 266 466 0
2018-12-06 11:35:05 GMT 41.262909 -11.659363 33,000 266 466 0
2018-12-06 11:34:53 GMT 41.265022 -11.626157 33,000 266 467 0
2018-12-06 11:34:43 GMT 41.266834 -11.597817 33,000 266 471 0
2018-12-06 11:34:32 GMT 41.268906 -11.564758 33,000 266 470 0
2018-12-06 11:34:23 GMT 41.270561 -11.539078 33,000 266 471 0
2018-12-06 11:34:10 GMT 41.273026 -11.499451 33,000 266 472 0
2018-12-06 11:34:01 GMT 41.274445 -11.476624 33,000 266 473 0
2018-12-06 11:33:54 GMT 41.275681 -11.456493 33,025 266 474 0
2018-12-06 11:33:49 GMT 41.276596 -11.441895 33,025 266 474 0
2018-12-06 11:33:44 GMT 41.277557 -11.425903 33,025 266 475 0
2018-12-06 11:33:33 GMT 41.279526 -11.393921 33,025 266 475 64
2018-12-06 11:33:29 GMT 41.280396 -11.380249 33,000 266 476 64
2018-12-06 11:33:20 GMT 41.281780 -11.357429 33,000 266 477 0
2018-12-06 11:33:08 GMT 41.283966 -11.321655 33,000 266 477 0
2018-12-06 11:32:57 GMT 41.285969 -11.288515 33,000 266 478 0
2018-12-06 11:32:41 GMT 41.288727 -11.242737 33,000 266 479 0
2018-12-06 11:32:36 GMT 41.289597 -11.228333 33,025 266 479 0
2018-12-06 11:32:27 GMT 41.291138 -11.203558 33,025 266 479 0
2018-12-06 11:32:16 GMT 41.293091 -11.171036 33,025 266 480 0
2018-12-06 11:32:06 GMT 41.294861 -11.141541 33,000 266 480 64
2018-12-06 11:32:01 GMT 41.295883 -11.123720 33,000 266 480 64
2018-12-06 11:31:56 GMT 41.296677 -11.110549 33,000 266 481 0
2018-12-06 11:31:49 GMT 41.298065 -11.087158 33,000 266 481 0
2018-12-06 11:31:43 GMT 41.299049 -11.070848 33,000 266 481 0
2018-12-06 11:31:39 GMT 41.299576 -11.061829 33,000 266 481 0
2018-12-06 11:31:33 GMT 41.300678 -11.042259 33,000 266 481 0
2018-12-06 11:31:29 GMT 41.301331 -11.031709 33,000 266 481 0
2018-12-06 11:31:22 GMT 41.302868 -11.005180 33,000 266 481 0
2018-12-06 11:31:19 GMT 41.303101 -11.000748 33,000 266 482 0
2018-12-06 11:31:12 GMT 41.304291 -10.979675 33,000 266 482 0
2018-12-06 11:31:09 GMT 41.304775 -10.971596 33,000 266 482 0
2018-12-06 11:31:00 GMT 41.306221 -10.946191 33,000 266 482 0
2018-12-06 11:30:57 GMT 41.306732 -10.937077 33,000 266 482 0
2018-12-06 11:30:54 GMT 41.307243 -10.928213 33,000 266 482 0
2018-12-06 11:30:49 GMT 41.308083 -10.914355 33,000 266 482 0
2018-12-06 11:30:43 GMT 41.309059 -10.897251 33,000 266 482 0
2018-12-06 11:30:38 GMT 41.310013 -10.880249 33,000 266 483 0
2018-12-06 11:30:33 GMT 41.310783 -10.866852 33,000 266 483 0
2018-12-06 11:30:28 GMT 41.311619 -10.852370 33,000 266 483 0
2018-12-06 11:30:19 GMT 41.313354 -10.822327 33,000 266 483 0
2018-12-06 11:30:07 GMT 41.315159 -10.790260 33,025 266 483 0
2018-12-06 11:30:01 GMT 41.316227 -10.770721 33,025 266 483 0
2018-12-06 11:29:57 GMT 41.316833 -10.760110 33,025 266 483 0
2018-12-06 11:29:49 GMT 41.318089 -10.737575 33,025 266 484 0
2018-12-06 11:29:46 GMT 41.318649 -10.727213 33,025 266 484 0
2018-12-06 11:29:42 GMT 41.319721 -10.708299 33,000 266 484 0
2018-12-06 11:29:35 GMT 41.320450 -10.695129 33,000 266 484 0
2018-12-06 11:29:32 GMT 41.320976 -10.685765 33,000 266 484 0
2018-12-06 11:29:29 GMT 41.321457 -10.676758 33,000 266 484 0
2018-12-06 11:29:23 GMT 41.322468 -10.658549 33,000 266 484 0
2018-12-06 11:29:19 GMT 41.323071 -10.647250 33,000 266 484 0
2018-12-06 11:29:14 GMT 41.323814 -10.633892 33,000 266 484 0
2018-12-06 11:29:09 GMT 41.324745 -10.617038 33,000 266 484 0
2018-12-06 11:29:02 GMT 41.325867 -10.596875 33,000 266 485 0
2018-12-06 11:28:58 GMT 41.326401 -10.586304 33,000 266 485 0
2018-12-06 11:28:54 GMT 41.327263 -10.570720 33,000 266 485 0
2018-12-06 11:28:48 GMT 41.328053 -10.555926 33,000 266 485 0
2018-12-06 11:28:40 GMT 41.329494 -10.529522 33,000 266 485 0
2018-12-06 11:28:37 GMT 41.329777 -10.524715 33,000 266 485 0
2018-12-06 11:28:30 GMT 41.330978 -10.501709 33,000 266 485 0
2018-12-06 11:28:27 GMT 41.331436 -10.493713 33,000 266 485 0
2018-12-06 11:28:19 GMT 41.332855 -10.467285 33,000 266 485 0
2018-12-06 11:28:11 GMT 41.334011 -10.445189 33,000 266 485 0
2018-12-06 11:28:07 GMT 41.334663 -10.433017 33,000 266 485 0
2018-12-06 11:28:01 GMT 41.335686 -10.413978 33,000 266 485 0
2018-12-06 11:27:56 GMT 41.336380 -10.400757 33,000 266 485 0
2018-12-06 11:27:50 GMT 41.337341 -10.382385 33,000 266 485 0
2018-12-06 11:27:45 GMT 41.338017 -10.369408 33,000 266 485 0
2018-12-06 11:27:39 GMT 41.339085 -10.349558 33,000 266 485 0
2018-12-06 11:27:32 GMT 41.340481 -10.322779 33,025 266 485 0
2018-12-06 11:27:28 GMT 41.341179 -10.309733 33,025 266 485 0
2018-12-06 11:27:25 GMT 41.341179 -10.309733 33,025 266 485 0
2018-12-06 11:27:21 GMT 41.341927 -10.295812 33,025 267 485 0
2018-12-06 11:27:15 GMT 41.342789 -10.278992 33,025 267 485 0
2018-12-06 11:27:10 GMT 41.343704 -10.261475 33,000 267 485 0
2018-12-06 11:27:07 GMT 41.344070 -10.254333 33,000 267 485 0
2018-12-06 11:27:04 GMT 41.344391 -10.248108 33,000 267 485 0
2018-12-06 11:26:59 GMT 41.345139 -10.233140 33,000 267 485 0
2018-12-06 11:26:56 GMT 41.345718 -10.221680 33,000 267 485 0
2018-12-06 11:26:52 GMT 41.346176 -10.212463 33,000 267 485 0
2018-12-06 11:26:49 GMT 41.346725 -10.202087 33,000 267 485 0
2018-12-06 11:26:43 GMT 41.347652 -10.183827 33,000 267 485 0
2018-12-06 11:26:38 GMT 41.348419 -10.168762 33,000 267 485 0
2018-12-06 11:26:32 GMT 41.349236 -10.153177 33,000 267 485 0
2018-12-06 11:26:28 GMT 41.349884 -10.140259 33,000 267 485 0
2018-12-06 11:26:21 GMT 41.350864 -10.120468 33,000 267 485 0
2018-12-06 11:26:18 GMT 41.351421 -10.109482 33,000 267 486 0
2018-12-06 11:26:11 GMT 41.352352 -10.090755 33,000 267 486 0
2018-12-06 11:26:08 GMT 41.352913 -10.079769 33,000 267 486 0
2018-12-06 11:26:00 GMT 41.354050 -10.056091 33,000 267 486 0
2018-12-06 11:25:51 GMT 41.355984 -10.017846 33,000 267 486 0
2018-12-06 11:25:46 GMT 41.356293 -10.011780 33,000 267 486 0
2018-12-06 11:25:40 GMT 41.356960 -9.997933 33,000 267 486 0
2018-12-06 11:25:37 GMT 41.357437 -9.987976 33,000 267 486 0
2018-12-06 11:25:29 GMT 41.358582 -9.964722 33,000 267 486 0
2018-12-06 11:25:26 GMT 41.359039 -9.955811 33,000 267 486 0
2018-12-06 11:25:22 GMT 41.359661 -9.942565 33,000 267 486 0
2018-12-06 11:25:19 GMT 41.360001 -9.935852 33,000 267 485 0
2018-12-06 11:25:15 GMT 41.360592 -9.923214 33,000 267 485 0
2018-12-06 11:25:09 GMT 41.361568 -9.903551 33,000 267 485 0
2018-12-06 11:25:06 GMT 41.361988 -9.894312 33,000 267 486 0
2018-12-06 11:24:55 GMT 41.364132 -9.849867 33,000 267 486 0
2018-12-06 11:24:48 GMT 41.364578 -9.841370 33,000 267 486 0
2018-12-06 11:24:45 GMT 41.365013 -9.832327 33,025 267 486 0
2018-12-06 11:24:38 GMT 41.366131 -9.808731 33,000 267 486 0
2018-12-06 11:24:35 GMT 41.366550 -9.800117 33,000 267 486 0
2018-12-06 11:24:28 GMT 41.367481 -9.780079 33,000 267 486 0
2018-12-06 11:24:24 GMT 41.368011 -9.769531 33,000 267 486 0
2018-12-06 11:24:19 GMT 41.368599 -9.756546 33,000 267 487 0
2018-12-06 11:24:14 GMT 41.369385 -9.739624 33,000 267 487 0
2018-12-06 11:24:05 GMT 41.370647 -9.713787 33,000 267 487 0
2018-12-06 11:24:02 GMT 41.370987 -9.706482 33,000 267 487 0
2018-12-06 11:23:55 GMT 41.372131 -9.681030 33,000 267 487 0
2018-12-06 11:23:52 GMT 41.372372 -9.676396 33,000 267 487 0
2018-12-06 11:23:42 GMT 41.373734 -9.646667 33,025 267 488 0
2018-12-06 11:23:34 GMT 41.374931 -9.621090 33,025 267 488 0
2018-12-06 11:23:29 GMT 41.376049 -9.597119 33,025 267 488 0
2018-12-06 11:23:22 GMT 41.376606 -9.584822 33,025 267 488 0
2018-12-06 11:23:15 GMT 41.377579 -9.563721 33,000 267 488 0
2018-12-06 11:23:12 GMT 41.378036 -9.553833 33,000 267 488 0
2018-12-06 11:23:01 GMT 41.379456 -9.521729 33,000 267 488 0
2018-12-06 11:22:48 GMT 41.381607 -9.474365 33,000 267 488 0
2018-12-06 11:22:41 GMT 41.382286 -9.458604 33,000 267 489 0
2018-12-06 11:22:35 GMT 41.382980 -9.443176 33,000 267 489 0
2018-12-06 11:22:29 GMT 41.383667 -9.427551 33,000 267 489 0
2018-12-06 11:22:19 GMT 41.385086 -9.395752 33,000 267 489 0
2018-12-06 11:22:06 GMT 41.387127 -9.348471 33,000 267 489 0
2018-12-06 11:21:58 GMT 41.387871 -9.331992 33,000 267 489 0
2018-12-06 11:21:50 GMT 41.388977 -9.306606 33,000 267 489 0
2018-12-06 11:21:39 GMT 41.390339 -9.275271 33,000 267 489 0
2018-12-06 11:21:36 GMT 41.390713 -9.266265 33,000 267 489 0
2018-12-06 11:21:28 GMT 41.391830 -9.240716 33,000 267 489 0
2018-12-06 11:21:24 GMT 41.392593 -9.222523 33,000 267 489 0
2018-12-06 11:21:17 GMT 41.393097 -9.210538 33,000 267 489 0
2018-12-06 11:21:14 GMT 41.393509 -9.201237 33,000 267 489 0
2018-12-06 11:21:06 GMT 41.394516 -9.177204 33,025 267 489 0
2018-12-06 11:21:03 GMT 41.394855 -9.168666 33,025 267 489 0
2018-12-06 11:20:55 GMT 41.395935 -9.143621 33,000 267 488 64
2018-12-06 11:20:52 GMT 41.396252 -9.136537 33,000 267 488 0
2018-12-06 11:20:45 GMT 41.397182 -9.113798 33,000 267 488 0
2018-12-06 11:20:41 GMT 41.397648 -9.102109 33,000 267 488 0
2018-12-06 11:20:35 GMT 41.398392 -9.083522 33,000 267 488 0
2018-12-06 11:20:31 GMT 41.398819 -9.073459 33,025 267 488 0
2018-12-06 11:20:24 GMT 41.399696 -9.052351 33,025 267 488 0
2018-12-06 11:20:20 GMT 41.400208 -9.039449 33,000 267 488 0
2018-12-06 11:20:14 GMT 41.401001 -9.020286 33,000 267 488 0
2018-12-06 11:20:10 GMT 41.401474 -9.007853 33,000 267 488 -64
2018-12-06 11:20:04 GMT 41.402302 -8.987008 33,000 267 488 0
2018-12-06 11:19:59 GMT 41.402817 -8.975064 33,000 267 487 0
2018-12-06 11:19:54 GMT 41.403465 -8.959159 33,000 267 487 0
2018-12-06 11:19:49 GMT 41.403980 -8.945745 33,025 267 487 0
2018-12-06 11:19:44 GMT 41.404633 -8.930480 33,025 267 487 0
2018-12-06 11:19:38 GMT 41.405319 -8.912971 33,000 267 487 0
2018-12-06 11:19:34 GMT 41.405823 -8.900674 33,000 268 487 0
2018-12-06 11:19:31 GMT 41.406235 -8.890499 33,000 268 487 0
2018-12-06 11:19:27 GMT 41.406631 -8.880211 33,000 268 487 0
2018-12-06 11:19:22 GMT 41.407562 -8.856166 33,000 267 487 -64
2018-12-06 11:19:16 GMT 41.407883 -8.848364 33,000 267 487 0
2018-12-06 11:19:11 GMT 41.408588 -8.830261 33,025 267 487 0
2018-12-06 11:19:05 GMT 41.409191 -8.815315 33,000 268 487 0
2018-12-06 11:19:02 GMT 41.409576 -8.804731 33,000 268 487 0
2018-12-06 11:18:57 GMT 41.410126 -8.791426 33,025 268 486 0
2018-12-06 11:18:52 GMT 41.410870 -8.772008 33,025 268 486 -64
2018-12-06 11:18:48 GMT 41.411335 -8.759425 33,000 268 486 0
2018-12-06 11:18:41 GMT 41.411911 -8.744368 33,025 268 486 0
2018-12-06 11:18:38 GMT 41.412266 -8.735281 33,000 268 486 64
2018-12-06 11:18:34 GMT 41.412781 -8.721085 33,000 268 486 64
2018-12-06 11:18:30 GMT 41.413147 -8.711534 33,000 268 486 64
2018-12-06 11:18:26 GMT 41.413662 -8.698234 33,000 267 486 0
2018-12-06 11:18:22 GMT 41.414200 -8.685254 33,000 267 486 0
2018-12-06 11:18:19 GMT 41.414547 -8.675814 33,000 268 486 0
2018-12-06 11:18:16 GMT 41.414841 -8.668525 33,000 268 486 0
2018-12-06 11:18:10 GMT 41.415524 -8.650137 33,000 268 486 0
2018-12-06 11:18:06 GMT 41.416031 -8.636565 33,000 268 486 0
2018-12-06 11:18:02 GMT 41.416504 -8.624140 33,000 268 486 0
2018-12-06 11:17:57 GMT 41.417084 -8.608225 33,000 268 486 0
2018-12-06 11:17:54 GMT 41.417618 -8.594630 33,000 268 486 0
2018-12-06 11:17:49 GMT 41.417816 -8.588187 33,000 268 486 0
2018-12-06 11:17:45 GMT 41.418320 -8.575641 33,000 268 486 0
2018-12-06 11:17:38 GMT 41.419052 -8.555104 33,000 268 486 0
2018-12-06 11:17:35 GMT 41.419327 -8.546989 33,000 268 486 0
2018-12-06 11:17:28 GMT 41.420059 -8.526452 33,000 268 486 -64
2018-12-06 11:17:24 GMT 41.420506 -8.514340 33,000 268 486 -64
2018-12-06 11:17:13 GMT 41.422119 -8.469710 33,000 268 486 0
2018-12-06 11:17:08 GMT 41.422394 -8.461970 33,000 268 486 0
2018-12-06 11:17:03 GMT 41.422760 -8.452169 33,000 268 485 0
2018-12-06 11:16:57 GMT 41.423584 -8.428886 33,000 268 485 0
2018-12-06 11:16:53 GMT 41.423859 -8.421457 33,000 268 485 0
2018-12-06 11:16:46 GMT 41.424557 -8.401283 33,000 268 486 0
2018-12-06 11:16:43 GMT 41.424927 -8.390553 33,000 268 486 0
2018-12-06 11:16:36 GMT 41.425674 -8.369410 33,000 268 486 -64
2018-12-06 11:16:30 GMT 41.426556 -8.343733 33,025 268 485 0
2018-12-06 11:16:24 GMT 41.426971 -8.331944 33,000 268 485 0
2018-12-06 11:16:15 GMT 41.427841 -8.306600 33,025 268 485 0
2018-12-06 11:16:11 GMT 41.428280 -8.294550 33,000 268 485 0
2018-12-06 11:16:06 GMT 41.428745 -8.279923 33,025 268 485 0
2018-12-06 11:16:01 GMT 41.429260 -8.265776 33,000 268 485 0
2018-12-06 11:15:58 GMT 41.429581 -8.256538 33,000 268 485 0
2018-12-06 11:15:54 GMT 41.430000 -8.244153 33,000 268 485 0
2018-12-06 11:15:50 GMT 41.430405 -8.231756 33,000 268 485 64
2018-12-06 11:15:43 GMT 41.431046 -8.212967 33,000 268 485 0
2018-12-06 11:15:39 GMT 41.431549 -8.198984 33,000 268 485 0
2018-12-06 11:15:35 GMT 41.431911 -8.186922 33,000 268 485 0
2018-12-06 11:15:28 GMT 41.432510 -8.168834 33,000 268 485 0
2018-12-06 11:15:24 GMT 41.432980 -8.155624 33,000 268 485 -64
2018-12-06 11:15:18 GMT 41.433655 -8.136063 33,000 268 485 0
2018-12-06 11:15:14 GMT 41.434021 -8.124452 33,000 268 485 0
2018-12-06 11:15:11 GMT 41.434284 -8.116853 33,000 268 485 0
2018-12-06 11:15:07 GMT 41.434750 -8.103758 33,025 268 485 0
2018-12-06 11:15:01 GMT 41.435310 -8.087087 33,000 268 485 0
2018-12-06 11:14:56 GMT 41.435776 -8.072141 33,000 268 485 0
2018-12-06 11:14:51 GMT 41.436264 -8.056786 33,000 268 485 0
2018-12-06 11:14:44 GMT 41.436844 -8.037266 33,000 268 485 0
2018-12-06 11:14:40 GMT 41.437218 -8.025640 33,000 268 485 0
2018-12-06 11:14:36 GMT 41.437637 -8.012227 33,000 268 485 0
2018-12-06 11:14:32 GMT 41.437962 -8.001432 33,000 268 485 0
2018-12-06 11:14:29 GMT 41.438290 -7.992490 33,000 268 485 -64
2018-12-06 11:14:25 GMT 41.438660 -7.980290 33,000 268 485 -64
2018-12-06 11:14:22 GMT 41.439034 -7.969559 33,000 268 485 -64
2018-12-06 11:14:19 GMT 41.439220 -7.962661 33,025 268 485 0
2018-12-06 11:14:15 GMT 41.439686 -7.949247 33,000 268 485 -64
2018-12-06 11:14:12 GMT 41.439972 -7.939557 33,025 268 485 0
2018-12-06 11:14:08 GMT 41.440338 -7.928259 33,025 268 485 0
2018-12-06 11:14:05 GMT 41.440662 -7.918268 33,025 268 485 0
2018-12-06 11:14:02 GMT 41.440979 -7.907347 33,025 268 485 0
2018-12-06 11:13:59 GMT 41.441174 -7.901278 33,025 268 485 0
2018-12-06 11:13:54 GMT 41.441666 -7.885936 33,000 268 485 0
2018-12-06 11:13:51 GMT 41.441917 -7.876814 33,025 268 486 0
2018-12-06 11:13:47 GMT 41.442200 -7.867872 33,000 268 486 0
2018-12-06 11:13:44 GMT 41.442619 -7.853819 33,000 268 486 0
2018-12-06 11:13:41 GMT 41.442902 -7.845612 33,000 268 486 0
2018-12-06 11:13:38 GMT 41.443085 -7.839369 33,000 268 486 0
2018-12-06 11:13:30 GMT 41.443829 -7.814409 33,000 268 486 0
2018-12-06 11:13:26 GMT 41.444199 -7.802465 33,000 268 486 0
2018-12-06 11:13:22 GMT 41.444550 -7.790992 33,000 268 486 0
2018-12-06 11:13:19 GMT 41.444759 -7.783047 33,000 268 486 -64
2018-12-06 11:13:16 GMT 41.445053 -7.772765 33,000 268 486 -64
2018-12-06 11:13:12 GMT 41.445503 -7.757625 33,025 268 486 -64
2018-12-06 11:13:08 GMT 41.445782 -7.748683 33,025 268 486 0
2018-12-06 11:13:05 GMT 41.446014 -7.739868 33,025 268 486 0
2018-12-06 11:12:58 GMT 41.446621 -7.719109 33,000 268 487 64
2018-12-06 11:12:54 GMT 41.446995 -7.707101 33,000 268 487 0
2018-12-06 11:12:47 GMT 41.447571 -7.686372 33,000 268 487 0
2018-12-06 11:12:43 GMT 41.447880 -7.675419 33,000 268 487 0
2018-12-06 11:12:40 GMT 41.448257 -7.663026 33,000 268 487 0
2018-12-06 11:12:37 GMT 41.448395 -7.657034 33,000 268 487 0
2018-12-06 11:12:31 GMT 41.448944 -7.639368 33,000 268 487 0
2018-12-06 11:12:27 GMT 41.449322 -7.626109 33,000 268 487 0
2018-12-06 11:12:22 GMT 41.449814 -7.609156 33,000 268 487 64
2018-12-06 11:12:16 GMT 41.450253 -7.593788 33,000 268 487 64
2018-12-06 11:12:11 GMT 41.450718 -7.577628 33,000 268 487 0
2018-12-06 11:12:06 GMT 41.451138 -7.562362 33,000 268 487 0
2018-12-06 11:12:01 GMT 41.451557 -7.547671 33,000 268 487 64
2018-12-06 11:11:58 GMT 41.451836 -7.537515 33,000 268 487 64
2018-12-06 11:11:55 GMT 41.452057 -7.529879 33,000 268 487 0
2018-12-06 11:11:51 GMT 41.452438 -7.516245 33,000 268 488 -64
2018-12-06 11:11:45 GMT 41.452927 -7.499293 33,000 269 488 -64
2018-12-06 11:11:40 GMT 41.453232 -7.487183 33,000 269 488 -64
2018-12-06 11:11:34 GMT 41.453705 -7.468393 33,000 268 488 -64
2018-12-06 11:11:26 GMT 41.454391 -7.444985 33,000 268 489 64
2018-12-06 11:11:23 GMT 41.454575 -7.436870 33,000 268 489 0
2018-12-06 11:11:15 GMT 41.455280 -7.412386 33,000 268 489 -64
2018-12-06 11:11:12 GMT 41.455536 -7.403537 33,000 269 489 -64
2018-12-06 11:11:09 GMT 41.455837 -7.391372 33,000 269 490 0
2018-12-06 11:11:06 GMT 41.456085 -7.382438 33,000 269 490 -64
2018-12-06 11:11:03 GMT 41.456352 -7.371762 33,025 268 490 0
2018-12-06 11:10:56 GMT 41.456909 -7.351897 33,000 269 491 64
2018-12-06 11:10:51 GMT 41.457184 -7.340303 33,000 269 491 0
2018-12-06 11:10:47 GMT 41.457458 -7.328505 33,000 269 491 -64
2018-12-06 11:10:44 GMT 41.457962 -7.309529 33,025 268 491 64
2018-12-06 11:10:41 GMT 41.457962 -7.309529 33,000 269 491 0
2018-12-06 11:10:34 GMT 41.458557 -7.286869 33,000 269 491 0
2018-12-06 11:10:30 GMT 41.458878 -7.276008 33,000 269 491 0
2018-12-06 11:10:25 GMT 41.459332 -7.256789 33,025 269 491 0
2018-12-06 11:10:20 GMT 41.459656 -7.245036 33,000 269 491 0
2018-12-06 11:10:17 GMT 41.459888 -7.235327 33,000 269 492 0
2018-12-06 11:10:13 GMT 41.460167 -7.223255 33,000 269 492 0
2018-12-06 11:10:10 GMT 41.460495 -7.210864 33,000 269 492 0
2018-12-06 11:10:06 GMT 41.460663 -7.204659 33,000 269 492 0
2018-12-06 11:10:03 GMT 41.460938 -7.192924 33,000 269 492 0
2018-12-06 11:09:58 GMT 41.461285 -7.177649 33,000 269 492 0
2018-12-06 11:09:53 GMT 41.461658 -7.162511 33,000 269 492 0
2018-12-06 11:09:48 GMT 41.461983 -7.148012 33,000 269 492 0
2018-12-06 11:09:43 GMT 41.462357 -7.132299 33,025 269 492 0
2018-12-06 11:09:38 GMT 41.462776 -7.115117 33,025 269 492 0
2018-12-06 11:09:35 GMT 41.462906 -7.109215 33,025 269 492 0
2018-12-06 11:09:32 GMT 41.463135 -7.100164 33,025 269 492 0
2018-12-06 11:09:27 GMT 41.463520 -7.084265 33,025 269 492 0
2018-12-06 11:09:23 GMT 41.463776 -7.074446 33,025 269 492 0
2018-12-06 11:09:20 GMT 41.464005 -7.065083 33,025 269 491 0
2018-12-06 11:09:16 GMT 41.464325 -7.049352 33,025 269 491 0
2018-12-06 11:09:13 GMT 41.464497 -7.042875 33,025 269 491 0
2018-12-06 11:09:08 GMT 41.464828 -7.027942 33,000 269 491 0
2018-12-06 11:09:03 GMT 41.465195 -7.012835 33,025 269 491 0
2018-12-06 11:08:56 GMT 41.465660 -6.991840 33,000 269 491 0
2018-12-06 11:08:53 GMT 41.465893 -6.982450 33,000 269 491 0
2018-12-06 11:08:48 GMT 41.466293 -6.964208 33,000 269 491 0
2018-12-06 11:08:45 GMT 41.466499 -6.955623 33,000 269 491 0
2018-12-06 11:08:42 GMT 41.466640 -6.949555 33,000 269 491 0
2018-12-06 11:08:37 GMT 41.467026 -6.931312 33,025 269 491 -64
2018-12-06 11:08:32 GMT 41.467522 -6.908165 33,025 269 491 -64
2018-12-06 11:08:24 GMT 41.467758 -6.896293 33,025 269 491 64
2018-12-06 11:08:21 GMT 41.467987 -6.886930 33,000 269 491 64
2018-12-06 11:08:13 GMT 41.468735 -6.853872 33,000 269 491 64
2018-12-06 11:08:05 GMT 41.469040 -6.838615 33,000 269 491 0
2018-12-06 11:08:02 GMT 41.469246 -6.827875 33,000 269 491 0
2018-12-06 11:07:56 GMT 41.469818 -6.800849 33,000 269 491 0
2018-12-06 11:07:50 GMT 41.470177 -6.781950 33,000 269 491 0
2018-12-06 11:07:44 GMT 41.470364 -6.773518 33,000 269 491 -64
2018-12-06 11:07:40 GMT 41.470596 -6.763235 33,000 269 491 -64
2018-12-06 11:07:31 GMT 41.471237 -6.733183 33,025 269 491 0
2018-12-06 11:07:20 GMT 41.471924 -6.701473 33,000 269 491 64
2018-12-06 11:07:08 GMT 41.472931 -6.653408 33,000 269 491 0
2018-12-06 11:06:58 GMT 41.473343 -6.634119 33,000 269 491 0
2018-12-06 11:06:51 GMT 41.473808 -6.613067 33,025 269 491 0
2018-12-06 11:06:48 GMT 41.474030 -6.604156 33,000 269 491 0
2018-12-06 11:06:41 GMT 41.474716 -6.572446 33,000 269 491 0
2018-12-06 11:06:37 GMT 41.474716 -6.572446 33,000 269 491 0
2018-12-06 11:06:30 GMT 41.475250 -6.549959 33,000 269 491 0
2018-12-06 11:06:25 GMT 41.475769 -6.527127 33,000 269 491 0
2018-12-06 11:06:20 GMT 41.475952 -6.519325 33,000 269 491 0
2018-12-06 11:06:12 GMT 41.476879 -6.482892 33,000 268 491 0
2018-12-06 11:06:06 GMT 41.477066 -6.475610 33,000 268 491 0
2018-12-06 11:05:58 GMT 41.477673 -6.454212 33,025 268 491 -64
2018-12-06 11:05:55 GMT 41.478012 -6.443481 33,025 269 491 0
2018-12-06 11:05:48 GMT 41.478516 -6.423257 33,025 269 491 64
2018-12-06 11:05:45 GMT 41.478699 -6.411771 33,000 269 491 0
2018-12-06 11:05:38 GMT 41.478973 -6.393044 33,000 269 491 0
2018-12-06 11:05:33 GMT 41.479202 -6.378250 33,025 268 490 0
2018-12-06 11:05:26 GMT 41.480000 -6.356932 33,000 266 490 64
2018-12-06 11:05:23 GMT 41.480465 -6.348501 33,025 266 490 64
2018-12-06 11:05:17 GMT 41.481674 -6.330744 33,000 263 490 0
2018-12-06 11:05:12 GMT 41.483166 -6.313945 33,000 263 491 -64
2018-12-06 11:05:06 GMT 41.485016 -6.296477 33,025 261 490 0
2018-12-06 11:05:01 GMT 41.487808 -6.274754 33,000 260 490 64
2018-12-06 11:04:57 GMT 41.488705 -6.268403 33,000 259 490 0
2018-12-06 11:04:51 GMT 41.491241 -6.251970 33,000 258 491 0
2018-12-06 11:04:45 GMT 41.494125 -6.235802 33,000 255 491 0
2018-12-06 11:04:35 GMT 41.504673 -6.188433 33,000 253 491 0
2018-12-06 11:04:29 GMT 41.504673 -6.188433 33,000 253 491 0
2018-12-06 11:04:23 GMT 41.510834 -6.162331 33,000 253 491 -64
2018-12-06 11:04:20 GMT 41.513283 -6.151833 33,000 253 491 0
2018-12-06 11:04:13 GMT 41.515182 -6.143917 33,000 253 491 0
2018-12-06 11:04:10 GMT 41.518032 -6.131649 33,000 253 491 0
2018-12-06 11:04:04 GMT 41.522507 -6.112768 33,000 253 491 0
2018-12-06 11:03:59 GMT 41.525154 -6.101372 33,000 253 491 0
2018-12-06 11:03:52 GMT 41.529575 -6.082593 33,000 253 491 0
2018-12-06 11:03:49 GMT 41.532394 -6.070633 33,000 253 491 0
2018-12-06 11:03:42 GMT 41.536140 -6.054617 33,000 253 491 -64
2018-12-06 11:03:38 GMT 41.539448 -6.040437 33,000 253 491 0
2018-12-06 11:03:32 GMT 41.543262 -6.024276 33,000 253 491 0
2018-12-06 11:03:26 GMT 41.547222 -6.007222 33,000 253 492 64
2018-12-06 11:03:22 GMT 41.550201 -5.994511 33,000 253 492 64
2018-12-06 11:03:16 GMT 41.553970 -5.978287 33,000 253 491 0
2018-12-06 11:03:11 GMT 41.557068 -5.964827 33,000 253 491 0
2018-12-06 11:03:05 GMT 41.561188 -5.947224 33,000 253 492 -64
2018-12-06 11:03:00 GMT 41.564400 -5.933448 33,025 253 492 -64
2018-12-06 11:02:53 GMT 41.569336 -5.912143 33,025 253 491 0
2018-12-06 11:02:49 GMT 41.572128 -5.900033 33,025 253 491 0
2018-12-06 11:02:39 GMT 41.578457 -5.872640 33,000 253 492 0
2018-12-06 11:02:30 GMT 41.584881 -5.844790 33,000 253 492 0
2018-12-06 11:02:18 GMT 41.592842 -5.809979 33,000 253 492 0
2018-12-06 11:02:08 GMT 41.599640 -5.780619 33,025 253 492 0
2018-12-06 11:01:57 GMT 41.606667 -5.750001 33,000 253 492 0
2018-12-06 11:01:47 GMT 41.613190 -5.721692 33,000 253 492 0
2018-12-06 11:01:36 GMT 41.620914 -5.688874 33,025 253 492 0
2018-12-06 11:01:27 GMT 41.628082 -5.658789 33,000 253 493 0
2018-12-06 11:01:14 GMT 41.635902 -5.625766 33,000 253 492 0
2018-12-06 11:01:04 GMT 41.643677 -5.593063 33,000 253 492 0
2018-12-06 11:00:55 GMT 41.649311 -5.569366 33,000 253 492 0
2018-12-06 11:00:48 GMT 41.654114 -5.549219 33,000 253 492 0
2018-12-06 11:00:43 GMT 41.657593 -5.534488 33,000 253 492 0
2018-12-06 11:00:34 GMT 41.663910 -5.507833 33,000 253 493 0
2018-12-06 11:00:23 GMT 41.671467 -5.476110 33,000 253 493 0
2018-12-06 11:00:17 GMT 41.674961 -5.461355 33,025 253 493 0
2018-12-06 11:00:09 GMT 41.681057 -5.435614 33,000 253 493 0
2018-12-06 11:00:02 GMT 41.686615 -5.412265 33,025 253 493 0
2018-12-06 10:59:57 GMT 41.690186 -5.397159 33,000 253 493 0
2018-12-06 10:59:46 GMT 41.700378 -5.354110 33,000 253 492 0
2018-12-06 10:59:42 GMT 41.700378 -5.354110 33,000 253 493 0
2018-12-06 10:59:30 GMT 41.707352 -5.324749 33,025 253 493 0
2018-12-06 10:59:20 GMT 41.714905 -5.292851 33,025 253 492 0
2018-12-06 10:59:15 GMT 41.718155 -5.279243 33,025 253 492 0
2018-12-06 10:59:10 GMT 41.721451 -5.265323 33,025 253 492 0
2018-12-06 10:58:59 GMT 41.728680 -5.234794 33,000 253 492 0
2018-12-06 10:58:51 GMT 41.734360 -5.210890 33,000 253 492 0
2018-12-06 10:58:47 GMT 41.737202 -5.198897 33,000 253 492 0
2018-12-06 10:58:37 GMT 41.744385 -5.168630 33,000 253 492 0
2018-12-06 10:58:31 GMT 41.748047 -5.153275 33,000 253 491 0
2018-12-06 10:58:27 GMT 41.752098 -5.136045 33,000 253 491 0
2018-12-06 10:58:14 GMT 41.761002 -5.098218 33,000 253 491 0
2018-12-06 10:58:08 GMT 41.763783 -5.086542 33,000 253 491 0
2018-12-06 10:58:03 GMT 41.767776 -5.069566 33,000 253 491 0
2018-12-06 10:57:57 GMT 41.771137 -5.055180 33,000 253 491 0
2018-12-06 10:57:54 GMT 41.774323 -5.041726 33,000 253 492 0
2018-12-06 10:57:51 GMT 41.775375 -5.037107 33,000 253 492 0
2018-12-06 10:57:40 GMT 41.782543 -5.006508 33,000 253 492 0
2018-12-06 10:57:33 GMT 41.789108 -4.978180 33,000 253 492 0
2018-12-06 10:57:29 GMT 41.790619 -4.971813 33,000 253 491 0
2018-12-06 10:57:21 GMT 41.797066 -4.943784 33,025 253 491 0
2018-12-06 10:57:10 GMT 41.804703 -4.910378 33,000 254 491 0
2018-12-06 10:57:05 GMT 41.806099 -4.904246 33,025 254 490 0
2018-12-06 10:56:59 GMT 41.809891 -4.887231 33,000 254 491 0
2018-12-06 10:56:48 GMT 41.818386 -4.848995 33,000 254 490 0
2018-12-06 10:56:37 GMT 41.825558 -4.816036 33,000 254 491 0
2018-12-06 10:56:24 GMT 41.834400 -4.774582 33,000 255 491 0
2018-12-06 10:56:14 GMT 41.838593 -4.754397 33,000 255 491 0
2018-12-06 10:56:04 GMT 41.846272 -4.717542 33,025 255 490 -64
2018-12-06 10:55:52 GMT 41.853069 -4.684455 33,025 255 490 -64
2018-12-06 10:55:40 GMT 41.860332 -4.648750 33,025 255 490 128
2018-12-06 10:55:26 GMT 41.867798 -4.614757 33,000 251 490 -64
2018-12-06 10:55:19 GMT 41.875854 -4.586667 33,000 247 491 0
2018-12-06 10:55:09 GMT 41.882397 -4.566352 33,000 247 492 0
2018-12-06 10:55:05 GMT 41.885834 -4.555581 33,000 247 492 0
2018-12-06 10:54:56 GMT 41.895035 -4.527054 33,000 247 492 0
2018-12-06 10:54:52 GMT 41.897526 -4.519341 33,000 247 492 0
2018-12-06 10:54:44 GMT 41.904831 -4.496592 33,000 247 491 0
2018-12-06 10:54:33 GMT 41.914799 -4.465368 33,000 247 491 0
2018-12-06 10:54:24 GMT 41.923828 -4.437071 33,025 248 492 0
2018-12-06 10:54:21 GMT 41.925659 -4.431360 33,025 248 492 0
2018-12-06 10:54:14 GMT 41.933975 -4.405134 33,000 248 492 0
2018-12-06 10:54:04 GMT 41.941452 -4.381423 33,000 248 491 0
2018-12-06 10:53:52 GMT 41.950699 -4.351959 33,000 248 491 0
2018-12-06 10:53:39 GMT 41.963398 -4.311367 33,000 248 491 0
2018-12-06 10:53:31 GMT 41.969776 -4.290800 33,000 248 491 0
2018-12-06 10:53:28 GMT 41.972672 -4.281360 33,000 248 491 0
2018-12-06 10:53:18 GMT 41.981827 -4.251834 33,000 248 491 0
2018-12-06 10:53:03 GMT 41.995518 -4.207508 33,025 248 491 0
2018-12-06 10:52:55 GMT 42.001785 -4.187102 33,000 248 491 64
2018-12-06 10:52:43 GMT 42.011902 -4.154767 33,000 247 491 0
2018-12-06 10:52:37 GMT 42.017120 -4.139035 33,000 246 492 0
2018-12-06 10:52:33 GMT 42.023029 -4.122173 33,000 245 492 0
2018-12-06 10:52:28 GMT 42.026058 -4.113613 33,000 245 492 0
2018-12-06 10:52:20 GMT 42.035599 -4.086595 33,000 245 492 0
2018-12-06 10:52:09 GMT 42.045841 -4.057596 33,000 245 492 0
2018-12-06 10:52:01 GMT 42.054127 -4.034154 33,000 245 492 0
2018-12-06 10:51:53 GMT 42.060925 -4.014800 33,000 245 492 0
2018-12-06 10:51:48 GMT 42.065392 -4.002089 33,000 245 492 0
2018-12-06 10:51:43 GMT 42.069771 -3.989698 33,025 245 492 0
2018-12-06 10:51:35 GMT 42.076984 -3.969258 33,000 245 492 0
2018-12-06 10:51:25 GMT 42.088203 -3.937513 33,025 245 492 0
2018-12-06 10:51:14 GMT 42.097183 -3.911944 33,025 245 492 64
2018-12-06 10:51:03 GMT 42.107849 -3.881751 33,025 245 492 64
2018-12-06 10:50:56 GMT 42.118240 -3.852081 33,000 245 492 0
2018-12-06 10:50:39 GMT 42.134991 -3.804399 33,000 245 492 0
2018-12-06 10:50:29 GMT 42.141403 -3.786038 33,000 245 491 0
2018-12-06 10:50:21 GMT 42.151291 -3.757886 33,000 245 491 0
2018-12-06 10:50:06 GMT 42.164795 -3.719184 33,000 245 491 0
2018-12-06 10:49:59 GMT 42.174789 -3.690512 33,000 245 491 0
2018-12-06 10:49:47 GMT 42.183060 -3.666874 33,000 245 491 0
2018-12-06 10:49:42 GMT 42.186291 -3.657617 33,000 245 491 0
2018-12-06 10:49:36 GMT 42.193222 -3.637848 33,000 245 491 0
2018-12-06 10:49:32 GMT 42.203110 -3.609321 33,000 245 491 0
2018-12-06 10:49:26 GMT 42.203110 -3.609321 33,000 245 491 0
2018-12-06 10:49:16 GMT 42.213661 -3.578988 33,025 245 491 -64
2018-12-06 10:49:03 GMT 42.225128 -3.545900 33,025 245 492 64
2018-12-06 10:48:50 GMT 42.236664 -3.512629 33,025 245 492 -128
2018-12-06 10:48:42 GMT 42.245453 -3.487348 33,025 245 492 0
2018-12-06 10:48:36 GMT 42.250114 -3.473915 33,025 245 492 64
2018-12-06 10:48:30 GMT 42.256943 -3.454077 33,025 245 492 64
2018-12-06 10:48:19 GMT 42.267010 -3.425052 33,000 245 492 0
2018-12-06 10:48:08 GMT 42.277267 -3.395462 33,025 246 492 0
2018-12-06 10:47:57 GMT 42.287449 -3.365840 33,000 246 492 0
2018-12-06 10:47:45 GMT 42.298828 -3.332852 33,000 245 492 -64
2018-12-06 10:47:40 GMT 42.303543 -3.319244 33,000 246 493 -64
2018-12-06 10:47:36 GMT 42.307938 -3.306448 33,000 246 492 0
2018-12-06 10:47:32 GMT 42.312214 -3.294046 33,025 246 492 -64
2018-12-06 10:47:25 GMT 42.317871 -3.277484 33,000 246 492 0
2018-12-06 10:47:14 GMT 42.330368 -3.241158 33,000 246 492 0
2018-12-06 10:47:05 GMT 42.339478 -3.214625 33,025 246 492 0
2018-12-06 10:46:55 GMT 42.347824 -3.190251 33,000 246 492 0
2018-12-06 10:46:44 GMT 42.357651 -3.161441 33,000 246 492 0
2018-12-06 10:46:40 GMT 42.363514 -3.144325 33,000 246 492 0
2018-12-06 10:46:34 GMT 42.375458 -3.109381 33,000 246 492 0
2018-12-06 10:46:23 GMT 42.377434 -3.103638 33,000 246 492 0
2018-12-06 10:46:13 GMT 42.387302 -3.074703 33,000 246 491 0
2018-12-06 10:46:06 GMT 42.393997 -3.055073 33,000 246 491 0
2018-12-06 10:46:03 GMT 42.397385 -3.045023 33,000 246 491 0
2018-12-06 10:45:57 GMT 42.404663 -3.023550 33,000 246 491 0
2018-12-06 10:45:52 GMT 42.407272 -3.015875 33,000 246 491 0
2018-12-06 10:45:42 GMT 42.417191 -2.986621 33,000 246 491 0
2018-12-06 10:45:37 GMT 42.424622 -2.964686 33,000 246 491 0
2018-12-06 10:45:31 GMT 42.427151 -2.957302 33,000 246 491 0
2018-12-06 10:45:21 GMT 42.437531 -2.926733 33,000 246 491 0
2018-12-06 10:45:10 GMT 42.446888 -2.899241 33,000 246 492 0
2018-12-06 10:45:00 GMT 42.457123 -2.869554 33,000 246 493 0
2018-12-06 10:44:53 GMT 42.463440 -2.851139 33,000 246 493 -64
2018-12-06 10:44:49 GMT 42.467327 -2.839838 33,000 246 493 0
2018-12-06 10:44:42 GMT 42.473888 -2.820867 33,025 246 492 0
2018-12-06 10:44:38 GMT 42.476898 -2.812063 33,025 246 492 0
2018-12-06 10:44:34 GMT 42.482269 -2.796340 33,025 246 492 64
2018-12-06 10:44:27 GMT 42.488087 -2.779286 33,025 246 492 0
2018-12-06 10:44:23 GMT 42.497070 -2.753033 33,000 246 491 0
2018-12-06 10:44:17 GMT 42.497070 -2.753033 33,000 246 492 0
2018-12-06 10:44:13 GMT 42.501938 -2.738967 33,000 246 492 0
2018-12-06 10:44:06 GMT 42.507500 -2.722629 33,000 246 492 0
2018-12-06 10:44:00 GMT 42.513226 -2.705830 33,000 246 492 0
2018-12-06 10:43:56 GMT 42.518253 -2.691012 33,000 246 492 0
2018-12-06 10:43:52 GMT 42.527054 -2.665334 33,000 246 491 0
2018-12-06 10:43:46 GMT 42.527054 -2.665334 33,000 246 491 0
2018-12-06 10:43:40 GMT 42.532684 -2.648919 33,025 246 491 -64
2018-12-06 10:43:30 GMT 42.542908 -2.618928 33,025 246 490 0
2018-12-06 10:43:20 GMT 42.551956 -2.592326 33,000 246 490 0
2018-12-06 10:43:08 GMT 42.563362 -2.558792 33,000 246 490 0
2018-12-06 10:42:57 GMT 42.573715 -2.528291 33,025 246 490 0
2018-12-06 10:42:48 GMT 42.581936 -2.504116 33,000 246 490 0
2018-12-06 10:42:38 GMT 42.592037 -2.474223 33,000 246 490 0
2018-12-06 10:42:35 GMT 42.594227 -2.467836 33,000 246 490 0
2018-12-06 10:42:27 GMT 42.602280 -2.444075 33,000 246 490 0
2018-12-06 10:42:15 GMT 42.612854 -2.412935 33,000 246 491 0
2018-12-06 10:42:06 GMT 42.622879 -2.383284 33,000 246 491 0
2018-12-06 10:41:55 GMT 42.631714 -2.357004 33,000 246 491 0
2018-12-06 10:41:52 GMT 42.634964 -2.347516 33,000 246 491 0
2018-12-06 10:41:45 GMT 42.642288 -2.325668 33,000 246 491 0
2018-12-06 10:41:42 GMT 42.644222 -2.319904 33,000 246 491 0
2018-12-06 10:41:32 GMT 42.656139 -2.284645 33,000 246 492 0
2018-12-06 10:41:24 GMT 42.662102 -2.266952 33,000 246 492 0
2018-12-06 10:41:18 GMT 42.666779 -2.253071 33,000 246 492 0
2018-12-06 10:41:13 GMT 42.671585 -2.238776 33,025 246 492 -64
2018-12-06 10:41:10 GMT 42.674332 -2.230599 33,025 246 492 -64
2018-12-06 10:41:03 GMT 42.681427 -2.209563 33,025 246 492 0
2018-12-06 10:40:59 GMT 42.684723 -2.199700 33,025 246 492 64
2018-12-06 10:40:52 GMT 42.691242 -2.180211 33,025 246 492 64
2018-12-06 10:40:49 GMT 42.701065 -2.150761 33,000 246 492 64
2018-12-06 10:40:42 GMT 42.701065 -2.150761 33,000 246 493 0
2018-12-06 10:40:32 GMT 42.711166 -2.120489 33,000 246 493 0
2018-12-06 10:40:21 GMT 42.722012 -2.088105 33,000 246 494 0
2018-12-06 10:40:11 GMT 42.736164 -2.045437 33,000 246 494 64
2018-12-06 10:40:00 GMT 42.740982 -2.030848 33,000 246 494 64
2018-12-06 10:39:53 GMT 42.746872 -2.013181 33,000 246 494 -64
2018-12-06 10:39:49 GMT 42.750641 -2.001875 33,000 246 494 -64
2018-12-06 10:39:45 GMT 42.755402 -1.987589 33,000 246 495 -64
2018-12-06 10:39:40 GMT 42.760300 -1.972857 33,000 246 495 0
2018-12-06 10:39:33 GMT 42.765518 -1.956940 33,025 246 495 0
2018-12-06 10:39:29 GMT 42.769867 -1.943644 33,000 246 495 64
2018-12-06 10:39:23 GMT 42.775818 -1.925479 33,000 246 495 64
2018-12-06 10:39:19 GMT 42.779663 -1.913806 33,000 246 495 0
2018-12-06 10:39:13 GMT 42.784950 -1.897824 33,000 246 494 0
2018-12-06 10:39:07 GMT 42.790054 -1.882407 33,000 246 494 -64
2018-12-06 10:39:03 GMT 42.794819 -1.868059 33,000 246 494 -128
2018-12-06 10:38:57 GMT 42.799522 -1.853943 33,025 246 494 -128
2018-12-06 10:38:52 GMT 42.804565 -1.838525 33,025 247 493 0
2018-12-06 10:38:46 GMT 42.809647 -1.822900 33,025 247 493 64
2018-12-06 10:38:41 GMT 42.814697 -1.807513 33,000 246 493 128
2018-12-06 10:38:35 GMT 42.819717 -1.792368 33,000 245 493 0
2018-12-06 10:38:30 GMT 42.825302 -1.776080 33,000 245 493 0
2018-12-06 10:38:26 GMT 42.829315 -1.764417 33,000 245 493 0
2018-12-06 10:38:22 GMT 42.832249 -1.755981 33,000 245 493 0
2018-12-06 10:38:14 GMT 42.840397 -1.732439 33,000 245 493 0
2018-12-06 10:38:10 GMT 42.844723 -1.719818 33,000 245 493 0
2018-12-06 10:37:59 GMT 42.859818 -1.676118 33,000 245 493 0
2018-12-06 10:37:50 GMT 42.865356 -1.660085 33,000 245 494 0
2018-12-06 10:37:42 GMT 42.871994 -1.640987 33,000 245 494 -64
2018-12-06 10:37:31 GMT 42.882011 -1.612178 33,025 245 493 0
2018-12-06 10:37:20 GMT 42.892487 -1.581770 33,025 245 494 0
2018-12-06 10:37:13 GMT 42.900494 -1.558424 33,025 245 494 64
2018-12-06 10:37:09 GMT 42.903103 -1.550838 33,025 245 494 64
2018-12-06 10:37:01 GMT 42.911865 -1.525375 33,000 245 493 0
2018-12-06 10:36:50 GMT 42.922165 -1.495546 33,000 245 493 0
2018-12-06 10:36:44 GMT 42.927979 -1.478619 33,000 245 493 0
2018-12-06 10:36:39 GMT 42.932373 -1.465972 33,000 245 493 0
2018-12-06 10:36:34 GMT 42.937550 -1.450915 33,000 245 494 0
2018-12-06 10:36:29 GMT 42.942112 -1.437705 33,000 245 494 0
2018-12-06 10:36:19 GMT 42.952377 -1.407975 33,000 245 494 0
2018-12-06 10:36:10 GMT 42.961151 -1.382446 33,025 245 494 -64
2018-12-06 10:36:01 GMT 42.969360 -1.358600 33,025 245 494 0
2018-12-06 10:35:58 GMT 42.973255 -1.347198 33,000 245 494 0
2018-12-06 10:35:47 GMT 42.982498 -1.320212 33,000 245 494 0
2018-12-06 10:35:38 GMT 42.992157 -1.291979 33,000 246 494 -64
2018-12-06 10:35:28 GMT 43.001724 -1.263747 33,025 246 494 0
2018-12-06 10:35:17 GMT 43.011978 -1.233151 33,025 246 494 0
2018-12-06 10:35:06 GMT 43.022919 -1.200320 33,000 246 494 64
2018-12-06 10:34:56 GMT 43.031586 -1.174098 33,000 246 494 64
2018-12-06 10:34:46 GMT 43.041313 -1.144213 33,000 247 493 0
2018-12-06 10:34:35 GMT 43.050888 -1.114474 33,000 247 493 -64
2018-12-06 10:34:24 GMT 43.061691 -1.080237 33,000 248 492 -64
2018-12-06 10:34:13 GMT 43.070618 -1.051366 33,000 248 492 0
2018-12-06 10:34:04 GMT 43.079067 -1.023690 33,000 248 492 -64
2018-12-06 10:33:53 GMT 43.088100 -0.993870 33,025 248 491 -64
2018-12-06 10:33:43 GMT 43.097626 -0.962198 33,025 248 491 64
2018-12-06 10:33:34 GMT 43.104263 -0.940098 33,000 248 491 192
2018-12-06 10:33:31 GMT 43.106873 -0.931475 33,000 247 492 128
2018-12-06 10:33:22 GMT 43.116669 -0.902029 33,000 241 495 -192
2018-12-06 10:33:13 GMT 43.124817 -0.882355 33,000 238 499 0
2018-12-06 10:33:10 GMT 43.128662 -0.874116 33,000 238 500 0
2018-12-06 10:33:04 GMT 43.137585 -0.855103 33,025 238 500 -64
2018-12-06 10:32:59 GMT 43.142990 -0.843520 33,000 238 500 128
2018-12-06 10:32:53 GMT 43.150665 -0.827244 33,000 238 500 0
2018-12-06 10:32:49 GMT 43.155273 -0.817370 33,000 238 499 -64
2018-12-06 10:32:43 GMT 43.163177 -0.800469 33,025 238 499 0
2018-12-06 10:32:38 GMT 43.168961 -0.788138 33,000 238 499 -64
2018-12-06 10:32:33 GMT 43.175766 -0.773642 33,025 238 499 0
2018-12-06 10:32:28 GMT 43.181488 -0.761378 33,000 238 500 0
2018-12-06 10:32:22 GMT 43.188793 -0.745893 33,025 238 499 0
2018-12-06 10:32:19 GMT 43.193634 -0.735495 33,000 238 499 0
2018-12-06 10:32:11 GMT 43.202042 -0.717561 33,000 238 499 0
2018-12-06 10:32:06 GMT 43.208298 -0.704106 33,000 238 499 0
2018-12-06 10:32:01 GMT 43.214493 -0.690925 33,000 238 499 0
2018-12-06 10:31:55 GMT 43.222122 -0.674547 33,025 238 499 0
2018-12-06 10:31:52 GMT 43.227943 -0.662057 33,025 238 499 0
2018-12-06 10:31:44 GMT 43.235596 -0.645702 33,025 238 499 0
2018-12-06 10:31:40 GMT 43.240677 -0.634716 33,025 238 499 0
2018-12-06 10:31:34 GMT 43.248287 -0.618373 33,025 238 499 0
2018-12-06 10:31:31 GMT 43.252441 -0.609422 33,000 238 500 0
2018-12-06 10:31:26 GMT 43.262009 -0.588854 33,025 238 500 0
2018-12-06 10:31:20 GMT 43.273682 -0.563816 33,000 238 500 0
2018-12-06 10:31:15 GMT 43.273682 -0.563816 33,000 238 500 0
2018-12-06 10:31:11 GMT 43.278534 -0.553340 33,000 238 500 0
2018-12-06 10:31:02 GMT 43.288322 -0.532379 33,000 238 501 0
2018-12-06 10:30:59 GMT 43.291393 -0.525709 33,025 238 501 0
2018-12-06 10:30:53 GMT 43.299911 -0.507351 33,025 238 501 0
2018-12-06 10:30:49 GMT 43.304535 -0.497451 33,025 238 501 0
2018-12-06 10:30:43 GMT 43.313690 -0.477774 33,025 238 502 64
2018-12-06 10:30:40 GMT 43.316669 -0.471300 33,025 238 502 64
2018-12-06 10:30:29 GMT 43.329193 -0.444227 33,000 238 502 0
2018-12-06 10:30:22 GMT 43.338551 -0.424085 33,000 238 502 0
2018-12-06 10:30:19 GMT 43.342136 -0.416303 33,000 238 502 0
2018-12-06 10:30:12 GMT 43.350815 -0.397616 33,000 238 502 64
2018-12-06 10:30:08 GMT 43.355759 -0.386821 33,000 238 502 0
2018-12-06 10:29:59 GMT 43.367844 -0.360760 33,000 238 502 0
2018-12-06 10:29:51 GMT 43.376629 -0.341753 33,025 238 502 -64
2018-12-06 10:29:48 GMT 43.380493 -0.333383 33,025 238 502 -64
2018-12-06 10:29:40 GMT 43.390228 -0.312280 33,025 238 502 0
2018-12-06 10:29:37 GMT 43.393341 -0.305509 33,025 238 502 64
2018-12-06 10:29:30 GMT 43.402954 -0.284814 33,000 238 502 0
2018-12-06 10:29:26 GMT 43.407898 -0.274019 33,000 238 502 0
2018-12-06 10:29:16 GMT 43.419846 -0.248150 33,000 238 502 -64
2018-12-06 10:29:09 GMT 43.428722 -0.228882 33,025 238 502 0
2018-12-06 10:29:05 GMT 43.433331 -0.218876 33,025 238 503 64
2018-12-06 10:28:57 GMT 43.444130 -0.195400 33,000 238 503 64
2018-12-06 10:28:54 GMT 43.447250 -0.188664 33,000 238 503 64
2018-12-06 10:28:43 GMT 43.460892 -0.158975 33,025 238 503 0
2018-12-06 10:28:33 GMT 43.473831 -0.130855 33,000 238 503 -64
2018-12-06 10:28:26 GMT 43.481747 -0.113525 33,025 238 503 0
2018-12-06 10:28:22 GMT 43.486820 -0.102474 33,025 238 503 0
2018-12-06 10:28:15 GMT 43.495480 -0.083575 33,025 238 503 0
2018-12-06 10:28:12 GMT 43.499203 -0.075466 33,025 238 503 0
2018-12-06 10:28:04 GMT 43.509064 -0.053974 33,000 238 503 0
2018-12-06 10:28:01 GMT 43.513138 -0.045031 33,025 238 503 0
2018-12-06 10:27:54 GMT 43.522430 -0.024719 33,000 238 503 0
2018-12-06 10:27:51 GMT 43.525635 -0.017693 33,000 238 503 64
2018-12-06 10:27:43 GMT 43.535889 0.004791 33,000 238 503 64
2018-12-06 10:27:38 GMT 43.541519 0.017068 33,000 238 503 64
2018-12-06 10:27:34 GMT 43.548080 0.031455 33,000 238 503 0
2018-12-06 10:27:28 GMT 43.554367 0.045319 33,000 238 503 0
2018-12-06 10:27:22 GMT 43.560791 0.059444 33,000 238 503 -64
2018-12-06 10:27:18 GMT 43.565865 0.070561 33,025 238 504 0
2018-12-06 10:27:11 GMT 43.574245 0.089002 33,025 238 503 0
2018-12-06 10:27:05 GMT 43.582855 0.107819 33,000 238 503 0
2018-12-06 10:27:02 GMT 43.586563 0.115995 33,000 238 503 0
2018-12-06 10:26:56 GMT 43.593376 0.131051 33,025 238 503 0
2018-12-06 10:26:49 GMT 43.602268 0.150604 33,025 239 503 0
2018-12-06 10:26:46 GMT 43.606018 0.158855 33,025 239 503 0
2018-12-06 10:26:42 GMT 43.611191 0.170288 33,025 239 503 0
2018-12-06 10:26:39 GMT 43.614929 0.178528 33,025 239 503 0
2018-12-06 10:26:34 GMT 43.620895 0.191686 33,025 239 503 0
2018-12-06 10:26:31 GMT 43.625126 0.201089 33,025 239 503 0
2018-12-06 10:26:20 GMT 43.639069 0.231926 33,000 239 503 0
2018-12-06 10:26:12 GMT 43.647675 0.250897 33,000 239 503 -64
2018-12-06 10:26:08 GMT 43.651840 0.260159 33,000 238 503 -64
2018-12-06 10:26:03 GMT 43.664795 0.288710 33,000 239 504 0
2018-12-06 10:25:59 GMT 43.664795 0.288710 33,025 239 503 0
2018-12-06 10:25:52 GMT 43.672096 0.304936 33,000 239 503 0
2018-12-06 10:25:48 GMT 43.677200 0.316240 33,000 239 503 0
2018-12-06 10:25:41 GMT 43.685349 0.334189 33,000 239 504 0
2018-12-06 10:25:37 GMT 43.690247 0.345111 33,000 239 503 0
2018-12-06 10:25:26 GMT 43.703613 0.374712 33,000 239 505 64
2018-12-06 10:25:20 GMT 43.711246 0.391650 33,000 239 505 0
2018-12-06 10:25:16 GMT 43.716751 0.403875 33,000 239 506 -64
2018-12-06 10:25:06 GMT 43.729202 0.431533 33,025 239 506 0
2018-12-06 10:24:58 GMT 43.738621 0.452532 33,025 239 506 0
2018-12-06 10:24:55 GMT 43.743851 0.464172 33,000 239 506 0
2018-12-06 10:24:45 GMT 43.755009 0.489022 33,000 239 507 64
2018-12-06 10:24:37 GMT 43.764038 0.509099 33,000 239 507 0
2018-12-06 10:24:33 GMT 43.769760 0.521914 33,000 239 507 0
2018-12-06 10:24:25 GMT 43.779587 0.543758 33,000 239 507 0
2018-12-06 10:24:19 GMT 43.787220 0.560826 33,000 239 507 0
2018-12-06 10:24:13 GMT 43.794762 0.577632 33,000 239 507 0
2018-12-06 10:24:02 GMT 43.808216 0.607649 33,000 239 506 0
2018-12-06 10:23:52 GMT 43.820709 0.635610 33,025 239 507 0
2018-12-06 10:23:41 GMT 43.833435 0.664226 33,000 239 506 0
2018-12-06 10:23:30 GMT 43.846573 0.693736 33,025 239 506 0
2018-12-06 10:23:19 GMT 43.860634 0.725228 33,000 239 506 64
2018-12-06 10:23:09 GMT 43.872482 0.751797 33,000 239 505 0
2018-12-06 10:22:59 GMT 43.885895 0.782073 33,000 239 505 0
2018-12-06 10:22:51 GMT 43.894665 0.801740 33,000 239 505 0
2018-12-06 10:22:48 GMT 43.898666 0.810689 33,000 239 505 0
2018-12-06 10:22:42 GMT 43.906128 0.827552 33,000 239 505 0
2018-12-06 10:22:38 GMT 43.920456 0.859808 33,000 239 506 0
2018-12-06 10:22:30 GMT 43.920456 0.859808 33,000 239 506 0
2018-12-06 10:22:26 GMT 43.924782 0.869620 33,000 239 506 0
2018-12-06 10:22:19 GMT 43.934509 0.891617 33,000 239 506 0
2018-12-06 10:22:16 GMT 43.937630 0.898655 33,000 239 506 0
2018-12-06 10:22:08 GMT 43.947315 0.920497 33,000 239 507 0
2018-12-06 10:22:05 GMT 43.951595 0.930110 33,000 239 506 0
2018-12-06 10:22:01 GMT 43.956253 0.940639 33,000 239 507 0
2018-12-06 10:21:55 GMT 43.963120 0.956322 33,000 239 507 0
2018-12-06 10:21:50 GMT 43.969254 0.970182 33,000 239 507 0
2018-12-06 10:21:45 GMT 43.975899 0.985238 33,000 239 507 -64
2018-12-06 10:21:39 GMT 43.983208 1.001848 33,000 239 507 -64
2018-12-06 10:21:32 GMT 43.991821 1.021409 33,000 239 507 -64
2018-12-06 10:21:28 GMT 43.995823 1.030426 33,000 239 507 -64
2018-12-06 10:21:24 GMT 44.001617 1.043573 33,000 239 507 0
2018-12-06 10:21:18 GMT 44.009136 1.060638 33,000 239 507 64
2018-12-06 10:21:13 GMT 44.015236 1.074502 33,000 239 507 64
2018-12-06 10:21:06 GMT 44.022995 1.092118 33,000 239 507 64
2018-12-06 10:21:02 GMT 44.027985 1.103551 33,000 239 507 64
2018-12-06 10:20:57 GMT 44.033707 1.116581 33,000 239 507 0
2018-12-06 10:20:53 GMT 44.039253 1.129238 33,000 239 507 -64
2018-12-06 10:20:48 GMT 44.045120 1.142578 33,000 239 507 0
2018-12-06 10:20:45 GMT 44.049030 1.151472 33,000 239 508 0
2018-12-06 10:20:41 GMT 44.053314 1.161216 33,000 239 508 0
2018-12-06 10:20:37 GMT 44.058014 1.171960 33,000 239 508 0
2018-12-06 10:20:31 GMT 44.065933 1.190037 33,000 239 508 0
2018-12-06 10:20:27 GMT 44.071335 1.202300 33,000 239 508 0
2018-12-06 10:20:21 GMT 44.078453 1.218632 33,000 239 509 0
2018-12-06 10:20:17 GMT 44.082829 1.228703 33,000 239 509 0
2018-12-06 10:20:11 GMT 44.090553 1.246294 33,000 239 510 0
2018-12-06 10:20:07 GMT 44.101448 1.271144 33,000 239 509 0
2018-12-06 10:20:02 GMT 44.101448 1.271144 33,000 239 509 0
2018-12-06 10:19:59 GMT 44.104614 1.278469 33,000 239 509 0
2018-12-06 10:19:56 GMT 44.108898 1.288212 33,000 239 510 0
2018-12-06 10:19:49 GMT 44.117416 1.307831 33,000 239 510 0
2018-12-06 10:19:46 GMT 44.121506 1.317210 33,000 239 509 0
2018-12-06 10:19:41 GMT 44.127869 1.331773 33,000 239 510 0
2018-12-06 10:19:38 GMT 44.130936 1.338799 33,000 239 510 0
2018-12-06 10:19:35 GMT 44.134598 1.347167 33,000 239 510 0
2018-12-06 10:19:29 GMT 44.141785 1.363710 33,000 239 510 0
2018-12-06 10:19:25 GMT 44.146683 1.374952 33,000 239 510 0
2018-12-06 10:19:20 GMT 44.153503 1.390665 33,025 239 510 0
2018-12-06 10:19:14 GMT 44.159592 1.404717 33,025 239 510 0
2018-12-06 10:19:07 GMT 44.168949 1.426195 33,000 239 511 0
2018-12-06 10:19:03 GMT 44.173092 1.435743 33,000 239 511 0
2018-12-06 10:18:57 GMT 44.181702 1.455561 33,000 239 511 0
2018-12-06 10:18:53 GMT 44.185429 1.464124 33,000 239 511 0
2018-12-06 10:18:45 GMT 44.194878 1.485767 33,000 239 511 0
2018-12-06 10:18:41 GMT 44.200195 1.498064 33,000 239 511 0
2018-12-06 10:18:38 GMT 44.204376 1.507740 33,000 239 512 0
2018-12-06 10:18:35 GMT 44.207016 1.513824 33,000 239 512 0
2018-12-06 10:18:32 GMT 44.210678 1.522260 33,000 239 512 0
2018-12-06 10:18:25 GMT 44.219696 1.543121 33,000 239 511 0
2018-12-06 10:18:22 GMT 44.223358 1.551557 33,000 239 511 0
2018-12-06 10:18:16 GMT 44.232147 1.571830 33,025 240 510 0
2018-12-06 10:18:12 GMT 44.235901 1.580593 33,025 240 511 0
2018-12-06 10:18:06 GMT 44.243317 1.597791 33,025 240 511 0
2018-12-06 10:18:03 GMT 44.246647 1.605545 33,025 240 510 64
2018-12-06 10:18:00 GMT 44.249863 1.613028 33,025 240 510 64
2018-12-06 10:17:55 GMT 44.257351 1.630331 33,000 240 510 0
2018-12-06 10:17:51 GMT 44.261169 1.639186 33,000 240 510 0
2018-12-06 10:17:43 GMT 44.272156 1.664697 33,000 240 510 0
2018-12-06 10:17:40 GMT 44.273972 1.668917 33,025 240 510 0
2018-12-06 10:17:33 GMT 44.282410 1.688494 33,000 240 510 0
2018-12-06 10:17:30 GMT 44.286728 1.698527 33,000 240 510 0
2018-12-06 10:17:23 GMT 44.294502 1.716547 33,000 239 510 0
2018-12-06 10:17:18 GMT 44.300995 1.731589 33,025 240 510 -64
2018-12-06 10:17:13 GMT 44.306671 1.744864 33,025 240 509 0
2018-12-06 10:17:10 GMT 44.311386 1.755851 33,025 240 509 64
2018-12-06 10:17:07 GMT 44.313950 1.761802 33,000 240 509 64
2018-12-06 10:17:03 GMT 44.319489 1.774750 33,000 240 510 0
2018-12-06 10:16:59 GMT 44.324432 1.786325 33,000 240 510 0
2018-12-06 10:16:52 GMT 44.332581 1.805158 33,000 240 510 -64
2018-12-06 10:16:48 GMT 44.337700 1.817165 33,025 240 509 64
2018-12-06 10:16:40 GMT 44.347549 1.840145 33,025 240 509 0
2018-12-06 10:16:29 GMT 44.360744 1.870958 33,025 240 509 64
2018-12-06 10:16:21 GMT 44.370300 1.893376 33,000 240 509 0
2018-12-06 10:16:17 GMT 44.375175 1.904788 33,000 240 509 0
2018-12-06 10:16:10 GMT 44.383438 1.924112 33,000 240 508 -64
2018-12-06 10:16:06 GMT 44.388069 1.935001 33,000 240 508 -64
2018-12-06 10:16:01 GMT 44.394169 1.949336 33,025 240 508 0
2018-12-06 10:15:57 GMT 44.400513 1.964133 33,025 240 507 0
2018-12-06 10:15:51 GMT 44.405575 1.976132 33,025 240 508 -64
2018-12-06 10:15:46 GMT 44.412369 1.992057 33,025 240 507 0
2018-12-06 10:15:38 GMT 44.427639 2.027915 33,000 240 507 64
2018-12-06 10:15:25 GMT 44.437138 2.050156 33,000 240 507 64
2018-12-06 10:15:21 GMT 44.443096 2.064224 33,000 240 507 0
2018-12-06 10:15:17 GMT 44.448498 2.076952 33,000 240 507 0
2018-12-06 10:15:14 GMT 44.450226 2.080994 33,000 240 507 0
2018-12-06 10:15:11 GMT 44.454895 2.091980 33,000 240 506 -64
2018-12-06 10:15:06 GMT 44.459885 2.103816 33,000 240 506 -64
2018-12-06 10:15:03 GMT 44.463593 2.112514 33,000 240 506 -64
2018-12-06 10:15:00 GMT 44.467724 2.122237 33,000 240 505 0
2018-12-06 10:14:56 GMT 44.473076 2.134898 33,000 240 505 0
2018-12-06 10:14:51 GMT 44.477921 2.146258 33,000 240 504 0
2018-12-06 10:14:44 GMT 44.487831 2.169666 33,000 240 504 64
2018-12-06 10:14:39 GMT 44.491562 2.178497 33,000 240 504 0
2018-12-06 10:14:35 GMT 44.498028 2.193715 33,000 240 503 0
2018-12-06 10:14:32 GMT 44.500076 2.198471 33,000 240 503 0
2018-12-06 10:14:29 GMT 44.504311 2.208520 33,000 240 502 0
2018-12-06 10:14:21 GMT 44.512924 2.228952 33,000 240 501 0
2018-12-06 10:14:15 GMT 44.521118 2.248446 33,000 240 497 0
2018-12-06 10:14:12 GMT 44.524567 2.256710 33,000 240 498 0
2018-12-06 10:14:07 GMT 44.529465 2.268350 33,000 240 497 0
2018-12-06 10:14:00 GMT 44.537689 2.287836 33,025 240 495 -64
2018-12-06 10:13:51 GMT 44.548351 2.313158 33,025 240 491 64
2018-12-06 10:13:48 GMT 44.552586 2.323273 33,025 240 488 64
2018-12-06 10:13:39 GMT 44.562698 2.347412 33,025 240 486 0
2018-12-06 10:13:32 GMT 44.570324 2.365678 33,025 240 482 -64
2018-12-06 10:13:28 GMT 44.574142 2.374682 33,025 240 482 0
2018-12-06 10:13:19 GMT 44.586090 2.403128 32,950 240 480 832
2018-12-06 10:13:08 GMT 44.597214 2.429613 32,750 240 480 1216
2018-12-06 10:12:58 GMT 44.608635 2.456784 32,550 240 481 1280
2018-12-06 10:12:47 GMT 44.620605 2.485134 32,275 240 482 768
2018-12-06 10:12:36 GMT 44.632797 2.514261 32,275 240 478 64
2018-12-06 10:12:26 GMT 44.644684 2.542681 32,275 240 474 64
2018-12-06 10:12:16 GMT 44.655853 2.569362 32,200 240 471 896
2018-12-06 10:12:08 GMT 44.665329 2.592054 32,000 240 473 1856
2018-12-06 10:12:04 GMT 44.668579 2.599705 31,900 240 474 2112
2018-12-06 10:11:58 GMT 44.675858 2.616904 31,650 240 478 2176
2018-12-06 10:11:54 GMT 44.680187 2.627139 31,525 240 479 1984
2018-12-06 10:11:47 GMT 44.688007 2.645896 31,325 240 480 1536
2018-12-06 10:11:43 GMT 44.693115 2.658103 31,225 240 480 1280
2018-12-06 10:11:33 GMT 44.703827 2.683607 31,025 240 480 640
2018-12-06 10:11:27 GMT 44.715382 2.711144 31,000 240 481 64
2018-12-06 10:11:23 GMT 44.715382 2.711144 31,000 240 480 64
2018-12-06 10:11:16 GMT 44.722778 2.728729 31,000 240 480 64
2018-12-06 10:11:10 GMT 44.728867 2.743247 31,000 240 481 64
2018-12-06 10:11:06 GMT 44.733490 2.754233 30,975 240 480 64
2018-12-06 10:11:02 GMT 44.738571 2.766266 30,975 240 481 -64
2018-12-06 10:10:54 GMT 44.747864 2.788631 30,975 241 481 -64
2018-12-06 10:10:51 GMT 44.750748 2.795694 31,000 241 481 -64
2018-12-06 10:10:48 GMT 44.753506 2.802586 31,000 241 480 -64
2018-12-06 10:10:45 GMT 44.757694 2.813237 31,000 242 480 0
2018-12-06 10:10:40 GMT 44.762741 2.826233 31,000 242 480 0
2018-12-06 10:10:35 GMT 44.768169 2.840033 31,000 242 482 192
2018-12-06 10:10:32 GMT 44.772354 2.850821 31,000 242 482 192
2018-12-06 10:10:28 GMT 44.775375 2.858538 30,975 242 483 64
2018-12-06 10:10:21 GMT 44.783112 2.878217 30,975 242 485 0
2018-12-06 10:10:13 GMT 44.793167 2.903941 30,975 241 488 128
2018-12-06 10:10:09 GMT 44.796242 2.911645 30,950 241 489 64
2018-12-06 10:10:05 GMT 44.800663 2.922765 30,950 241 490 0
2018-12-06 10:10:01 GMT 44.804764 2.933219 30,975 241 490 -64
2018-12-06 10:09:58 GMT 44.808346 2.942259 31,000 241 491 -320
2018-12-06 10:09:51 GMT 44.816208 2.962254 31,025 241 491 -320
2018-12-06 10:09:48 GMT 44.819366 2.970363 30,975 242 492 320
2018-12-06 10:09:44 GMT 44.824493 2.983573 30,975 242 492 -64
2018-12-06 10:09:41 GMT 44.826691 2.989131 31,000 242 492 -128
2018-12-06 10:09:37 GMT 44.831108 3.000540 31,000 242 492 -128
2018-12-06 10:09:32 GMT 44.837997 3.018226 31,000 242 492 0
2018-12-06 10:09:26 GMT 44.842621 3.030134 31,000 242 492 64
2018-12-06 10:09:23 GMT 44.847107 3.041643 31,000 242 492 64
2018-12-06 10:09:19 GMT 44.850658 3.050716 31,000 242 492 64
2018-12-06 10:09:16 GMT 44.854431 3.060412 31,000 242 492 0
2018-12-06 10:09:05 GMT 44.866444 3.091178 31,000 242 493 -64
2018-12-06 10:09:00 GMT 44.871468 3.104174 31,000 242 493 -64
2018-12-06 10:08:53 GMT 44.879150 3.123975 31,000 242 493 0
2018-12-06 10:08:47 GMT 44.885529 3.140482 31,000 242 493 64
2018-12-06 10:08:43 GMT 44.889904 3.151736 31,000 242 493 64
2018-12-06 10:08:37 GMT 44.896500 3.168706 31,025 242 493 64
2018-12-06 10:08:33 GMT 44.901447 3.181547 31,000 242 493 64
2018-12-06 10:08:29 GMT 44.906616 3.194811 31,000 242 493 0
2018-12-06 10:08:24 GMT 44.912018 3.208727 31,000 242 493 0
2018-12-06 10:08:16 GMT 44.920025 3.229445 31,000 242 493 -64
2018-12-06 10:08:12 GMT 44.923325 3.238024 31,025 242 492 -64
2018-12-06 10:08:06 GMT 44.930099 3.255484 31,025 242 492 0
2018-12-06 10:08:02 GMT 44.935989 3.270844 31,025 242 492 0
2018-12-06 10:07:55 GMT 44.943192 3.289621 31,025 242 492 0
2018-12-06 10:07:51 GMT 44.946419 3.297908 31,025 242 491 0
2018-12-06 10:07:47 GMT 44.952621 3.314078 31,025 242 491 0
2018-12-06 10:07:41 GMT 44.957684 3.327183 31,025 242 489 0
2018-12-06 10:07:36 GMT 44.964390 3.344600 31,025 242 491 0
2018-12-06 10:07:31 GMT 44.968735 3.355996 31,025 242 491 0
2018-12-06 10:07:22 GMT 44.978958 3.382583 31,000 242 489 0
2018-12-06 10:07:19 GMT 44.982311 3.391292 31,000 242 489 0
2018-12-06 10:07:15 GMT 44.985523 3.399666 31,025 242 489 0
2018-12-06 10:07:12 GMT 44.990204 3.411909 31,025 242 489 0
2018-12-06 10:07:08 GMT 44.997673 3.431419 31,025 242 488 0
2018-12-06 10:07:05 GMT 44.997673 3.431419 31,025 242 489 0
2018-12-06 10:06:58 GMT 45.003479 3.446699 31,025 242 488 0
2018-12-06 10:06:52 GMT 45.009960 3.463641 31,025 242 488 64
2018-12-06 10:06:48 GMT 45.014896 3.476503 31,000 242 488 64
2018-12-06 10:06:43 GMT 45.019547 3.488682 31,000 242 488 0
2018-12-06 10:06:37 GMT 45.026413 3.506601 31,000 242 487 -64
2018-12-06 10:06:34 GMT 45.030899 3.518372 31,000 242 487 -64
2018-12-06 10:06:26 GMT 45.039383 3.540545 31,000 242 486 0
2018-12-06 10:06:21 GMT 45.043201 3.550594 31,000 242 485 0
2018-12-06 10:06:16 GMT 45.048740 3.565130 31,000 242 485 0
2018-12-06 10:06:12 GMT 45.052792 3.575715 31,000 242 485 64
2018-12-06 10:06:03 GMT 45.063496 3.603851 31,000 242 485 0
2018-12-06 10:05:55 GMT 45.071178 3.623881 31,000 242 485 0
2018-12-06 10:05:52 GMT 45.075741 3.635872 31,000 242 484 0
2018-12-06 10:05:44 GMT 45.082397 3.653281 31,000 242 484 0
2018-12-06 10:05:40 GMT 45.087341 3.666360 31,000 242 484 64
2018-12-06 10:05:32 GMT 45.096451 3.690295 31,000 242 484 0
2018-12-06 10:05:29 GMT 45.099995 3.699646 31,000 242 484 0
2018-12-06 10:05:23 GMT 45.104649 3.711905 31,000 242 484 0
2018-12-06 10:05:17 GMT 45.112236 3.731935 31,000 242 484 0
2018-12-06 10:05:13 GMT 45.115677 3.740976 31,000 242 484 0
2018-12-06 10:05:09 GMT 45.120106 3.752568 31,000 242 484 -64
2018-12-06 10:05:06 GMT 45.124435 3.764023 31,000 242 484 0
2018-12-06 10:05:02 GMT 45.130951 3.781307 31,000 242 484 0
2018-12-06 10:04:58 GMT 45.130951 3.781307 31,000 242 487 64
2018-12-06 10:04:53 GMT 45.136120 3.794972 31,000 242 484 0
2018-12-06 10:04:50 GMT 45.139378 3.803614 31,000 242 484 0
2018-12-06 10:04:47 GMT 45.142448 3.811720 31,000 242 484 0
2018-12-06 10:04:41 GMT 45.149433 3.830209 31,000 242 484 0
2018-12-06 10:04:36 GMT 45.154221 3.842926 31,000 243 485 64
2018-12-06 10:04:30 GMT 45.160374 3.859283 31,000 243 485 -128
2018-12-06 10:04:27 GMT 45.163513 3.867580 31,000 242 487 64
2018-12-06 10:04:21 GMT 45.170101 3.885074 31,000 243 485 0
2018-12-06 10:04:18 GMT 45.173721 3.894784 31,000 242 487 64
2018-12-06 10:04:13 GMT 45.179031 3.908779 31,000 242 487 64
2018-12-06 10:04:08 GMT 45.185558 3.926072 31,000 242 487 0
2018-12-06 10:04:05 GMT 45.187500 3.931274 31,000 242 487 0
2018-12-06 10:03:59 GMT 45.193798 3.947977 31,000 243 486 -64
2018-12-06 10:03:56 GMT 45.198212 3.959656 31,025 243 487 64
2018-12-06 10:03:48 GMT 45.204643 3.976984 31,000 243 487 0
2018-12-06 10:03:45 GMT 45.208649 3.987635 31,000 243 487 0
2018-12-06 10:03:38 GMT 45.215721 4.006526 31,000 243 486 -64
2018-12-06 10:03:34 GMT 45.219913 4.017781 31,025 243 486 -64
2018-12-06 10:03:30 GMT 45.225952 4.033944 31,025 243 486 -64
2018-12-06 10:03:27 GMT 45.227734 4.038547 31,025 243 486 0
2018-12-06 10:03:24 GMT 45.230339 4.045581 31,025 242 486 0
2018-12-06 10:03:17 GMT 45.237900 4.065661 31,000 243 486 0
2018-12-06 10:03:14 GMT 45.241196 4.074358 31,000 243 486 0
2018-12-06 10:03:11 GMT 45.244400 4.082962 31,025 243 486 0
2018-12-06 10:03:07 GMT 45.248749 4.094631 31,025 243 485 0
2018-12-06 10:03:04 GMT 45.251148 4.100982 31,025 243 485 0
2018-12-06 10:03:01 GMT 45.255478 4.112614 31,025 243 485 0
2018-12-06 10:02:55 GMT 45.260971 4.127197 31,000 243 485 0
2018-12-06 10:02:52 GMT 45.263672 4.134410 31,000 243 485 0
2018-12-06 10:02:49 GMT 45.267956 4.145932 31,000 242 486 0
2018-12-06 10:02:45 GMT 45.274246 4.162641 31,000 242 486 0
2018-12-06 10:02:42 GMT 45.274246 4.162641 31,000 242 486 0
2018-12-06 10:02:38 GMT 45.279968 4.177813 31,000 242 486 0
2018-12-06 10:02:32 GMT 45.285370 4.192134 31,000 242 486 0
2018-12-06 10:02:25 GMT 45.293747 4.214303 31,000 242 486 0
2018-12-06 10:02:22 GMT 45.296265 4.221039 31,000 242 486 0
2018-12-06 10:02:19 GMT 45.298958 4.228196 31,000 242 486 0
2018-12-06 10:02:14 GMT 45.303986 4.241393 31,000 242 486 -64
2018-12-06 10:02:11 GMT 45.307480 4.250704 31,000 242 487 0
2018-12-06 10:02:04 GMT 45.315170 4.271131 31,000 242 488 0
2018-12-06 10:02:01 GMT 45.318371 4.279711 31,000 243 488 64
2018-12-06 10:01:58 GMT 45.322037 4.289442 31,000 242 488 64
2018-12-06 10:01:54 GMT 45.326004 4.300009 31,000 242 488 0
2018-12-06 10:01:51 GMT 45.329361 4.308929 31,000 242 488 0
2018-12-06 10:01:48 GMT 45.331638 4.315014 31,000 242 489 0
2018-12-06 10:01:45 GMT 45.334850 4.323522 31,000 242 489 -64
2018-12-06 10:01:42 GMT 45.338669 4.333705 31,000 246 483 -64
2018-12-06 10:01:39 GMT 45.341354 4.340908 31,000 243 489 0
2018-12-06 10:01:35 GMT 45.347466 4.357285 31,025 243 490 0
2018-12-06 10:01:31 GMT 45.350212 4.364654 31,000 243 491 -64
2018-12-06 10:01:28 GMT 45.352982 4.372166 31,000 245 484 256
2018-12-06 10:01:23 GMT 45.358566 4.387272 31,000 243 491 0
2018-12-06 10:01:19 GMT 45.370010 4.418400 31,025 244 489 64
2018-12-06 10:01:12 GMT 45.370010 4.418400 31,025 243 490 -64
2018-12-06 10:01:09 GMT 45.373489 4.427959 31,025 247 483 -64
2018-12-06 10:01:03 GMT 45.379807 4.445670 31,025 244 489 64
2018-12-06 10:00:57 GMT 45.385033 4.460784 31,000 245 488 64
2018-12-06 10:00:52 GMT 45.395184 4.491064 31,000 246 486 0
2018-12-06 10:00:48 GMT 45.395184 4.491064 31,000 246 486 0
2018-12-06 10:00:40 GMT 45.402740 4.514400 31,000 246 484 -64
2018-12-06 10:00:36 GMT 45.406029 4.524692 31,000 246 483 -64
2018-12-06 10:00:31 GMT 45.409985 4.537421 31,000 246 483 -64
2018-12-06 10:00:28 GMT 45.412266 4.544655 31,000 246 483 0
2018-12-06 10:00:25 GMT 45.416039 4.556513 31,025 246 483 0
2018-12-06 10:00:21 GMT 45.419815 4.568220 31,025 246 483 -64
2018-12-06 10:00:16 GMT 45.427094 4.590389 31,025 245 484 -64
2018-12-06 10:00:13 GMT 45.431168 4.602421 31,025 245 485 -64
2018-12-06 10:00:09 GMT 45.431168 4.602421 31,025 244 485 -64
2018-12-06 10:00:05 GMT 45.434380 4.611712 31,025 244 485 -64
2018-12-06 10:00:01 GMT 45.438663 4.623971 31,050 244 485 -64
2018-12-06 09:59:58 GMT 45.441742 4.632699 31,050 243 485 -64
2018-12-06 09:59:54 GMT 45.445412 4.642728 31,050 243 486 0
2018-12-06 09:59:51 GMT 45.450165 4.655653 31,025 242 487 256
2018-12-06 09:59:47 GMT 45.453690 4.664939 31,000 242 487 320
2018-12-06 09:59:44 GMT 45.456436 4.672263 30,975 243 487 320
2018-12-06 09:59:40 GMT 45.461609 4.686454 30,975 245 484 256
2018-12-06 09:59:36 GMT 45.466919 4.702933 30,950 274 423 0
2018-12-06 09:59:28 GMT 45.470993 4.720328 30,975 258 466 -192
2018-12-06 09:59:25 GMT 45.472458 4.729145 30,975 260 465 -192
2018-12-06 09:59:22 GMT 45.473099 4.733800 31,000 274 441 64
2018-12-06 09:59:18 GMT 45.474182 4.747702 31,000 267 453 -320
2018-12-06 09:59:15 GMT 45.474365 4.756008 31,025 271 447 -64
2018-12-06 09:59:12 GMT 45.474365 4.763377 31,025 274 443 0
2018-12-06 09:59:09 GMT 45.473389 4.789235 31,025 274 442 -64
2018-12-06 09:59:05 GMT 45.473389 4.789235 31,025 274 442 -64
2018-12-06 09:59:02 GMT 45.473145 4.794617 31,025 274 442 0
2018-12-06 09:58:58 GMT 45.472645 4.806653 31,025 274 442 64
2018-12-06 09:58:54 GMT 45.472225 4.816835 31,000 274 441 64
2018-12-06 09:58:51 GMT 45.471909 4.824502 31,000 274 441 64
2018-12-06 09:58:48 GMT 45.471436 4.836530 31,000 274 440 64
2018-12-06 09:58:44 GMT 45.470993 4.847325 31,000 274 439 0
2018-12-06 09:58:40 GMT 45.470642 4.856158 31,000 274 439 0
2018-12-06 09:58:37 GMT 45.470123 4.868382 31,000 274 437 -64
2018-12-06 09:58:34 GMT 45.469807 4.875451 31,000 274 437 -64
2018-12-06 09:58:29 GMT 45.468826 4.897223 31,025 274 434 -64
2018-12-06 09:58:23 GMT 45.468456 4.905462 31,025 274 432 0
2018-12-06 09:58:19 GMT 45.467789 4.919782 31,025 274 430 64
2018-12-06 09:58:15 GMT 45.467331 4.929657 31,025 274 429 64
2018-12-06 09:58:12 GMT 45.466873 4.939694 31,025 274 427 64
2018-12-06 09:58:09 GMT 45.466499 4.948939 31,025 274 426 64
2018-12-06 09:58:06 GMT 45.466049 4.958627 31,025 274 423 0
2018-12-06 09:58:03 GMT 45.465801 4.964347 31,000 274 425 64
2018-12-06 09:57:59 GMT 45.465408 4.973145 31,000 274 424 0
2018-12-06 09:57:55 GMT 45.464767 4.987924 31,000 274 424 0
2018-12-06 09:57:49 GMT 45.464127 5.002531 31,000 274 424 -64
2018-12-06 09:57:46 GMT 45.463760 5.009896 31,000 274 423 0
2018-12-06 09:57:43 GMT 45.463211 5.022387 31,000 274 423 0
2018-12-06 09:57:36 GMT 45.462402 5.040045 31,000 274 423 0
2018-12-06 09:57:32 GMT 45.461845 5.052505 31,000 274 423 0
2018-12-06 09:57:28 GMT 45.460968 5.072675 31,000 274 423 64
2018-12-06 09:57:24 GMT 45.460968 5.072675 31,000 274 423 64
2018-12-06 09:57:21 GMT 45.460464 5.083204 31,000 274 423 0
2018-12-06 09:57:16 GMT 45.459915 5.095694 31,000 274 424 0
2018-12-06 09:57:13 GMT 45.459610 5.103350 31,000 274 424 0
2018-12-06 09:57:10 GMT 45.459145 5.114203 31,000 274 424 0
2018-12-06 09:57:06 GMT 45.458679 5.124926 31,000 274 424 0
2018-12-06 09:57:02 GMT 45.458130 5.136632 31,000 274 424 0
2018-12-06 09:56:57 GMT 45.457626 5.147226 31,000 274 424 64
2018-12-06 09:56:54 GMT 45.456894 5.163378 31,000 274 425 64
2018-12-06 09:56:51 GMT 45.456894 5.163378 31,000 274 425 64
2018-12-06 09:56:48 GMT 45.456352 5.174695 30,975 274 425 0
2018-12-06 09:56:44 GMT 45.455841 5.186418 31,000 274 426 -64
2018-12-06 09:56:41 GMT 45.455559 5.192313 31,000 274 426 -64
2018-12-06 09:56:36 GMT 45.454906 5.207118 31,000 274 427 -64
2018-12-06 09:56:33 GMT 45.454117 5.224803 31,000 274 427 0
2018-12-06 09:56:25 GMT 45.453606 5.235990 31,000 274 427 0
2018-12-06 09:56:21 GMT 45.452953 5.249790 31,000 274 434 0
2018-12-06 09:56:17 GMT 45.452488 5.259638 31,000 274 429 0
2018-12-06 09:56:13 GMT 45.451927 5.272299 31,000 274 429 0
2018-12-06 09:56:09 GMT 45.451401 5.283966 31,000 274 430 0
2018-12-06 09:56:06 GMT 45.450989 5.292140 31,000 274 431 0
2018-12-06 09:56:02 GMT 45.450535 5.301908 31,000 275 431 -64
2018-12-06 09:55:59 GMT 45.450207 5.308942 31,000 275 431 -64
2018-12-06 09:55:56 GMT 45.449707 5.318429 31,000 275 432 -64
2018-12-06 09:55:52 GMT 45.449203 5.328892 31,000 274 433 64
2018-12-06 09:55:49 GMT 45.448765 5.337815 31,000 274 433 64
2018-12-06 09:55:45 GMT 45.448151 5.350473 31,000 274 433 0
2018-12-06 09:55:42 GMT 45.447880 5.355969 31,000 274 433 0
2018-12-06 09:55:39 GMT 45.447414 5.366218 31,000 274 434 0
2018-12-06 09:55:35 GMT 45.446915 5.376369 31,000 274 435 0
2018-12-06 09:55:32 GMT 45.446529 5.384775 31,000 274 436 0
2018-12-06 09:55:29 GMT 45.446018 5.395627 31,000 274 437 0
2018-12-06 09:55:25 GMT 45.445553 5.406278 31,000 274 438 64
2018-12-06 09:55:21 GMT 45.445038 5.418156 31,000 274 439 64
2018-12-06 09:55:18 GMT 45.444618 5.426643 30,975 274 440 0
2018-12-06 09:55:15 GMT 45.444248 5.435620 30,975 274 440 0
2018-12-06 09:55:12 GMT 45.443829 5.443994 31,000 274 441 0
2018-12-06 09:55:09 GMT 45.443344 5.455431 30,975 274 442 0
2018-12-06 09:55:05 GMT 45.442757 5.467440 31,000 274 443 -64
2018-12-06 09:55:02 GMT 45.441921 5.486130 31,000 274 443 -64
2018-12-06 09:54:58 GMT 45.441921 5.486130 31,000 274 446 -64
2018-12-06 09:54:54 GMT 45.441467 5.496172 31,025 274 448 -64
2018-12-06 09:54:49 GMT 45.440804 5.509510 31,025 274 448 -64
2018-12-06 09:54:46 GMT 45.440277 5.520499 31,025 274 448 -64
2018-12-06 09:54:41 GMT 45.439453 5.537980 31,025 274 448 -64
2018-12-06 09:54:38 GMT 45.439175 5.544143 31,025 274 448 -64
2018-12-06 09:54:35 GMT 45.438766 5.553393 31,025 274 449 0
2018-12-06 09:54:30 GMT 45.438244 5.565915 31,025 274 448 0
2018-12-06 09:54:27 GMT 45.437622 5.579289 31,025 274 449 0
2018-12-06 09:54:23 GMT 45.437347 5.585763 31,025 274 449 0
2018-12-06 09:54:19 GMT 45.436707 5.599627 31,025 274 448 64
2018-12-06 09:54:16 GMT 45.436333 5.608320 31,025 275 448 0
2018-12-06 09:54:13 GMT 45.435883 5.616956 31,025 275 448 0
2018-12-06 09:54:08 GMT 45.435150 5.631932 31,025 275 448 0
2018-12-06 09:54:05 GMT 45.434692 5.640433 31,025 275 448 -64
2018-12-06 09:54:02 GMT 45.434193 5.650858 31,025 275 447 0
2018-12-06 09:53:58 GMT 45.433170 5.670218 31,025 275 447 128
2018-12-06 09:53:55 GMT 45.433170 5.670218 31,000 275 445 64
2018-12-06 09:53:50 GMT 45.432312 5.687256 31,000 275 444 64
2018-12-06 09:53:47 GMT 45.432007 5.692928 31,000 275 445 64
2018-12-06 09:53:44 GMT 45.431633 5.700565 31,000 275 444 64
2018-12-06 09:53:41 GMT 45.430893 5.714068 31,000 275 443 0
2018-12-06 09:53:37 GMT 45.430424 5.722939 31,000 275 442 -64
2018-12-06 09:53:34 GMT 45.429245 5.745850 31,025 275 438 -64
2018-12-06 09:53:30 GMT 45.428745 5.754893 31,025 275 437 64
2018-12-06 09:53:25 GMT 45.428745 5.754893 31,025 275 437 0
2018-12-06 09:53:21 GMT 45.427963 5.769653 31,025 275 436 0
2018-12-06 09:53:17 GMT 45.427505 5.778482 31,025 275 434 128
2018-12-06 09:53:14 GMT 45.426884 5.790264 31,025 275 433 64
2018-12-06 09:53:06 GMT 45.425346 5.818601 31,000 275 433 64
2018-12-06 09:53:03 GMT 45.425346 5.818601 31,000 275 437 0
2018-12-06 09:52:57 GMT 45.424278 5.838965 31,000 275 433 0
2018-12-06 09:52:54 GMT 45.423580 5.852631 30,975 275 436 0
2018-12-06 09:52:44 GMT 45.422516 5.872912 31,000 275 435 0
2018-12-06 09:52:41 GMT 45.421902 5.883916 31,000 275 436 0
2018-12-06 09:52:35 GMT 45.421143 5.898873 31,000 275 437 0
2018-12-06 09:52:32 GMT 45.420273 5.914895 31,000 275 438 0
2018-12-06 09:52:25 GMT 45.419716 5.925382 31,000 275 439 0
2018-12-06 09:52:22 GMT 45.419174 5.936083 31,000 275 439 0
2018-12-06 09:52:19 GMT 45.418552 5.948025 31,000 275 440 0
2018-12-06 09:52:14 GMT 45.418076 5.957140 31,000 275 441 0
2018-12-06 09:52:11 GMT 45.417572 5.966361 31,000 275 441 0
2018-12-06 09:52:08 GMT 45.416885 5.979309 31,000 275 442 0
2018-12-06 09:52:05 GMT 45.416595 5.984668 31,000 275 442 0
2018-12-06 09:52:02 GMT 45.416061 5.995265 31,000 275 443 0
2018-12-06 09:51:58 GMT 45.415524 6.004966 31,000 275 444 0
2018-12-06 09:51:54 GMT 45.414825 6.018297 31,000 275 445 0
2018-12-06 09:51:51 GMT 45.414410 6.027006 31,000 275 445 0
2018-12-06 09:51:45 GMT 45.413383 6.047170 31,000 275 452 -64
2018-12-06 09:51:42 GMT 45.413223 6.050197 31,000 275 446 0
2018-12-06 09:51:37 GMT 45.412312 6.067602 31,000 275 446 64
2018-12-06 09:51:32 GMT 45.411613 6.081670 31,000 275 448 64
2018-12-06 09:51:29 GMT 45.411011 6.093125 30,975 275 451 0
2018-12-06 09:51:23 GMT 45.410294 6.107679 30,975 275 451 0
2018-12-06 09:51:20 GMT 45.409836 6.116834 30,975 275 452 0
2018-12-06 09:51:17 GMT 45.409332 6.127232 31,000 275 453 0
2018-12-06 09:51:11 GMT 45.407776 6.158164 31,000 275 461 0
2018-12-06 09:51:07 GMT 45.407776 6.158164 31,000 275 456 -64
2018-12-06 09:51:02 GMT 45.407238 6.168756 31,000 275 457 -64
2018-12-06 09:50:58 GMT 45.406403 6.186022 31,000 275 458 -64
2018-12-06 09:50:55 GMT 45.405937 6.194547 31,025 275 460 0
2018-12-06 09:50:51 GMT 45.405487 6.203417 31,025 275 461 -64
2018-12-06 09:50:48 GMT 45.405029 6.213096 31,025 275 461 -64
2018-12-06 09:50:45 GMT 45.404388 6.224867 31,025 275 461 -64
2018-12-06 09:50:42 GMT 45.404121 6.230454 31,025 275 462 -64
2018-12-06 09:50:39 GMT 45.403656 6.239319 31,025 275 462 -64
2018-12-06 09:50:36 GMT 45.402969 6.252071 31,025 275 462 -64
2018-12-06 09:50:33 GMT 45.402191 6.266523 31,025 275 462 0
2018-12-06 09:50:30 GMT 45.402191 6.266523 31,025 275 462 0
2018-12-06 09:50:27 GMT 45.401653 6.276677 31,025 275 462 0
2018-12-06 09:50:23 GMT 45.400909 6.290392 31,025 275 461 -64
2018-12-06 09:50:20 GMT 45.400452 6.298240 31,025 275 461 -64
2018-12-06 09:50:16 GMT 45.399948 6.307656 31,025 275 461 0
2018-12-06 09:50:12 GMT 45.398674 6.329800 31,025 275 460 0
2018-12-06 09:50:05 GMT 45.398026 6.341073 31,025 275 459 128
2018-12-06 09:50:00 GMT 45.397228 6.354720 31,025 276 458 192
2018-12-06 09:49:57 GMT 45.396561 6.365400 31,025 276 457 192
2018-12-06 09:49:54 GMT 45.395973 6.374214 31,000 276 457 64
2018-12-06 09:49:49 GMT 45.394730 6.391950 31,000 277 454 -256
2018-12-06 09:49:45 GMT 45.394135 6.399667 31,025 277 454 -384
2018-12-06 09:49:38 GMT 45.392063 6.421777 31,100 280 446 -832
2018-12-06 09:49:35 GMT 45.391273 6.428744 31,275 282 441 -1216
2018-12-06 09:49:30 GMT 45.388870 6.445312 31,275 283 437 -1536
2018-12-06 09:49:27 GMT 45.385620 6.464081 31,450 285 431 -1856
2018-12-06 09:49:17 GMT 45.382565 6.480594 31,650 285 428 -1344
2018-12-06 09:49:14 GMT 45.381401 6.487159 31,725 285 428 -1536
2018-12-06 09:49:10 GMT 45.378841 6.501294 31,825 285 427 -1152
2018-12-06 09:49:06 GMT 45.377426 6.509007 31,875 285 427 -1088
2018-12-06 09:49:03 GMT 45.375458 6.519601 31,950 285 428 -704
2018-12-06 09:48:57 GMT 45.372978 6.533315 32,000 285 428 -192
2018-12-06 09:48:54 GMT 45.371532 6.541488 32,000 285 429 -128
2018-12-06 09:48:50 GMT 45.367531 6.563594 32,000 285 430 128
2018-12-06 09:48:47 GMT 45.367531 6.563594 32,000 285 431 64
2018-12-06 09:48:41 GMT 45.365021 6.577475 32,000 285 433 0
2018-12-06 09:48:38 GMT 45.362736 6.590256 32,000 285 434 0
2018-12-06 09:48:34 GMT 45.361313 6.598140 32,000 285 436 0
2018-12-06 09:48:31 GMT 45.359848 6.606184 32,000 285 439 0
2018-12-06 09:48:28 GMT 45.358498 6.613502 31,975 285 438 64
2018-12-06 09:48:23 GMT 45.355751 6.628574 31,975 285 440 -64
2018-12-06 09:48:18 GMT 45.353073 6.643263 31,975 285 441 -64
2018-12-06 09:48:13 GMT 45.350601 6.656145 32,000 286 444 -192
2018-12-06 09:48:08 GMT 45.344925 6.685704 32,000 292 435 1024
2018-12-06 09:48:02 GMT 45.344925 6.685704 32,050 290 439 576
2018-12-06 09:47:58 GMT 45.341995 6.700418 32,000 287 447 0
2018-12-06 09:47:54 GMT 45.339504 6.712312 32,025 287 447 -192
2018-12-06 09:47:51 GMT 45.338058 6.718924 32,025 288 445 -192
2018-12-06 09:47:47 GMT 45.335953 6.728341 32,025 289 443 -64
2018-12-06 09:47:42 GMT 45.332520 6.742663 32,025 290 439 512
2018-12-06 09:47:37 GMT 45.328751 6.757396 31,975 292 436 896
2018-12-06 09:47:32 GMT 45.321442 6.782096 31,850 295 430 768
2018-12-06 09:47:27 GMT 45.321442 6.782096 31,825 296 428 768
2018-12-06 09:47:24 GMT 45.317688 6.793213 31,750 297 424 832
2018-12-06 09:47:17 GMT 45.312225 6.808442 31,700 298 423 1152
2018-12-06 09:47:13 GMT 45.308689 6.818021 31,250 298 426 1792
2018-12-06 09:47:09 GMT 45.305374 6.827022 31,150 298 425 1792
2018-12-06 09:47:06 GMT 45.302124 6.835916 31,300 298 424 1856
2018-12-06 09:47:00 GMT 45.297096 6.849641 31,125 298 425 1792
2018-12-06 09:46:56 GMT 45.293278 6.860024 31,025 298 427 1856
2018-12-06 09:46:52 GMT 45.289463 6.870474 30,875 298 428 1984
2018-12-06 09:46:49 GMT 45.287182 6.876705 30,800 298 429 2176
2018-12-06 09:46:46 GMT 45.284481 6.884207 30,550 298 431 2112
2018-12-06 09:46:42 GMT 45.280609 6.894902 30,475 298 432 2048
2018-12-06 09:46:39 GMT 45.277916 6.902295 30,425 298 432 2048
2018-12-06 09:46:35 GMT 45.274426 6.911941 30,200 298 434 2304
2018-12-06 09:46:31 GMT 45.268204 6.928973 30,025 298 436 2240
2018-12-06 09:46:28 GMT 45.265209 6.937196 29,875 298 435 1728
2018-12-06 09:46:25 GMT 45.261429 6.947414 29,875 298 435 1728
2018-12-06 09:46:22 GMT 45.261429 6.947414 29,825 298 436 1600
2018-12-06 09:46:19 GMT 45.259388 6.952872 29,700 298 436 1536
2018-12-06 09:46:15 GMT 45.256226 6.961447 29,625 298 435 960
2018-12-06 09:46:09 GMT 45.250305 6.977168 29,600 298 433 768
2018-12-06 09:46:06 GMT 45.246029 6.988644 29,475 298 434 1088
2018-12-06 09:46:01 GMT 45.242661 6.997833 29,475 298 434 1088
2018-12-06 09:45:58 GMT 45.240189 7.004634 29,175 297 434 1536
2018-12-06 09:45:47 GMT 45.229752 7.034193 29,075 297 435 1920
2018-12-06 09:45:43 GMT 45.226616 7.042973 28,950 297 436 1984
2018-12-06 09:45:38 GMT 45.221649 7.056819 28,775 298 436 2048
2018-12-06 09:45:35 GMT 45.219360 7.063163 28,325 296 441 2048
2018-12-06 09:45:28 GMT 45.209747 7.089975 27,950 283 462 2944
2018-12-06 09:45:25 GMT 45.209747 7.089975 28,325 296 442 2176
2018-12-06 09:45:20 GMT 45.205032 7.104034 28,150 295 443 2112
2018-12-06 09:45:17 GMT 45.203247 7.109427 28,075 295 444 2048
2018-12-06 09:45:14 GMT 45.200779 7.117064 28,000 295 444 1984
2018-12-06 09:45:07 GMT 45.193703 7.140309 27,700 292 447 2112
2018-12-06 09:45:03 GMT 45.192028 7.146338 26,450 283 462 2944
2018-12-06 09:44:59 GMT 45.188507 7.159685 27,425 290 450 2304
2018-12-06 09:44:56 GMT 45.187092 7.165364 27,275 288 452 2432
2018-12-06 09:44:53 GMT 45.184662 7.175315 27,225 288 452 2432
2018-12-06 09:44:49 GMT 45.181370 7.190150 27,000 284 458 2880
2018-12-06 09:44:45 GMT 45.179581 7.199184 26,825 285 458 2752
2018-12-06 09:44:42 GMT 45.178482 7.205156 26,750 284 458 2880
2018-12-06 09:44:35 GMT 45.174774 7.227565 26,375 283 466 1088
2018-12-06 09:44:32 GMT 45.173355 7.236720 26,250 283 464 2304
2018-12-06 09:44:24 GMT 45.170013 7.258432 26,050 283 466 1088
2018-12-06 09:44:21 GMT 45.168518 7.267858 26,025 283 466 256
2018-12-06 09:44:13 GMT 45.164425 7.294051 26,025 283 466 64
2018-12-06 09:44:10 GMT 45.163422 7.300480 26,025 283 466 64
2018-12-06 09:44:00 GMT 45.158463 7.332168 26,000 283 466 64
2018-12-06 09:43:52 GMT 45.154358 7.358159 26,000 283 462 64
2018-12-06 09:43:49 GMT 45.153580 7.363194 25,975 283 463 0
2018-12-06 09:43:42 GMT 45.149990 7.386162 26,000 283 463 64
2018-12-06 09:43:38 GMT 45.144974 7.418845 25,975 283 461 128
2018-12-06 09:43:31 GMT 45.144974 7.418845 25,975 283 461 128
2018-12-06 09:43:28 GMT 45.143707 7.426959 25,325 283 438 1344
2018-12-06 09:43:21 GMT 45.140820 7.445515 25,950 283 460 384
2018-12-06 09:43:18 GMT 45.139160 7.456185 25,850 283 458 1152
2018-12-06 09:43:10 GMT 45.135315 7.480512 25,750 283 457 1600
2018-12-06 09:43:07 GMT 45.134399 7.486332 25,650 283 457 1664
2018-12-06 09:43:01 GMT 45.131325 7.505739 25,500 283 457 1728
2018-12-06 09:42:57 GMT 45.129414 7.517328 25,175 283 454 1536
2018-12-06 09:42:54 GMT 45.128017 7.526104 25,325 283 455 1344
2018-12-06 09:42:48 GMT 45.124924 7.545384 25,175 283 455 1536
2018-12-06 09:42:44 GMT 45.123268 7.555981 25,075 283 454 1600
2018-12-06 09:42:39 GMT 45.121174 7.569312 24,700 283 452 960
2018-12-06 09:42:36 GMT 45.119732 7.578289 23,750 283 438 1344
2018-12-06 09:42:33 GMT 45.118336 7.587265 24,800 283 454 1216
2018-12-06 09:42:27 GMT 45.115681 7.603678 24,700 283 452 960
2018-12-06 09:42:23 GMT 45.113773 7.615468 24,575 283 449 768
2018-12-06 09:42:17 GMT 45.110825 7.633340 24,575 284 448 832
2018-12-06 09:42:12 GMT 45.108887 7.645480 24,500 283 446 1024
2018-12-06 09:42:08 GMT 45.106232 7.661624 24,400 284 444 1216
2018-12-06 09:42:04 GMT 45.105057 7.668849 24,275 284 443 1472
2018-12-06 09:41:53 GMT 45.097687 7.713383 23,950 284 440 1280
2018-12-06 09:41:43 GMT 45.095245 7.728078 23,850 283 440 1216
2018-12-06 09:41:36 GMT 45.091892 7.748778 23,700 283 438 1344
2018-12-06 09:41:33 GMT 45.090450 7.757419 23,625 283 437 1472
2018-12-06 09:41:26 GMT 45.087006 7.778789 22,950 283 436 1536
2018-12-06 09:41:23 GMT 45.085922 7.785318 23,375 284 435 1472
2018-12-06 09:41:17 GMT 45.082993 7.803301 23,200 283 433 1664
2018-12-06 09:41:12 GMT 45.081161 7.814614 22,875 282 430 1536
2018-12-06 09:41:04 GMT 45.077648 7.836802 22,875 283 431 1472
2018-12-06 09:41:00 GMT 45.076019 7.847588 22,775 282 431 1472
2018-12-06 09:40:53 GMT 45.072601 7.871181 22,575 281 429 1664
2018-12-06 09:40:48 GMT 45.071411 7.880532 22,475 280 429 1728
2018-12-06 09:40:44 GMT 45.069874 7.893677 22,325 278 429 1792
2018-12-06 09:40:39 GMT 45.068710 7.905132 22,200 277 430 1664
2018-12-06 09:40:36 GMT 45.067795 7.916434 22,100 275 430 1472
2018-12-06 09:40:32 GMT 45.067268 7.924358 22,025 275 430 1472
2018-12-06 09:40:28 GMT 45.066696 7.935464 21,925 274 430 1536
2018-12-06 09:40:23 GMT 45.066193 7.953971 21,725 273 427 2048
2018-12-06 09:40:19 GMT 45.066101 7.962668 21,625 271 431 1856
2018-12-06 09:40:12 GMT 45.065964 7.982091 21,375 272 429 1728
2018-12-06 09:40:09 GMT 45.065826 7.993273 21,375 272 429 1728
2018-12-06 09:40:01 GMT 45.065414 8.012826 21,150 273 427 2048
2018-12-06 09:39:58 GMT 45.065174 8.021024 21,000 273 426 2048
2018-12-06 09:39:53 GMT 45.064613 8.037973 20,750 274 424 2048
2018-12-06 09:39:50 GMT 45.064453 8.041992 20,325 274 425 2432
2018-12-06 09:39:47 GMT 45.063824 8.054988 20,575 273 423 2176
2018-12-06 09:39:41 GMT 45.063263 8.066510 20,425 274 424 2304
2018-12-06 09:39:38 GMT 45.062805 8.101174 19,875 265 430 1728
2018-12-06 09:39:30 GMT 45.062805 8.101174 19,925 239 439 1408
2018-12-06 09:39:27 GMT 45.063126 8.106798 19,900 260 432 1536
2018-12-06 09:39:20 GMT 45.065964 8.127538 19,700 256 434 1280
2018-12-06 09:39:17 GMT 45.068432 8.138056 19,675 248 437 1216
2018-12-06 09:39:12 GMT 45.071594 8.148782 19,550 243 439 1280
2018-12-06 09:39:09 GMT 45.074669 8.157684 19,500 239 439 1408
2018-12-06 09:39:05 GMT 45.078140 8.166308 19,425 238 440 1472
2018-12-06 09:39:02 GMT 45.081528 8.173828 19,125 235 441 1664
2018-12-06 09:38:55 GMT 45.089333 8.188834 17,500 200 443 1600
2018-12-06 09:38:50 GMT 45.097321 8.201425 19,025 225 444 1792
2018-12-06 09:38:46 GMT 45.102631 8.208684 18,775 219 445 1856
2018-12-06 09:38:40 GMT 45.112003 8.219917 18,675 214 447 1728
2018-12-06 09:38:37 GMT 45.117172 8.225209 18,600 213 447 1728
2018-12-06 09:38:33 GMT 45.123363 8.231037 18,500 212 447 1664
2018-12-06 09:38:30 GMT 45.129742 8.236330 18,400 207 447 1792
2018-12-06 09:38:24 GMT 45.139847 8.243408 18,250 204 447 1984
2018-12-06 09:38:20 GMT 45.148315 8.248455 18,075 201 448 2176
2018-12-06 09:38:14 GMT 45.159443 8.254082 17,875 199 446 1984
2018-12-06 09:38:09 GMT 45.169281 8.258907 17,700 200 446 1920
2018-12-06 09:38:04 GMT 45.180771 8.264465 17,600 200 445 1792
2018-12-06 09:37:59 GMT 45.190659 8.269305 17,400 200 442 1664
2018-12-06 09:37:55 GMT 45.196472 8.272182 17,300 200 441 1792
2018-12-06 09:37:52 GMT 45.201012 8.274380 17,250 200 441 1920
2018-12-06 09:37:45 GMT 45.216476 8.281991 16,950 200 439 2304
2018-12-06 09:37:39 GMT 45.228291 8.287778 16,700 200 439 2496
2018-12-06 09:37:32 GMT 45.240955 8.294008 16,425 200 438 2368
2018-12-06 09:37:21 GMT 45.261108 8.303898 15,875 200 435 2368
2018-12-06 09:37:14 GMT 45.275078 8.310755 15,725 200 434 2432
2018-12-06 09:37:11 GMT 45.280758 8.313569 15,550 200 433 2304
2018-12-06 09:37:07 GMT 45.288208 8.317239 15,450 200 432 2176
2018-12-06 09:37:03 GMT 45.295944 8.321097 15,300 200 431 2048
2018-12-06 09:37:00 GMT 45.301437 8.323844 15,200 200 429 2112
2018-12-06 09:36:52 GMT 45.316509 8.331321 14,925 200 428 2176
2018-12-06 09:36:49 GMT 45.320976 8.333599 14,825 200 426 2112
2018-12-06 09:36:43 GMT 45.335690 8.340901 14,550 200 423 2176
2018-12-06 09:36:40 GMT 45.340393 8.343266 14,450 200 423 2240
2018-12-06 09:36:36 GMT 45.347946 8.347124 14,300 200 422 2240
2018-12-06 09:36:32 GMT 45.353439 8.349871 14,200 200 421 2240
2018-12-06 09:36:29 GMT 45.358978 8.352683 14,075 200 420 2112
2018-12-06 09:36:21 GMT 45.373032 8.359811 13,825 200 416 1856
2018-12-06 09:36:18 GMT 45.378433 8.362558 13,750 200 414 1920
2018-12-06 09:36:12 GMT 45.390884 8.368901 13,500 200 411 2240
2018-12-06 09:36:07 GMT 45.398941 8.373021 13,325 200 410 2176
2018-12-06 09:36:00 GMT 45.410080 8.378683 13,125 200 407 1728
2018-12-06 09:35:57 GMT 45.416969 8.382233 13,025 200 403 1472
2018-12-06 09:35:50 GMT 45.428326 8.388129 12,875 200 398 1472
2018-12-06 09:35:47 GMT 45.433727 8.390875 12,675 201 390 1280
2018-12-06 09:35:44 GMT 45.440186 8.394143 12,725 200 392 1216
2018-12-06 09:35:40 GMT 45.446136 8.397217 12,650 201 389 1216
2018-12-06 09:35:36 GMT 45.452301 8.400455 12,575 201 386 1216
2018-12-06 09:35:31 GMT 45.461193 8.405144 12,475 201 383 1344
2018-12-06 09:35:26 GMT 45.469433 8.409431 12,325 200 377 1472
2018-12-06 09:35:19 GMT 45.480331 8.414873 12,150 200 371 1280
2018-12-06 09:35:15 GMT 45.487217 8.418274 12,075 199 367 1152
2018-12-06 09:35:09 GMT 45.497131 8.423030 11,975 199 361 896
2018-12-06 09:35:06 GMT 45.500519 8.424683 11,950 198 357 832
2018-12-06 09:35:03 GMT 45.505417 8.426906 11,900 198 354 832
2018-12-06 09:34:57 GMT 45.516129 8.431745 11,800 198 348 896
2018-12-06 09:34:54 GMT 45.520065 8.433511 11,750 198 343 960
2018-12-06 09:34:49 GMT 45.528214 8.437238 11,675 197 337 1024
2018-12-06 09:34:46 GMT 45.532745 8.439175 11,625 194 335 1088
2018-12-06 09:34:43 GMT 45.535812 8.440247 11,575 192 334 1152
2018-12-06 09:34:38 GMT 45.544662 8.442524 11,450 184 329 1216
2018-12-06 09:34:33 GMT 45.552109 8.442993 11,375 176 324 960
2018-12-06 09:34:25 GMT 45.564285 8.440916 11,250 161 312 768
2018-12-06 09:34:22 GMT 45.567352 8.439644 10,650 158 289 1408
2018-12-06 09:34:17 GMT 45.574364 8.435783 11,150 156 306 1024
2018-12-06 09:34:12 GMT 45.580833 8.431595 11,050 155 297 1536
2018-12-06 09:34:08 GMT 45.586395 8.427920 10,925 156 294 1600
2018-12-06 09:34:01 GMT 45.594498 8.422896 10,800 157 291 1472
2018-12-06 09:33:57 GMT 45.599594 8.420059 10,675 162 285 1280
2018-12-06 09:33:51 GMT 45.607361 8.416800 10,525 171 280 1472
2018-12-06 09:33:47 GMT 45.613083 8.415527 10,400 177 278 2048
2018-12-06 09:33:40 GMT 45.621643 8.415728 10,200 188 278 2304
2018-12-06 09:33:35 GMT 45.627228 8.417269 10,000 200 278 1664
2018-12-06 09:33:30 GMT 45.633820 8.421021 9,900 213 272 512
2018-12-06 09:33:26 GMT 45.638626 8.425308 9,875 222 266 64
2018-12-06 09:33:19 GMT 45.644073 8.432677 9,875 229 255 640
2018-12-06 09:33:15 GMT 45.647217 8.437843 9,800 231 251 1088
2018-12-06 09:33:08 GMT 45.652267 8.446611 9,675 231 246 1088
2018-12-06 09:33:04 GMT 45.654922 8.451233 9,600 232 241 960
2018-12-06 09:32:58 GMT 45.659321 8.458992 9,450 231 238 1024
2018-12-06 09:32:54 GMT 45.662113 8.463936 9,425 231 235 1664
2018-12-06 09:32:47 GMT 45.666962 8.472268 9,200 230 234 1856
2018-12-06 09:32:44 GMT 45.669479 8.476488 8,825 231 233 2048
2018-12-06 09:32:37 GMT 45.673939 8.484123 8,925 231 233 1984
2018-12-06 09:32:33 GMT 45.676964 8.489342 8,725 231 233 1984
2018-12-06 09:32:28 GMT 45.680328 8.495245 8,450 230 232 2048
2018-12-06 09:32:23 GMT 45.683758 8.501015 8,400 230 231 1920
2018-12-06 09:32:15 GMT 45.689117 8.509849 8,125 229 231 2112
2018-12-06 09:32:12 GMT 45.691956 8.514471 8,000 230 231 2112
2018-12-06 09:32:05 GMT 45.696213 8.521505 7,775 229 231 2048
2018-12-06 09:32:00 GMT 45.699448 8.526695 7,650 229 230 1856
2018-12-06 09:31:54 GMT 45.703915 8.533974 7,450 228 229 1856
2018-12-06 09:31:50 GMT 45.706833 8.538521 7,325 227 228 1664
2018-12-06 09:31:47 GMT 45.709362 8.542419 7,225 227 226 1600
2018-12-06 09:31:44 GMT 45.710907 8.544751 7,175 227 225 1664
2018-12-06 09:31:39 GMT 45.715553 8.551758 6,950 228 224 2048
2018-12-06 09:31:36 GMT 45.716858 8.553818 6,900 229 223 2048
2018-12-06 09:31:32 GMT 45.720348 8.559792 6,700 237 222 2112
2018-12-06 09:31:29 GMT 45.721756 8.562637 6,625 242 222 2176
2018-12-06 09:31:25 GMT 45.723373 8.566933 6,450 255 220 1984
2018-12-06 09:31:21 GMT 45.724865 8.572701 6,350 260 220 1728
2018-12-06 09:31:18 GMT 45.725555 8.576839 6,275 267 218 1344
2018-12-06 09:31:12 GMT 45.725784 8.584811 6,175 281 211 1408
2018-12-06 09:31:09 GMT 45.725376 8.589180 6,100 283 210 1472
2018-12-06 09:31:05 GMT 45.724075 8.595222 5,975 290 208 1664
2018-12-06 09:31:00 GMT 45.721512 8.602089 5,800 304 206 1920
2018-12-06 09:30:57 GMT 45.720303 8.604561 5,725 308 206 2112
2018-12-06 09:30:53 GMT 45.717880 8.608818 5,575 311 207 2240
2018-12-06 09:30:48 GMT 45.715118 8.613482 5,425 310 207 2176
2018-12-06 09:30:44 GMT 45.712063 8.618706 5,250 309 206 2240
2018-12-06 09:30:39 GMT 45.709717 8.622861 5,100 309 206 2368
2018-12-06 09:30:36 GMT 45.707035 8.627563 4,900 311 207 2752
2018-12-06 09:30:30 GMT 45.697037 8.644365 4,650 311 209 2624
2018-12-06 09:30:25 GMT 45.697037 8.644365 4,200 309 210 1792
2018-12-06 09:30:18 GMT 45.696716 8.644900 4,250 310 211 2368
2018-12-06 09:30:08 GMT 45.690674 8.656155 3,950 307 201 1472
2018-12-06 09:30:03 GMT 45.687763 8.661690 3,800 307 198 1856
2018-12-06 09:29:59 GMT 45.685158 8.666634 3,650 306 197 2048
2018-12-06 09:29:48 GMT 45.679962 8.677725 3,275 301 197 2112
2018-12-06 09:29:37 GMT 45.675568 8.689449 2,975 297 192 1856
2018-12-06 09:29:28 GMT 45.671356 8.700368 2,475 309 188 2560

Making use of Plane Finder data

You are free to use the raw flight data, aircraft information and images provided in this report for your own purposes provided the data is correctly attributed to Plane Finder. We ask that you please credit Plane Finder and link to planefinder.net in close proximity to the content.

Optionally one of the following logos (no smaller then 150x24px) can be used and must link to planefinder.net

Embedding the Plane Finder map

You are welcome to embed the Plane Finder playback map on your website to offer visitors a more interactive experience. We suggest using the following HTML code:

<iframe src="//planefinder.net/data/report/AA207-N388AA-7700-squawk-2018-12-06/map" width="800" height="600" seamless="seamless"></iframe>

Where our data comes from

Plane Finder has a global network of data feeds and antenna radars that receive data broadcast directly from aircraft. The primary technologies used are ADS-B and MLAT. We also show feeds from the FAA and a FLARM glider feed.

Click here to find out more about the Plane Finder network.

How we collect our data